Provisional Data: Chest Creek near Patton, PA


Please select a monitoring station.
Please select start date.
Please select start date.

<
Toggle Unit: C/F Toggle Unit: C/F
Sample Time Temperature (C) Temperature (F) Specific Conductivity (mS/cm) pH   Turbidity (NTU+) DO (mg/L)
12/23/2022 12:00:00 AM 1 33.8 0.247 7.33 35.57 12.78
12/23/2022 12:15:00 AM 0.99 33.782 0.246 7.33 33.41 12.78
12/23/2022 12:30:00 AM 1 33.8 0.247 7.32 33.05 12.77
12/23/2022 12:45:00 AM 1.01 33.818 0.246 7.32 32.4 12.76
12/23/2022 1:00:00 AM 1.04 33.872 0.248 7.32 39.65 12.75
12/23/2022 1:15:00 AM 1.04 33.872 0.251 7.33 38.17 12.74
12/23/2022 1:30:00 AM 1.03 33.854 0.247 7.33 72.12 12.74
12/23/2022 1:45:00 AM 1 33.8 0.246 7.33 32.78 12.74
12/23/2022 2:00:00 AM 0.97 33.746 0.243 7.33 33.01 12.76
12/23/2022 2:15:00 AM 0.95 33.71 0.249 7.33 44.51 12.76
12/23/2022 2:30:00 AM 0.94 33.692 0.246 7.33 31 12.75
12/23/2022 2:45:00 AM 0.92 33.656 0.244 7.33 33.94 12.76
12/23/2022 3:00:00 AM 0.91 33.638 0.252 7.34 87.4 12.76
12/23/2022 3:15:00 AM 0.88 33.584 0.26 7.34 32.63 12.77
12/23/2022 3:30:00 AM 0.83 33.494 0.259 7.35 33.43 12.78
12/23/2022 3:45:00 AM 0.78 33.404 0.256 7.35 41.3 12.79
12/23/2022 4:00:00 AM 0.75 33.35 0.255 7.36 35.02 12.81
12/23/2022 4:15:00 AM 0.72 33.296 0.255 7.36 34.9 12.8
12/23/2022 4:30:00 AM 0.7 33.26 0.25 7.36 34.9 12.8
12/23/2022 4:45:00 AM 0.68 33.224 0.248 7.37 34.4 12.8
12/23/2022 5:00:00 AM 0.67 33.206 0.25 7.37 34.83 12.81
12/23/2022 5:15:00 AM 0.65 33.17 0.25 7.37 32.8 12.81
12/23/2022 5:30:00 AM 0.64 33.152 0.257 7.36 30.76 12.81
12/23/2022 5:45:00 AM 0.63 33.134 0.276 7.36 33.87 12.8
12/23/2022 6:00:00 AM 0.62 33.116 0.294 7.36 34.85 12.8
12/23/2022 6:15:00 AM 0.61 33.098 0.305 7.36 34.35 12.8
12/23/2022 6:30:00 AM 0.6 33.08 0.317 7.37 35.72 12.79
12/23/2022 6:45:00 AM 0.6 33.08 0.325 7.37 43.96 12.79
12/23/2022 7:00:00 AM 0.58 33.044 0.326 7.37 39.33 12.8
12/23/2022 7:15:00 AM 0.51 32.918 0.327 7.38 41.54 12.79
12/23/2022 7:30:00 AM 0.46 32.828 0.3 7.38 52.38 12.8
12/23/2022 7:45:00 AM 0.36 32.648 0.292 7.38 40.06 12.81
12/23/2022 8:00:00 AM 0.24 32.432 0.283 7.38 40.59 12.83
12/23/2022 8:15:00 AM 0.17 32.306 0.262 7.39 36.51 12.86
12/23/2022 8:30:00 AM 0.1 32.18 0.25 7.39 47.01 12.89
12/23/2022 8:45:00 AM 0.06 32.108 0.243 7.39 39.31 12.92
12/23/2022 9:00:00 AM 0.02 32.036 0.236 7.39 40.75 12.95
12/23/2022 9:15:00 AM -0.02 31.964 0.233 7.39 35.37 12.99
12/23/2022 9:30:00 AM -0.03 31.946 0.229 7.39 41.06 13.01
12/23/2022 9:45:00 AM -0.04 31.928 0.226 7.39 51.48 13.04
12/23/2022 10:00:00 AM -0.04 31.928 0.223 7.39 45.06 13.07
12/23/2022 10:15:00 AM -0.04 31.928 0.221 7.39 40.92 13.09
12/23/2022 10:30:00 AM -0.02 31.964 0.218 7.39 37.47 13.11
12/23/2022 10:45:00 AM 0 32 0.22 7.39 41.59 13.13
12/23/2022 11:00:00 AM 0.03 32.054 0.217 7.39 42.59 13.14
12/23/2022 11:15:00 AM 0.05 32.09 0.217 7.4 64.72 13.15
12/23/2022 11:30:00 AM 0.02 32.036 0.216 7.4 53.03 13.16
12/23/2022 11:45:00 AM 0 32 0.22 7.4 46.03 13.16
12/23/2022 12:00:00 PM -0.01 31.982 0.218 7.4 46.71 13.17
12/23/2022 12:15:00 PM 0.01 32.018 0.213 7.4 48.98 13.16
12/23/2022 12:30:00 PM 0 32 0.213 7.4 42.15 13.16
12/23/2022 12:45:00 PM -0.03 31.946 0.21 7.4 47.13 13.17
12/23/2022 1:00:00 PM -0.02 31.964 0.209 7.4 47.6 13.17
12/23/2022 1:15:00 PM 0 32 0.207 7.4 50.57 13.17
12/23/2022 1:30:00 PM -0.04 31.928 0.206 7.4 55.22 13.17
12/23/2022 1:45:00 PM -0.04 31.928 0.204 7.4 108.56 13.17
12/23/2022 2:00:00 PM -0.04 31.928 0.202 7.4 62.31 13.17
12/23/2022 2:15:00 PM -0.04 31.928 0.202 7.39 48.64 13.18
12/23/2022 2:30:00 PM -0.04 31.928 0.2 7.39 114.53 13.17
12/23/2022 2:45:00 PM -0.04 31.928 0.2 7.39 43.3 13.17
12/23/2022 3:00:00 PM -0.04 31.928 0.201 7.37 43.92 13.17
12/23/2022 3:15:00 PM -0.04 31.928 0.2 7.37 45.44 13.17
12/23/2022 3:30:00 PM -0.04 31.928 0.2 7.39 44.19 13.17
12/23/2022 3:45:00 PM -0.04 31.928 0.2 7.39 42.42 13.16
12/23/2022 4:00:00 PM -0.04 31.928 0.2 7.38 42.29 13.12
12/23/2022 4:15:00 PM -0.03 31.946 0.2 7.38 42.38 13.13
12/23/2022 4:30:00 PM -0.03 31.946 0.203 7.38 41.38 13.12
12/23/2022 4:45:00 PM -0.03 31.946 0.201 7.38 40.44 13.12
12/23/2022 5:00:00 PM -0.04 31.928 0.202 7.38 41.18 13.12
12/23/2022 5:15:00 PM -0.03 31.946 0.203 7.37 41.36 13.12
12/23/2022 5:30:00 PM -0.03 31.946 0.206 7.37 41.8 13.12
12/23/2022 5:45:00 PM -0.03 31.946 0.205 7.37 42.07 13.11
12/23/2022 6:00:00 PM -0.03 31.946 0.207 7.36 40.67 13.11
12/23/2022 6:15:00 PM -0.03 31.946 0.208 7.36 42.3 13.1
12/23/2022 6:30:00 PM -0.03 31.946 0.209 7.36 41.9 13.11
12/23/2022 6:45:00 PM -0.03 31.946 0.21 7.36 40.74 13.11
12/23/2022 7:00:00 PM -0.03 31.946 0.211 7.36 40.06 13.12
12/23/2022 7:15:00 PM -0.03 31.946 0.211 7.35 40.26 13.12
12/23/2022 7:30:00 PM -0.03 31.946 0.21 7.35 40.16 13.12
12/23/2022 7:45:00 PM -0.03 31.946 0.212 7.35 39.61 13.13
12/23/2022 8:00:00 PM -0.03 31.946 0.214 7.35 40.07 13.13
12/23/2022 8:15:00 PM -0.04 31.928 0.213 7.35 52.83 13.13
12/23/2022 8:30:00 PM -0.03 31.946 0.212 7.35 40.62 13.13
12/23/2022 8:45:00 PM -0.03 31.946 0.213 7.35 40.45 13.12
12/23/2022 9:00:00 PM -0.03 31.946 0.211 7.35 39.65 13.13
12/23/2022 9:15:00 PM -0.03 31.946 0.211 7.34 40.73 13.08
12/23/2022 9:30:00 PM -0.03 31.946 0.211 7.34 44.07 13.09
12/23/2022 9:45:00 PM -0.03 31.946 0.213 7.34 39.84 13.09
12/23/2022 10:00:00 PM -0.03 31.946 0.21 7.34 39.53 13.1
12/23/2022 10:15:00 PM -0.03 31.946 0.21 7.33 39.31 13.09
12/23/2022 10:30:00 PM -0.03 31.946 0.212 7.33 39.61 13.1
12/23/2022 10:45:00 PM -0.03 31.946 0.209 7.33 39.46 13.1
12/23/2022 11:00:00 PM -0.03 31.946 0.211 7.33 39.52 13.09
12/23/2022 11:15:00 PM -0.03 31.946 0.209 7.32 39.44 13.09
12/23/2022 11:30:00 PM -0.03 31.946 0.209 7.32 38.6 13.09
12/23/2022 11:45:00 PM -0.03 31.946 0.21 7.32 38.1 13.08
12/24/2022 12:00:00 AM -0.03 31.946 0.21 7.32 38.13 13.08
12/24/2022 12:15:00 AM -0.03 31.946 0.211 7.31 38 13.09
12/24/2022 12:30:00 AM -0.03 31.946 0.211 7.31 37.86 13.09
12/24/2022 12:45:00 AM -0.03 31.946 0.212 7.31 37.62 13.1
12/24/2022 1:00:00 AM -0.03 31.946 0.213 7.3 38.49 13.1
12/24/2022 1:15:00 AM -0.03 31.946 0.213 7.3 37.33 13.11
12/24/2022 1:30:00 AM -0.03 31.946 0.214 7.3 36.83 13.12
12/24/2022 1:45:00 AM -0.03 31.946 0.214 7.3 37.34 13.12
12/24/2022 2:00:00 AM -0.03 31.946 0.216 7.3 36.15 13.12
12/24/2022 2:15:00 AM -0.03 31.946 0.216 7.29 36.18 13.13
12/24/2022 2:30:00 AM -0.03 31.946 0.218 7.29 36.45 13.13
12/24/2022 2:45:00 AM -0.03 31.946 0.219 7.29 37.27 13.13
12/24/2022 3:00:00 AM -0.03 31.946 0.219 7.29 36.73 13.13
12/24/2022 3:15:00 AM -0.03 31.946 0.22 7.29 36.94 13.13
12/24/2022 3:30:00 AM -0.03 31.946 0.221 7.28 36.91 13.13
12/24/2022 3:45:00 AM -0.03 31.946 0.221 7.28 36.48 13.12
12/24/2022 4:00:00 AM -0.03 31.946 0.223 7.28 35.93 13.12
12/24/2022 4:15:00 AM -0.03 31.946 0.224 7.27 36.26 13.12
12/24/2022 4:30:00 AM -0.03 31.946 0.225 7.27 36.51 13.12
12/24/2022 4:45:00 AM -0.03 31.946 0.226 7.27 37.15 13.11
12/24/2022 5:00:00 AM -0.03 31.946 0.228 7.27 35.83 13.11
12/24/2022 5:15:00 AM -0.03 31.946 0.227 7.27 35.91 13.11
12/24/2022 5:30:00 AM -0.03 31.946 0.228 7.26 35.34 13.11
12/24/2022 5:45:00 AM -0.03 31.946 0.229 7.26 36.22 13.1
12/24/2022 6:00:00 AM -0.03 31.946 0.231 7.26 35.94 13.11
12/24/2022 6:15:00 AM -0.03 31.946 0.229 7.26 34.94 13.1
12/24/2022 6:30:00 AM -0.03 31.946 0.23 7.25 35.36 13.1
12/24/2022 6:45:00 AM -0.03 31.946 0.23 7.25 35.01 13.1
12/24/2022 7:00:00 AM -0.03 31.946 0.23 7.25 34.42 13.09
12/24/2022 7:15:00 AM -0.03 31.946 0.229 7.25 34.98 13.1
12/24/2022 7:30:00 AM -0.03 31.946 0.23 7.25 34.78 13.11
12/24/2022 7:45:00 AM -0.03 31.946 0.229 7.25 34.94 13.1
12/24/2022 8:00:00 AM -0.04 31.928 0.229 7.25 36.57 13.11
12/24/2022 8:15:00 AM -0.04 31.928 0.229 7.25 37.13 13.1
12/24/2022 8:30:00 AM -0.04 31.928 0.228 7.25 37.3 13.1
12/24/2022 8:45:00 AM -0.04 31.928 0.23 7.25 36.94 13.12
12/24/2022 9:00:00 AM -0.04 31.928 0.228 7.24 57.29 13.14
12/24/2022 9:15:00 AM -0.04 31.928 0.227 7.24 36.7 13.14
12/24/2022 9:30:00 AM -0.03 31.946 0.23 7.24 38.89 13.14
12/24/2022 9:45:00 AM -0.03 31.946 0.225 7.24 39.69 13.16
12/24/2022 10:00:00 AM -0.04 31.928 0.224 7.24 36.45 13.16
12/24/2022 10:15:00 AM -0.04 31.928 0.228 7.24 36.05 13.17
12/24/2022 10:30:00 AM -0.03 31.946 0.226 7.24 35.47 13.17
12/24/2022 10:45:00 AM -0.03 31.946 0.225 7.24 36.25 13.17
12/24/2022 11:00:00 AM -0.03 31.946 0.225 7.23 36.82 13.17
12/24/2022 11:15:00 AM -0.03 31.946 0.224 7.23 38.3 13.16
12/24/2022 11:30:00 AM -0.03 31.946 0.222 7.23 38.53 13.16
12/24/2022 11:45:00 AM -0.03 31.946 0.223 7.23 39.76 13.16
12/24/2022 12:00:00 PM -0.03 31.946 0.221 7.24 38.71 13.17
12/24/2022 12:15:00 PM -0.03 31.946 0.221 7.24 39.45 13.17
12/24/2022 12:30:00 PM -0.03 31.946 0.221 7.24 38.52 13.17
12/24/2022 12:45:00 PM -0.03 31.946 0.22 7.24 41.03 13.16
12/24/2022 1:00:00 PM -0.02 31.964 0.22 7.23 39.84 13.17
12/24/2022 1:15:00 PM -0.02 31.964 0.219 7.23 46.99 13.16
12/24/2022 1:30:00 PM -0.02 31.964 0.219 7.23 58.51 13.16
12/24/2022 1:45:00 PM -0.02 31.964 0.218 7.23 47.61 13.16
12/24/2022 2:00:00 PM -0.01 31.982 0.219 7.23 41.79 13.16
12/24/2022 2:15:00 PM -0.01 31.982 0.215 7.23 42.24 13.16
12/24/2022 2:30:00 PM -0.01 31.982 0.218 7.23 74.8 13.16
12/24/2022 2:45:00 PM -0.02 31.964 0.218 7.23 41.35 13.15
12/24/2022 3:00:00 PM -0.01 31.982 0.218 7.23 41.08 13.15
12/24/2022 3:15:00 PM -0.01 31.982 0.218 7.23 39.2 13.15
12/24/2022 3:30:00 PM -0.01 31.982 0.22 7.22 45.76 13.14
12/24/2022 3:45:00 PM -0.02 31.964 0.217 7.22 37.76 13.13
12/24/2022 4:00:00 PM -0.03 31.946 0.22 7.22 40.64 13.13
12/24/2022 4:15:00 PM -0.04 31.928 0.217 7.22 39.26 13.12
12/24/2022 4:30:00 PM -0.04 31.928 0.217 7.21 42.4 13.11
12/24/2022 4:45:00 PM -0.04 31.928 0.218 7.21 37.18 13.09
12/24/2022 5:00:00 PM -0.04 31.928 0.217 7.21 36.79 13.08
12/24/2022 5:15:00 PM -0.04 31.928 0.217 7.21 38.7 13.06
12/24/2022 5:30:00 PM -0.04 31.928 0.218 7.2 37.75 13.05
12/24/2022 5:45:00 PM -0.04 31.928 0.217 7.2 40.91 13.04
12/24/2022 6:00:00 PM -0.04 31.928 0.216 7.2 48.06 13.03
12/24/2022 6:15:00 PM -0.04 31.928 0.216 7.2 36.41 13.02
12/24/2022 6:30:00 PM -0.04 31.928 0.216 7.19 37.76 13.01
12/24/2022 6:45:00 PM -0.04 31.928 0.216 7.19 34.46 13
12/24/2022 7:00:00 PM -0.04 31.928 0.216 7.19 33.64 13
12/24/2022 7:15:00 PM -0.04 31.928 0.216 7.18 32.88 12.99
12/24/2022 7:30:00 PM -0.04 31.928 0.216 7.18 33.47 12.99
12/24/2022 7:45:00 PM -0.04 31.928 0.216 7.18 32.34 12.98
12/24/2022 8:00:00 PM -0.04 31.928 0.215 7.18 33.11 12.98
12/24/2022 8:15:00 PM -0.04 31.928 0.215 7.18 33.12 12.97
12/24/2022 8:30:00 PM -0.04 31.928 0.214 7.18 32.68 12.97
12/24/2022 8:45:00 PM -0.04 31.928 0.215 7.18 32.66 12.96
12/24/2022 9:00:00 PM -0.03 31.946 0.214 7.18 32.48 12.96
12/24/2022 9:15:00 PM -0.04 31.928 0.214 7.18 33.07 12.96
12/24/2022 9:30:00 PM -0.03 31.946 0.214 7.18 33.82 12.95
12/24/2022 9:45:00 PM -0.03 31.946 0.213 7.18 33.47 12.95
12/24/2022 10:00:00 PM -0.03 31.946 0.213 7.18 33.1 12.94
12/24/2022 10:15:00 PM -0.03 31.946 0.213 7.18 32.86 12.94
12/24/2022 10:30:00 PM -0.03 31.946 0.213 7.18 33.32 12.93
12/24/2022 10:45:00 PM -0.03 31.946 0.214 7.18 34.23 12.92
12/24/2022 11:00:00 PM 0.08 32.144 0.221 7.18 38.61 12.8
12/24/2022 11:15:00 PM 0.14 32.252 0.221 7.18 39.89 12.77
12/24/2022 11:30:00 PM 0.14 32.252 0.221 7.19 50.69 12.76
12/24/2022 11:45:00 PM 0.15 32.27 0.221 7.18 36.85 12.76
12/25/2022 12:00:00 AM 0.15 32.27 0.222 7.18 58 12.75
12/25/2022 12:15:00 AM 0.16 32.288 0.221 7.18 68.85 12.74
12/25/2022 12:30:00 AM 0.17 32.306 0.221 7.18 37.02 12.74
12/25/2022 12:45:00 AM 0.17 32.306 0.22 7.18 35.27 12.75
12/25/2022 1:00:00 AM 0.15 32.27 0.22 7.18 33.31 12.75
12/25/2022 1:15:00 AM 0.17 32.306 0.22 7.18 33.22 12.74
12/25/2022 1:30:00 AM 0.17 32.306 0.22 7.18 32.79 12.74
12/25/2022 1:45:00 AM 0.17 32.306 0.221 7.18 42.65 12.74
12/25/2022 2:00:00 AM 0.16 32.288 0.22 7.18 34.63 12.73
12/25/2022 2:15:00 AM 0.16 32.288 0.22 7.18 34.6 12.73
12/25/2022 2:30:00 AM 0.17 32.306 0.22 7.17 33.92 12.73
12/25/2022 2:45:00 AM 0.17 32.306 0.219 7.18 39.76 12.73
12/25/2022 3:00:00 AM 0.17 32.306 0.219 7.18 35.36 12.73
12/25/2022 3:15:00 AM 0.17 32.306 0.22 7.17 31.17 12.72
12/25/2022 3:30:00 AM 0.16 32.288 0.225 7.17 32.1 12.72
12/25/2022 3:45:00 AM 0.16 32.288 0.231 7.17 33.39 12.72
12/25/2022 4:00:00 AM 0.17 32.306 0.22 7.17 34.18 12.71
12/25/2022 4:15:00 AM 0.17 32.306 0.219 7.17 32.38 12.71
12/25/2022 4:30:00 AM 0.16 32.288 0.219 7.17 33.77 12.71
12/25/2022 4:45:00 AM 0.15 32.27 0.219 7.17 34.49 12.7
12/25/2022 5:00:00 AM 0.15 32.27 0.218 7.17 42.69 12.7
12/25/2022 5:15:00 AM 0.16 32.288 0.219 7.17 32.57 12.7
12/25/2022 5:30:00 AM 0.18 32.324 0.219 7.17 32.26 12.68
12/25/2022 5:45:00 AM 0.16 32.288 0.22 7.17 32.8 12.68
12/25/2022 6:00:00 AM 0.16 32.288 0.221 7.17 32.33 12.67
12/25/2022 6:15:00 AM 0.17 32.306 0.221 7.17 32.06 12.67
12/25/2022 6:30:00 AM 0.18 32.324 0.221 7.16 32.19 12.67
12/25/2022 6:45:00 AM 0.18 32.324 0.22 7.17 31.92 12.66
12/25/2022 7:00:00 AM 0.2 32.36 0.221 7.17 30.85 12.65
12/25/2022 7:15:00 AM 0.19 32.342 0.222 7.16 30.83 12.66
12/25/2022 7:30:00 AM 0.2 32.36 0.221 7.16 30.73 12.64
12/25/2022 7:45:00 AM 0.21 32.378 0.221 7.17 31 12.64
12/25/2022 8:00:00 AM 0.19 32.342 0.227 7.17 30.88 12.64
12/25/2022 8:15:00 AM 0.2 32.36 0.222 7.17 39.34 12.64
12/25/2022 8:30:00 AM 0.21 32.378 0.223 7.17 31.22 12.64
12/25/2022 8:45:00 AM 0.22 32.396 0.225 7.17 31.43 12.62
12/25/2022 9:00:00 AM 0.22 32.396 0.223 7.18 33.6 12.62
12/25/2022 9:15:00 AM 0.23 32.414 0.226 7.18 32.39 12.63
12/25/2022 9:30:00 AM 0.25 32.45 0.226 7.18 31.13 12.64
12/25/2022 9:45:00 AM 0.27 32.486 0.222 7.18 30.16 12.63
12/25/2022 10:00:00 AM 0.08 32.144 0.215 7.17 30.89 12.77
12/25/2022 10:15:00 AM 0.08 32.144 0.216 7.17 31.08 12.8
12/25/2022 10:30:00 AM 0.08 32.144 0.213 7.17 30.46 12.82
12/25/2022 10:45:00 AM 0.08 32.144 0.213 7.16 30.77 12.82
12/25/2022 11:00:00 AM 0.1 32.18 0.216 7.16 31.52 12.83
12/25/2022 11:15:00 AM 0.13 32.234 0.212 7.17 29.53 12.83
12/25/2022 11:30:00 AM 0.12 32.216 0.211 7.16 29.95 12.83
12/25/2022 11:45:00 AM 0.13 32.234 0.213 7.16 41.77 12.83
12/25/2022 12:00:00 PM 0.12 32.216 0.211 7.16 29.38 12.83
12/25/2022 12:15:00 PM 0.13 32.234 0.211 7.17 29.97 12.83
12/25/2022 12:30:00 PM 0.13 32.234 0.213 7.17 31.42 12.84
12/25/2022 12:45:00 PM 0.14 32.252 0.212 7.16 31.69 12.83
12/25/2022 1:00:00 PM 0.14 32.252 0.211 7.16 31.38 12.84
12/25/2022 1:15:00 PM 0.16 32.288 0.211 7.16 29.6 12.83
12/25/2022 1:30:00 PM 0.18 32.324 0.212 7.16 30.6 12.83
12/25/2022 1:45:00 PM 0.19 32.342 0.211 7.16 31.25 12.83
12/25/2022 2:00:00 PM 0.2 32.36 0.21 7.16 29.67 12.82
12/25/2022 2:15:00 PM 0.14 32.252 0.207 7.16 47.23 12.81
12/25/2022 2:30:00 PM 0.18 32.324 0.208 7.16 36.53 12.8
12/25/2022 2:45:00 PM 0.17 32.306 0.213 7.16 33.09 12.81
12/25/2022 3:00:00 PM 0.17 32.306 0.209 7.16 30.97 12.81
12/25/2022 3:15:00 PM 0.26 32.468 0.216 7.16 31.16 12.77
12/25/2022 3:30:00 PM 0.35 32.63 0.219 7.17 111.8 12.68
12/25/2022 3:45:00 PM 0.36 32.648 0.221 7.17 31.49 12.65
12/25/2022 4:00:00 PM 0.33 32.594 0.219 7.17 31.79 12.64
12/25/2022 4:15:00 PM 0.31 32.558 0.218 7.18 37.97 12.64
12/25/2022 4:30:00 PM 0.13 32.234 0.208 7.17 30.48 12.74
12/25/2022 4:45:00 PM 0.11 32.198 0.208 7.16 31.96 12.76
12/25/2022 5:00:00 PM 0.1 32.18 0.209 7.16 29.54 12.76
12/25/2022 5:15:00 PM 0.09 32.162 0.208 7.16 29.53 12.74
12/25/2022 5:30:00 PM 0.09 32.162 0.208 7.15 30.2 12.74
12/25/2022 5:45:00 PM 0.08 32.144 0.208 7.15 29.28 12.72
12/25/2022 6:00:00 PM 0.08 32.144 0.208 7.15 28.24 12.71
12/25/2022 6:15:00 PM 0.07 32.126 0.208 7.15 36.13 12.71
12/25/2022 6:30:00 PM 0.07 32.126 0.208 7.14 29.99 12.71
12/25/2022 6:45:00 PM 0.07 32.126 0.207 7.14 28.34 12.71
12/25/2022 7:00:00 PM 0.07 32.126 0.211 7.14 29.58 12.71
12/25/2022 7:15:00 PM 0.07 32.126 0.207 7.15 28.35 12.72
12/25/2022 7:30:00 PM 0.07 32.126 0.204 7.15 28.97 12.72
12/25/2022 7:45:00 PM 0.08 32.144 0.208 7.15 28.46 12.72
12/25/2022 8:00:00 PM 0.08 32.144 0.209 7.15 27.95 12.72
12/25/2022 8:15:00 PM 0.08 32.144 0.208 7.15 28.09 12.72
12/25/2022 8:30:00 PM 0.09 32.162 0.208 7.15 28.31 12.72
12/25/2022 8:45:00 PM 0.09 32.162 0.21 7.15 28.43 12.72
12/25/2022 9:00:00 PM 0.09 32.162 0.211 7.15 27.72 12.72
12/25/2022 9:15:00 PM 0.09 32.162 0.208 7.15 29.42 12.72
12/25/2022 9:30:00 PM 0.09 32.162 0.208 7.15 28.11 12.72
12/25/2022 9:45:00 PM 0.09 32.162 0.207 7.15 34.82 12.72
12/25/2022 10:00:00 PM 0.09 32.162 0.205 7.15 28.27 12.71
12/25/2022 10:15:00 PM 0.09 32.162 0.207 7.15 28.08 12.71
12/25/2022 10:30:00 PM 0.09 32.162 0.21 7.15 31.41 12.71
12/25/2022 10:45:00 PM 0.09 32.162 0.209 7.15 29.05 12.72
12/25/2022 11:00:00 PM 0.09 32.162 0.208 7.15 30.07 12.72
12/25/2022 11:15:00 PM 0.09 32.162 0.206 7.15 28.43 12.72
12/25/2022 11:30:00 PM 0.09 32.162 0.209 7.15 28.46 12.72
12/25/2022 11:45:00 PM 0.08 32.144 0.206 7.15 29.12 12.72
12/26/2022 12:00:00 AM 0.07 32.126 0.208 7.15 27.98 12.72
12/26/2022 12:15:00 AM 0.07 32.126 0.204 7.15 28.35 12.72
12/26/2022 12:30:00 AM 0.07 32.126 0.204 7.15 28.41 12.73
12/26/2022 12:45:00 AM 0.07 32.126 0.206 7.15 28.82 12.73
12/26/2022 1:00:00 AM 0.07 32.126 0.206 7.16 28.31 12.73
12/26/2022 1:15:00 AM 0.06 32.108 0.205 7.15 27.84 12.73
12/26/2022 1:30:00 AM 0.06 32.108 0.206 7.15 27.65 12.73
12/26/2022 1:45:00 AM 0.05 32.09 0.206 7.15 26.9 12.73
12/26/2022 2:00:00 AM 0.05 32.09 0.205 7.16 27.81 12.74
12/26/2022 2:15:00 AM 0.05 32.09 0.204 7.16 27.01 12.74
12/26/2022 2:30:00 AM 0.05 32.09 0.201 7.16 27.14 12.74
12/26/2022 2:45:00 AM 0.06 32.108 0.208 7.16 27.13 12.74
12/26/2022 3:00:00 AM 0.09 32.162 0.206 7.15 26.72 12.73
12/26/2022 3:15:00 AM 0.25 32.45 0.215 7.16 26.44 12.63
12/26/2022 3:30:00 AM 0.25 32.45 0.213 7.16 26.92 12.6
12/26/2022 3:45:00 AM 0.24 32.432 0.211 7.16 32.05 12.61
12/26/2022 4:00:00 AM 0.23 32.414 0.213 7.16 26.46 12.62
12/26/2022 4:15:00 AM 0.12 32.216 0.206 7.17 29.85 12.65
12/26/2022 4:30:00 AM 0.07 32.126 0.203 7.16 26.79 12.72
12/26/2022 4:45:00 AM 0.06 32.108 0.203 7.16 22.71 12.73
12/26/2022 5:00:00 AM 0.05 32.09 0.204 7.16 27.54 12.74
12/26/2022 5:15:00 AM 0.04 32.072 0.203 7.16 29.98 12.74
12/26/2022 5:30:00 AM 0.04 32.072 0.203 7.16 26.59 12.74
12/26/2022 5:45:00 AM 0.04 32.072 0.203 7.15 26.09 12.75
12/26/2022 6:00:00 AM 0.04 32.072 0.203 7.16 27.89 12.75
12/26/2022 6:15:00 AM 0.04 32.072 0.208 7.16 26.99 12.75
12/26/2022 6:30:00 AM 0.04 32.072 0.202 7.16 26.38 12.75
12/26/2022 6:45:00 AM 0.05 32.09 0.202 7.15 26.69 12.75
12/26/2022 7:00:00 AM 0.06 32.108 0.203 7.16 29.2 12.76
12/26/2022 7:15:00 AM 0.07 32.126 0.204 7.15 26.25 12.75
12/26/2022 7:30:00 AM 0.08 32.144 0.205 7.16 26.22 12.75
12/26/2022 7:45:00 AM 0.08 32.144 0.207 7.15 26.94 12.75
12/26/2022 8:00:00 AM 0.09 32.162 0.206 7.15 26.86 12.75
12/26/2022 8:15:00 AM 0.1 32.18 0.202 7.15 27.16 12.76
12/26/2022 8:30:00 AM 0.11 32.198 0.202 7.16 27.05 12.77
12/26/2022 8:45:00 AM 0.12 32.216 0.203 7.16 28.09 12.77
12/26/2022 9:00:00 AM 0.13 32.234 0.203 7.16 26.97 12.79
12/26/2022 9:15:00 AM 0.14 32.252 0.202 7.16 27 12.8
12/26/2022 9:30:00 AM 0.14 32.252 0.203 7.16 27.32 12.81
12/26/2022 9:45:00 AM 0.16 32.288 0.203 7.16 26.9 12.83
12/26/2022 10:00:00 AM 0.17 32.306 0.203 7.16 30.49 12.84
12/26/2022 10:15:00 AM 0.17 32.306 0.202 7.16 27.04 12.85
12/26/2022 10:30:00 AM 0.18 32.324 0.202 7.16 26.16 12.86
12/26/2022 10:45:00 AM 0.19 32.342 0.202 7.16 26.31 12.86
12/26/2022 11:00:00 AM 0.21 32.378 0.201 7.16 26.42 12.87
12/26/2022 11:15:00 AM 0.23 32.414 0.2 7.16 25.68 12.87
12/26/2022 11:30:00 AM 0.25 32.45 0.201 7.16 26.46 12.88
12/26/2022 11:45:00 AM 0.27 32.486 0.204 7.17 26.19 12.88
12/26/2022 12:00:00 PM 0.27 32.486 0.201 7.16 26.63 12.88
12/26/2022 12:15:00 PM 0.28 32.504 0.201 7.16 26.28 12.88
12/26/2022 12:30:00 PM 0.29 32.522 0.201 7.16 26.71 12.89
12/26/2022 12:45:00 PM 0.3 32.54 0.2 7.16 26.31 12.89
12/26/2022 1:00:00 PM 0.3 32.54 0.2 7.17 26.73 12.9
12/26/2022 1:15:00 PM 0.3 32.54 0.2 7.17 26.74 12.9
12/26/2022 1:30:00 PM 0.3 32.54 0.199 7.17 26.96 12.91
12/26/2022 1:45:00 PM 0.3 32.54 0.2 7.17 26.38 12.91
12/26/2022 2:00:00 PM 0.3 32.54 0.199 7.17 34.06 12.91
12/26/2022 2:15:00 PM 0.3 32.54 0.2 7.17 27.08 12.91
12/26/2022 2:30:00 PM 0.31 32.558 0.2 7.17 27.33 12.91
12/26/2022 2:45:00 PM 0.29 32.522 0.2 7.17 27.82 12.91
12/26/2022 3:00:00 PM 0.29 32.522 0.199 7.17 28.27 12.92
12/26/2022 3:15:00 PM 0.28 32.504 0.2 7.17 27.48 12.92
12/26/2022 3:30:00 PM 0.28 32.504 0.2 7.17 27.51 12.91
12/26/2022 3:45:00 PM 0.27 32.486 0.198 7.17 26.36 12.91
12/26/2022 4:00:00 PM 0.27 32.486 0.202 7.17 27.69 12.91
12/26/2022 4:15:00 PM 0.26 32.468 0.2 7.17 26.72 12.91
12/26/2022 4:30:00 PM 0.26 32.468 0.2 7.17 26.88 12.91
12/26/2022 4:45:00 PM 0.24 32.432 0.201 7.17 26.28 12.89
12/26/2022 5:00:00 PM 0.23 32.414 0.198 7.17 27.21 12.88
12/26/2022 5:15:00 PM 0.22 32.396 0.203 7.17 26.67 12.87
12/26/2022 5:30:00 PM 0.22 32.396 0.205 7.17 28.22 12.86
12/26/2022 5:45:00 PM 0.22 32.396 0.205 7.17 26.79 12.85
12/26/2022 6:00:00 PM 0.21 32.378 0.2 7.17 27.32 12.84
12/26/2022 6:15:00 PM 0.21 32.378 0.197 7.16 26.9 12.83
12/26/2022 6:30:00 PM 0.2 32.36 0.201 7.16 27.56 12.83
12/26/2022 6:45:00 PM 0.2 32.36 0.199 7.16 28.5 12.83
12/26/2022 7:00:00 PM 0.21 32.378 0.202 7.17 26.5 12.83
12/26/2022 7:15:00 PM 0.21 32.378 0.203 7.16 25.96 12.83
12/26/2022 7:30:00 PM 0.2 32.36 0.204 7.16 26.23 12.83
12/26/2022 7:45:00 PM 0.19 32.342 0.207 7.16 26.51 12.83
12/26/2022 8:00:00 PM 0.18 32.324 0.202 7.16 26.23 12.83
12/26/2022 8:15:00 PM 0.17 32.306 0.201 7.16 26.5 12.84
12/26/2022 8:30:00 PM 0.16 32.288 0.201 7.16 26.89 12.84
12/26/2022 8:45:00 PM 0.16 32.288 0.202 7.16 25.85 12.85
12/26/2022 9:00:00 PM 0.18 32.324 0.201 7.16 26.39 12.84
12/26/2022 9:15:00 PM 0.2 32.36 0.201 7.17 26 12.85
12/26/2022 9:30:00 PM 0.21 32.378 0.2 7.17 26.01 12.85
12/26/2022 9:45:00 PM 0.21 32.378 0.202 7.17 26.62 12.84
12/26/2022 10:00:00 PM 0.22 32.396 0.202 7.16 26.67 12.84
12/26/2022 10:15:00 PM 0.22 32.396 0.203 7.16 27.26 12.84
12/26/2022 10:30:00 PM 0.22 32.396 0.202 7.16 26.1 12.83
12/26/2022 10:45:00 PM 0.22 32.396 0.201 7.16 26.88 12.82
12/26/2022 11:00:00 PM 0.22 32.396 0.201 7.16 26.39 12.82
12/26/2022 11:15:00 PM 0.23 32.414 0.2 7.16 27.19 12.82
12/26/2022 11:30:00 PM 0.23 32.414 0.203 7.16 28.28 12.82
12/26/2022 11:45:00 PM 0.23 32.414 0.202 7.16 26 12.82
12/27/2022 12:00:00 AM 0.23 32.414 0.203 7.16 26.69 12.82
12/27/2022 12:15:00 AM 0.24 32.432 0.204 7.16 26.71 12.82
12/27/2022 12:30:00 AM 0.23 32.414 0.203 7.16 27.15 12.82
12/27/2022 12:45:00 AM 0.24 32.432 0.203 7.16 26.56 12.82
12/27/2022 1:00:00 AM 0.24 32.432 0.203 7.16 26.85 12.82
12/27/2022 1:15:00 AM 0.24 32.432 0.202 7.16 26.32 12.82
12/27/2022 1:30:00 AM 0.24 32.432 0.2 7.16 26.61 12.82
12/27/2022 1:45:00 AM 0.25 32.45 0.2 7.16 26.42 12.81
12/27/2022 2:00:00 AM 0.25 32.45 0.204 7.16 26.21 12.81
12/27/2022 2:15:00 AM 0.25 32.45 0.202 7.16 26.98 12.81
12/27/2022 2:30:00 AM 0.24 32.432 0.201 7.16 26.4 12.82
12/27/2022 2:45:00 AM 0.25 32.45 0.202 7.16 26.45 12.82
12/27/2022 3:00:00 AM 0.25 32.45 0.204 7.16 27.05 12.82
12/27/2022 3:15:00 AM 0.25 32.45 0.202 7.17 25.84 12.82
12/27/2022 3:30:00 AM 0.25 32.45 0.204 7.17 25.36 12.82
12/27/2022 3:45:00 AM 0.25 32.45 0.202 7.17 26.16 12.82
12/27/2022 4:00:00 AM 0.25 32.45 0.203 7.17 28.4 12.82
12/27/2022 4:15:00 AM 0.25 32.45 0.205 7.16 26.59 12.82
12/27/2022 4:30:00 AM 0.26 32.468 0.203 7.16 26.65 12.81
12/27/2022 4:45:00 AM 0.26 32.468 0.205 7.16 32.93 12.8
12/27/2022 5:00:00 AM 0.27 32.486 0.203 7.16 27.87 12.8
12/27/2022 5:15:00 AM 0.27 32.486 0.203 7.16 26.8 12.8
12/27/2022 5:30:00 AM 0.27 32.486 0.203 7.16 27.81 12.81
12/27/2022 5:45:00 AM 0.28 32.504 0.203 7.16 26.31 12.81
12/27/2022 6:00:00 AM 0.27 32.486 0.202 7.16 25.7 12.81
12/27/2022 6:15:00 AM 0.28 32.504 0.205 7.16 26.55 12.8
12/27/2022 6:30:00 AM 0.28 32.504 0.203 7.16 26.75 12.81
12/27/2022 6:45:00 AM 0.28 32.504 0.203 7.16 26.18 12.81
12/27/2022 7:00:00 AM 0.28 32.504 0.203 7.16 26.63 12.81
12/27/2022 7:15:00 AM 0.28 32.504 0.203 7.16 26.49 12.81
12/27/2022 7:30:00 AM 0.29 32.522 0.202 7.16 27.01 12.8
12/27/2022 7:45:00 AM 0.29 32.522 0.204 7.16 26.56 12.8
12/27/2022 8:00:00 AM 0.29 32.522 0.204 7.16 26.97 12.81
12/27/2022 8:15:00 AM 0.29 32.522 0.203 7.16 26.69 12.81
12/27/2022 8:30:00 AM 0.29 32.522 0.203 7.16 27.89 12.82
12/27/2022 8:45:00 AM 0.3 32.54 0.203 7.16 26.21 12.82
12/27/2022 9:00:00 AM 0.31 32.558 0.203 7.16 25.8 12.83
12/27/2022 9:15:00 AM 0.32 32.576 0.202 7.17 26.3 12.85
12/27/2022 9:30:00 AM 0.33 32.594 0.203 7.17 26.36 12.86
12/27/2022 9:45:00 AM 0.34 32.612 0.202 7.17 26.09 12.87
12/27/2022 10:00:00 AM 0.35 32.63 0.202 7.17 26.24 12.88
12/27/2022 10:15:00 AM 0.36 32.648 0.203 7.17 27.15 12.9
12/27/2022 10:30:00 AM 0.36 32.648 0.203 7.17 26.46 12.9
12/27/2022 10:45:00 AM 0.37 32.666 0.202 7.17 26.81 12.92
12/27/2022 11:00:00 AM 0.37 32.666 0.203 7.17 26.64 12.92
12/27/2022 11:15:00 AM 0.38 32.684 0.202 7.17 27.61 12.93
12/27/2022 11:30:00 AM 0.39 32.702 0.203 7.17 26.85 12.94
12/27/2022 11:45:00 AM 0.4 32.72 0.203 7.18 28.02 12.93
12/27/2022 12:00:00 PM 0.4 32.72 0.202 7.18 30.41 12.94
12/27/2022 12:15:00 PM 0.4 32.72 0.204 7.18 26.72 12.95
12/27/2022 12:30:00 PM 0.41 32.738 0.202 7.18 26.31 12.95
12/27/2022 12:45:00 PM 0.41 32.738 0.202 7.18 27.03 12.95
12/27/2022 1:00:00 PM 0.42 32.756 0.204 7.18 26.75 12.95
12/27/2022 1:15:00 PM 0.42 32.756 0.204 7.18 26.16 12.95
12/27/2022 1:30:00 PM 0.42 32.756 0.206 7.18 29.92 12.95
12/27/2022 1:45:00 PM 0.42 32.756 0.204 7.18 25.99 12.95
12/27/2022 2:00:00 PM 0.42 32.756 0.205 7.18 28.14 12.95
12/27/2022 2:15:00 PM 0.43 32.774 0.202 7.18 27.08 12.95
12/27/2022 2:30:00 PM 0.43 32.774 0.205 7.18 26.79 12.95
12/27/2022 2:45:00 PM 0.42 32.756 0.204 7.18 26.68 12.95
12/27/2022 3:00:00 PM 0.43 32.774 0.201 7.18 29.19 12.94
12/27/2022 3:15:00 PM 0.43 32.774 0.202 7.18 26.08 12.94
12/27/2022 3:30:00 PM 0.42 32.756 0.203 7.18 26.23 12.94
12/27/2022 3:45:00 PM 0.42 32.756 0.203 7.18 25.81 12.93
12/27/2022 4:00:00 PM 0.42 32.756 0.205 7.18 25.95 12.93
12/27/2022 4:15:00 PM 0.42 32.756 0.205 7.18 25.63 12.92
12/27/2022 4:30:00 PM 0.42 32.756 0.202 7.18 25.8 12.91
12/27/2022 4:45:00 PM 0.41 32.738 0.203 7.18 25.87 12.9
12/27/2022 5:00:00 PM 0.41 32.738 0.201 7.18 25.55 12.89
12/27/2022 5:15:00 PM 0.4 32.72 0.202 7.18 25.56 12.88
12/27/2022 5:30:00 PM 0.4 32.72 0.203 7.18 24.84 12.87
12/27/2022 5:45:00 PM 0.4 32.72 0.203 7.18 25.7 12.86
12/27/2022 6:00:00 PM 0.41 32.738 0.202 7.18 29.1 12.85
12/27/2022 6:15:00 PM 0.4 32.72 0.203 7.18 26.29 12.85
12/27/2022 6:30:00 PM 0.4 32.72 0.202 7.18 25.64 12.84
12/27/2022 6:45:00 PM 0.41 32.738 0.203 7.18 25.51 12.84
12/27/2022 7:00:00 PM 0.41 32.738 0.204 7.18 26.22 12.83
12/27/2022 7:15:00 PM 0.41 32.738 0.204 7.18 28.7 12.83
12/27/2022 7:30:00 PM 0.41 32.738 0.204 7.18 25.79 12.83
12/27/2022 7:45:00 PM 0.41 32.738 0.203 7.18 25.64 12.83
12/27/2022 8:00:00 PM 0.41 32.738 0.204 7.18 25.51 12.82
12/27/2022 8:15:00 PM 0.42 32.756 0.204 7.17 25.39 12.82
12/27/2022 8:30:00 PM 0.42 32.756 0.205 7.17 25.76 12.82
12/27/2022 8:45:00 PM 0.42 32.756 0.203 7.17 26.27 12.82
12/27/2022 9:00:00 PM 0.42 32.756 0.202 7.17 26.56 12.82
12/27/2022 9:15:00 PM 0.43 32.774 0.207 7.17 29.79 12.82
12/27/2022 9:30:00 PM 0.43 32.774 0.204 7.18 26.98 12.82
12/27/2022 9:45:00 PM 0.43 32.774 0.205 7.17 26.8 12.81
12/27/2022 10:00:00 PM 0.43 32.774 0.206 7.18 26.12 12.82
12/27/2022 10:15:00 PM 0.43 32.774 0.206 7.18 26.26 12.82
12/27/2022 10:30:00 PM 0.44 32.792 0.205 7.18 26.32 12.82
12/27/2022 10:45:00 PM 0.44 32.792 0.205 7.18 26.3 12.81
12/27/2022 11:00:00 PM 0.44 32.792 0.203 7.18 27.19 12.81
12/27/2022 11:15:00 PM 0.44 32.792 0.204 7.18 27.21 12.81
12/27/2022 11:30:00 PM 0.44 32.792 0.204 7.18 27.3 12.81
12/27/2022 11:45:00 PM 0.45 32.81 0.203 7.18 27.19 12.81
12/28/2022 12:00:00 AM 0.45 32.81 0.203 7.18 27.03 12.81
12/28/2022 12:15:00 AM 0.45 32.81 0.206 7.17 27.26 12.8
12/28/2022 12:30:00 AM 0.45 32.81 0.203 7.17 26.18 12.8
12/28/2022 12:45:00 AM 0.43 32.774 0.203 7.18 26.35 12.8
12/28/2022 1:00:00 AM 0.41 32.738 0.205 7.18 26.45 12.8
12/28/2022 1:15:00 AM 0.4 32.72 0.206 7.18 26.05 12.8
12/28/2022 1:30:00 AM 0.38 32.684 0.204 7.18 26.33 12.81
12/28/2022 1:45:00 AM 0.37 32.666 0.205 7.18 28.37 12.82
12/28/2022 2:00:00 AM 0.35 32.63 0.205 7.18 26.03 12.82
12/28/2022 2:15:00 AM 0.34 32.612 0.205 7.18 26.22 12.82
12/28/2022 2:30:00 AM 0.32 32.576 0.208 7.18 25.79 12.83
12/28/2022 2:45:00 AM 0.32 32.576 0.207 7.18 25.97 12.83
12/28/2022 3:00:00 AM 0.32 32.576 0.206 7.18 25.31 12.83
12/28/2022 3:15:00 AM 0.3 32.54 0.207 7.18 25.87 12.83
12/28/2022 3:30:00 AM 0.3 32.54 0.204 7.18 27.16 12.84
12/28/2022 3:45:00 AM 0.29 32.522 0.205 7.18 25.57 12.84
12/28/2022 4:00:00 AM 0.28 32.504 0.205 7.18 25.58 12.84
12/28/2022 4:15:00 AM 0.28 32.504 0.205 7.18 26.52 12.85
12/28/2022 4:30:00 AM 0.27 32.486 0.205 7.18 25.74 12.85
12/28/2022 4:45:00 AM 0.27 32.486 0.205 7.18 25.48 12.85
12/28/2022 5:00:00 AM 0.27 32.486 0.205 7.18 25.68 12.85
12/28/2022 5:15:00 AM 0.27 32.486 0.209 7.18 25.51 12.85
12/28/2022 5:30:00 AM 0.28 32.504 0.202 7.18 25.18 12.85
12/28/2022 5:45:00 AM 0.28 32.504 0.205 7.18 26.19 12.85
12/28/2022 6:00:00 AM 0.28 32.504 0.205 7.18 25.39 12.85
12/28/2022 6:15:00 AM 0.27 32.486 0.206 7.18 26.31 12.85
12/28/2022 6:30:00 AM 0.26 32.468 0.205 7.18 25.77 12.86
12/28/2022 6:45:00 AM 0.26 32.468 0.204 7.18 25.68 12.85
12/28/2022 7:00:00 AM 0.25 32.45 0.205 7.18 25.81 12.85
12/28/2022 7:15:00 AM 0.25 32.45 0.204 7.18 25.98 12.86
12/28/2022 7:30:00 AM 0.25 32.45 0.203 7.18 25.75 12.86
12/28/2022 7:45:00 AM 0.26 32.468 0.206 7.18 25.59 12.87
12/28/2022 8:00:00 AM 0.26 32.468 0.206 7.19 25.24 12.87
12/28/2022 8:15:00 AM 0.27 32.486 0.204 7.19 26.47 12.88
12/28/2022 8:30:00 AM 0.28 32.504 0.206 7.19 25.65 12.89
12/28/2022 8:45:00 AM 0.3 32.54 0.206 7.19 26.56 12.91
12/28/2022 9:00:00 AM 0.34 32.612 0.208 7.19 25.38 12.93
12/28/2022 9:15:00 AM 0.38 32.684 0.206 7.19 25.16 12.95
12/28/2022 9:30:00 AM 0.4 32.72 0.206 7.19 25.19 12.96
12/28/2022 9:45:00 AM 0.43 32.774 0.207 7.19 25.36 12.98
12/28/2022 10:00:00 AM 0.49 32.882 0.206 7.2 25.55 12.98
12/28/2022 10:15:00 AM 0.56 33.008 0.206 7.2 25.16 13
12/28/2022 10:30:00 AM 0.64 33.152 0.204 7.2 25.4 13.01
12/28/2022 10:45:00 AM 0.72 33.296 0.205 7.2 26.08 13.01
12/28/2022 11:00:00 AM 0.8 33.44 0.204 7.21 26.53 13.01
12/28/2022 11:15:00 AM 0.81 33.458 0.206 7.21 27.32 13.01
12/28/2022 11:30:00 AM 0.83 33.494 0.213 7.21 26.84 13.01
12/28/2022 11:45:00 AM 0.83 33.494 0.212 7.21 28.32 13
12/28/2022 12:00:00 PM 0.85 33.53 0.214 7.21 26.9 13.02
12/28/2022 12:15:00 PM 0.85 33.53 0.214 7.21 26.54 13.02
12/28/2022 12:30:00 PM 0.9 33.62 0.214 7.22 27.24 13.02
12/28/2022 12:45:00 PM 0.97 33.746 0.223 7.22 24.71 13.02
12/28/2022 1:00:00 PM 0.97 33.746 0.228 7.22 26.41 13.02
12/28/2022 1:15:00 PM 0.97 33.746 0.224 7.22 27.53 13.02
12/28/2022 1:30:00 PM 0.96 33.728 0.219 7.22 27.51 13.02
12/28/2022 1:45:00 PM 0.93 33.674 0.218 7.21 29.69 13
12/28/2022 2:00:00 PM 0.96 33.728 0.22 7.21 26.11 13
12/28/2022 2:15:00 PM 0.97 33.746 0.226 7.2 44.43 12.99
12/28/2022 2:30:00 PM 0.97 33.746 0.231 7.21 45.61 12.99
12/28/2022 2:45:00 PM 0.94 33.692 0.241 7.21 43.56 13
12/28/2022 3:00:00 PM 0.91 33.638 0.243 7.21 73.08 13
12/28/2022 3:15:00 PM 0.86 33.548 0.244 7.2 57.9 13.01
12/28/2022 3:30:00 PM 0.82 33.476 0.24 7.21 155.57 13
12/28/2022 3:45:00 PM 0.75 33.35 0.236 7.21 306.22 13.01
12/28/2022 4:00:00 PM 0.7 33.26 0.238 7.2 35.73 13.01
12/28/2022 4:15:00 PM 0.66 33.188 0.234 7.2 35.2 13.02
12/28/2022 4:30:00 PM 0.63 33.134 0.231 7.2 31.24 13.01
12/28/2022 4:45:00 PM 0.6 33.08 0.23 7.21 29.61 13
12/28/2022 5:00:00 PM 0.57 33.026 0.227 7.21 27.71 12.99
12/28/2022 5:15:00 PM 0.54 32.972 0.223 7.21 31.11 12.97
12/28/2022 5:30:00 PM 0.53 32.954 0.22 7.2 27.78 12.95
12/28/2022 5:45:00 PM 0.51 32.918 0.218 7.2 27.45 12.94
12/28/2022 6:00:00 PM 0.5 32.9 0.216 7.2 28.2 12.93
12/28/2022 6:15:00 PM 0.49 32.882 0.215 7.2 28.15 12.92
12/28/2022 6:30:00 PM 0.48 32.864 0.213 7.2 27.45 12.92
12/28/2022 6:45:00 PM 0.47 32.846 0.212 7.21 29.01 12.92
12/28/2022 7:00:00 PM 0.46 32.828 0.211 7.21 27.53 12.91
12/28/2022 7:15:00 PM 0.45 32.81 0.209 7.21 30.57 12.91
12/28/2022 7:30:00 PM 0.44 32.792 0.212 7.21 28.74 12.91
12/28/2022 7:45:00 PM 0.43 32.774 0.212 7.22 50.79 12.91
12/28/2022 8:00:00 PM 0.42 32.756 0.21 7.21 29.08 12.91
12/28/2022 8:15:00 PM 0.42 32.756 0.208 7.2 26.5 12.91
12/28/2022 8:30:00 PM 0.41 32.738 0.21 7.2 27.77 12.91
12/28/2022 8:45:00 PM 0.39 32.702 0.208 7.21 26.4 12.91
12/28/2022 9:00:00 PM 0.39 32.702 0.209 7.21 35.72 12.91
12/28/2022 9:15:00 PM 0.39 32.702 0.208 7.2 27.25 12.92
12/28/2022 9:30:00 PM 0.39 32.702 0.208 7.21 27.65 12.92
12/28/2022 9:45:00 PM 0.39 32.702 0.208 7.21 30.36 12.91
12/28/2022 10:00:00 PM 0.39 32.702 0.206 7.2 27.43 12.91
12/28/2022 10:15:00 PM 0.39 32.702 0.208 7.2 28.06 12.91
12/28/2022 10:30:00 PM 0.39 32.702 0.208 7.21 45.34 12.91
12/28/2022 10:45:00 PM 0.39 32.702 0.208 7.21 28.59 12.91
12/28/2022 11:00:00 PM 0.38 32.684 0.208 7.21 41.55 12.9
12/28/2022 11:15:00 PM 0.38 32.684 0.208 7.21 38.09 12.89
12/28/2022 11:30:00 PM 0.37 32.666 0.208 7.21 29.98 12.88
12/28/2022 11:45:00 PM 0.37 32.666 0.208 7.21 29 12.89
12/29/2022 12:00:00 AM 0.37 32.666 0.209 7.2 26.48 12.89
12/29/2022 12:15:00 AM 0.36 32.648 0.209 7.2 26.63 12.88
12/29/2022 12:30:00 AM 0.36 32.648 0.211 7.2 24.34 12.88
12/29/2022 12:45:00 AM 0.35 32.63 0.207 7.2 37.86 12.89
12/29/2022 1:00:00 AM 0.34 32.612 0.208 7.19 33.27 12.9
12/29/2022 1:15:00 AM 0.34 32.612 0.208 7.18 29.65 12.9
12/29/2022 1:30:00 AM 0.33 32.594 0.208 7.19 42.51 12.9
12/29/2022 1:45:00 AM 0.33 32.594 0.209 7.19 27.33 12.9
12/29/2022 2:00:00 AM 0.32 32.576 0.209 7.19 64.61 12.91
12/29/2022 2:15:00 AM 0.32 32.576 0.211 7.2 26.99 12.91
12/29/2022 2:30:00 AM 0.32 32.576 0.208 7.2 32.85 12.91
12/29/2022 2:45:00 AM 0.31 32.558 0.208 7.2 34.93 12.91
12/29/2022 3:00:00 AM 0.31 32.558 0.208 7.2 25.21 12.91
12/29/2022 3:15:00 AM 0.3 32.54 0.208 7.2 25.7 12.91
12/29/2022 3:30:00 AM 0.3 32.54 0.209 7.2 26.49 12.92
12/29/2022 3:45:00 AM 0.29 32.522 0.208 7.2 26.63 12.92
12/29/2022 4:00:00 AM 0.29 32.522 0.209 7.2 26.87 12.92
12/29/2022 4:15:00 AM 0.29 32.522 0.208 7.2 34.28 12.93
12/29/2022 4:30:00 AM 0.29 32.522 0.21 7.2 24.52 12.93
12/29/2022 4:45:00 AM 0.29 32.522 0.209 7.2 102.59 12.93
12/29/2022 5:00:00 AM 0.28 32.504 0.209 7.21 24.48 12.93
12/29/2022 5:15:00 AM 0.28 32.504 0.207 7.21 22.88 12.93
12/29/2022 5:30:00 AM 0.28 32.504 0.207 7.21 23.19 12.93
12/29/2022 5:45:00 AM 0.28 32.504 0.211 7.21 23.73 12.94
12/29/2022 6:00:00 AM 0.28 32.504 0.21 7.21 23.98 12.94
12/29/2022 6:15:00 AM 0.27 32.486 0.209 7.21 22.7 12.94
12/29/2022 6:30:00 AM 0.27 32.486 0.208 7.21 23.01 12.95
12/29/2022 6:45:00 AM 0.27 32.486 0.209 7.21 27.9 12.95
12/29/2022 7:00:00 AM 0.27 32.486 0.209 7.21 23.8 12.94
12/29/2022 7:15:00 AM 0.27 32.486 0.207 7.21 24.56 12.95
12/29/2022 7:30:00 AM 0.27 32.486 0.211 7.21 23.65 12.95
12/29/2022 7:45:00 AM 0.27 32.486 0.21 7.21 23.52 12.95
12/29/2022 8:00:00 AM 0.28 32.504 0.209 7.21 23.57 12.96
12/29/2022 8:15:00 AM 0.29 32.522 0.211 7.21 22.86 12.96
12/29/2022 8:30:00 AM 0.29 32.522 0.21 7.21 22.72 12.98
12/29/2022 8:45:00 AM 0.3 32.54 0.209 7.22 22.58 12.99
12/29/2022 9:00:00 AM 0.33 32.594 0.209 7.22 23.46 13
12/29/2022 9:15:00 AM 0.35 32.63 0.21 7.21 23.01 13.01
12/29/2022 9:30:00 AM 0.38 32.684 0.21 7.22 24.02 13.03
12/29/2022 9:45:00 AM 0.44 32.792 0.209 7.22 23.48 13.05
12/29/2022 10:00:00 AM 0.52 32.936 0.209 7.22 23.14 13.06
12/29/2022 10:15:00 AM 0.62 33.116 0.211 7.22 22.39 13.08
12/29/2022 10:30:00 AM 0.73 33.314 0.212 7.22 21.6 13.09
12/29/2022 10:45:00 AM 0.86 33.548 0.21 7.23 22.31 13.09
12/29/2022 11:00:00 AM 0.98 33.764 0.209 7.23 21.98 13.09
12/29/2022 11:15:00 AM 1.08 33.944 0.209 7.23 21.99 13.08
12/29/2022 11:30:00 AM 1.16 34.088 0.208 7.23 23.01 13.08
12/29/2022 11:45:00 AM 1.24 34.232 0.211 7.23 23.39 13.07
12/29/2022 12:00:00 PM 1.3 34.34 0.214 7.24 24.18 13.07
12/29/2022 12:15:00 PM 1.36 34.448 0.224 7.24 23.05 13.06
12/29/2022 12:30:00 PM 1.4 34.52 0.224 7.24 23.88 13.05
12/29/2022 12:45:00 PM 1.43 34.574 0.229 7.24 24.22 13.04
12/29/2022 1:00:00 PM 1.42 34.556 0.236 7.24 25.21 13.02
12/29/2022 1:15:00 PM 1.44 34.592 0.246 7.24 26.93 13.02
12/29/2022 1:30:00 PM 1.46 34.628 0.254 7.24 25.33 13.01
12/29/2022 1:45:00 PM 1.46 34.628 0.262 7.24 25.14 13
12/29/2022 2:00:00 PM 1.47 34.646 0.266 7.24 25.66 13
12/29/2022 2:15:00 PM 1.45 34.61 0.272 7.24 27.44 13
12/29/2022 2:30:00 PM 1.42 34.556 0.278 7.25 27.72 13.01
12/29/2022 2:45:00 PM 1.33 34.394 0.277 7.25 28.09 13.01
12/29/2022 3:00:00 PM 1.28 34.304 0.273 7.25 28.69 13.01
12/29/2022 3:15:00 PM 1.23 34.214 0.274 7.25 24.62 13.01
12/29/2022 3:30:00 PM 1.14 34.052 0.269 7.25 24.34 13
12/29/2022 3:45:00 PM 1.07 33.926 0.265 7.25 25.19 13
12/29/2022 4:00:00 PM 1.01 33.818 0.263 7.25 24.16 13
12/29/2022 4:15:00 PM 0.98 33.764 0.258 7.25 23.84 12.99
12/29/2022 4:30:00 PM 0.94 33.692 0.254 7.24 23.83 13
12/29/2022 4:45:00 PM 0.9 33.62 0.251 7.24 23.43 12.99
12/29/2022 5:00:00 PM 0.84 33.512 0.245 7.24 23.44 12.97
12/29/2022 5:15:00 PM 0.79 33.422 0.241 7.24 23.67 12.97
12/29/2022 5:30:00 PM 0.75 33.35 0.242 7.24 23.8 12.95
12/29/2022 5:45:00 PM 0.71 33.278 0.236 7.24 23.54 12.95
12/29/2022 6:00:00 PM 0.69 33.242 0.237 7.23 23.49 12.94
12/29/2022 6:15:00 PM 0.68 33.224 0.232 7.24 23.61 12.94
12/29/2022 6:30:00 PM 0.68 33.224 0.231 7.23 23.64 12.93
12/29/2022 6:45:00 PM 0.7 33.26 0.232 7.24 23.61 12.92
12/29/2022 7:00:00 PM 0.71 33.278 0.231 7.24 23.77 12.93
12/29/2022 7:15:00 PM 0.71 33.278 0.229 7.24 760.61 12.93
12/29/2022 7:30:00 PM 0.69 33.242 0.231 7.22 24.68 12.93
12/29/2022 7:45:00 PM 0.67 33.206 0.23 7.22 27.72 12.93
12/29/2022 8:00:00 PM 0.65 33.17 0.232 7.22 26.04 12.93
12/29/2022 8:15:00 PM 0.62 33.116 0.234 7.22 25.11 12.94
12/29/2022 8:30:00 PM 0.62 33.116 0.24 7.22 24.45 12.93
12/29/2022 8:45:00 PM 0.64 33.152 0.238 7.22 23.99 12.93
12/29/2022 9:00:00 PM 0.65 33.17 0.242 7.22 24.74 12.93
12/29/2022 9:15:00 PM 0.65 33.17 0.244 7.22 24.14 12.93
12/29/2022 9:30:00 PM 0.65 33.17 0.242 7.22 23.92 12.93
12/29/2022 9:45:00 PM 0.65 33.17 0.242 7.23 24.07 12.93
12/29/2022 10:00:00 PM 0.64 33.152 0.244 7.22 24.56 12.93
12/29/2022 10:15:00 PM 0.64 33.152 0.245 7.22 23.45 12.93
12/29/2022 10:30:00 PM 0.65 33.17 0.243 7.23 23.39 12.93
12/29/2022 10:45:00 PM 0.66 33.188 0.239 7.23 25.92 12.93
12/29/2022 11:00:00 PM 0.67 33.206 0.241 7.23 23.14 12.93
12/29/2022 11:15:00 PM 0.67 33.206 0.241 7.23 23.03 12.92
12/29/2022 11:30:00 PM 0.67 33.206 0.238 7.23 24.48 12.92
12/29/2022 11:45:00 PM 0.66 33.188 0.237 7.24 22.6 12.92
12/30/2022 12:00:00 AM 0.65 33.17 0.236 7.23 22.63 12.92
12/30/2022 12:15:00 AM 0.64 33.152 0.239 7.24 23.61 12.92
12/30/2022 12:30:00 AM 0.63 33.134 0.235 7.23 23.69 12.92
12/30/2022 12:45:00 AM 0.64 33.152 0.235 7.23 26.76 12.91
12/30/2022 1:00:00 AM 0.65 33.17 0.235 7.24 23.93 12.91
12/30/2022 1:15:00 AM 0.66 33.188 0.233 7.24 24.73 12.91
12/30/2022 1:30:00 AM 0.66 33.188 0.233 7.24 25.07 12.91
12/30/2022 1:45:00 AM 0.66 33.188 0.234 7.24 25.99 12.91
12/30/2022 2:00:00 AM 0.66 33.188 0.231 7.24 25.78 12.91
12/30/2022 2:15:00 AM 0.66 33.188 0.231 7.24 25.38 12.9
12/30/2022 2:30:00 AM 0.66 33.188 0.233 7.24 25.75 12.91
12/30/2022 2:45:00 AM 0.66 33.188 0.237 7.24 25.93 12.91
12/30/2022 3:00:00 AM 0.66 33.188 0.232 7.24 25.98 12.91
12/30/2022 3:15:00 AM 0.66 33.188 0.233 7.24 25.81 12.92
12/30/2022 3:30:00 AM 0.64 33.152 0.234 7.24 26.28 12.93
12/30/2022 3:45:00 AM 0.63 33.134 0.233 7.24 25.43 12.93
12/30/2022 4:00:00 AM 0.61 33.098 0.234 7.24 25.25 12.94
12/30/2022 4:15:00 AM 0.6 33.08 0.231 7.24 25.86 12.94
12/30/2022 4:30:00 AM 0.6 33.08 0.234 7.25 25.51 12.94
12/30/2022 4:45:00 AM 0.6 33.08 0.236 7.25 26.23 12.95
12/30/2022 5:00:00 AM 0.59 33.062 0.234 7.25 26.36 12.95
12/30/2022 5:15:00 AM 0.59 33.062 0.236 7.25 26.16 12.95
12/30/2022 5:30:00 AM 0.59 33.062 0.233 7.25 29.68 12.96
12/30/2022 5:45:00 AM 0.58 33.044 0.236 7.26 28.45 12.96
12/30/2022 6:00:00 AM 0.57 33.026 0.234 7.25 28.38 12.96
12/30/2022 6:15:00 AM 0.57 33.026 0.236 7.25 26.95 12.96
12/30/2022 6:30:00 AM 0.57 33.026 0.237 7.25 26.67 12.97
12/30/2022 6:45:00 AM 0.57 33.026 0.239 7.26 28.57 12.97
12/30/2022 7:00:00 AM 0.56 33.008 0.24 7.26 27.15 12.97
12/30/2022 7:15:00 AM 0.56 33.008 0.242 7.26 27.3 12.97
12/30/2022 7:30:00 AM 0.55 32.99 0.244 7.26 27.41 12.97
12/30/2022 7:45:00 AM 0.55 32.99 0.246 7.26 28.05 12.97
12/30/2022 8:00:00 AM 0.54 32.972 0.247 7.26 27.91 12.98
12/30/2022 8:15:00 AM 0.55 32.99 0.247 7.26 28.09 12.98
12/30/2022 8:30:00 AM 0.55 32.99 0.249 7.26 27.54 13.01
12/30/2022 8:45:00 AM 0.58 33.044 0.248 7.26 27.25 13.03
12/30/2022 9:00:00 AM 0.59 33.062 0.25 7.27 26.4 13.05
12/30/2022 9:15:00 AM 0.61 33.098 0.249 7.27 26.78 13.08
12/30/2022 9:30:00 AM 0.62 33.116 0.248 7.28 27.55 13.09
12/30/2022 9:45:00 AM 0.62 33.116 0.249 7.28 25.28 13.11
12/30/2022 10:00:00 AM 0.63 33.134 0.245 7.28 32.97 13.12
12/30/2022 10:15:00 AM 0.67 33.206 0.242 7.29 25.99 13.14
12/30/2022 10:30:00 AM 0.73 33.314 0.246 7.29 26.08 13.16
12/30/2022 10:45:00 AM 0.77 33.386 0.245 7.29 25.87 13.17
12/30/2022 11:00:00 AM 0.84 33.512 0.245 7.3 25.88 13.16
12/30/2022 11:15:00 AM 0.95 33.71 0.247 7.3 27.14 13.16
12/30/2022 11:30:00 AM 1.01 33.818 0.247 7.31 28.6 13.15
12/30/2022 11:45:00 AM 1.05 33.89 0.247 7.31 34.81 13.15
12/30/2022 12:00:00 PM 1.1 33.98 0.251 7.32 29.7 13.15
12/30/2022 12:15:00 PM 1.15 34.07 0.251 7.32 30.21 13.15
12/30/2022 12:30:00 PM 1.12 34.016 0.25 7.32 32.64 13.15
12/30/2022 12:45:00 PM 1.09 33.962 0.251 7.33 31.99 13.15
12/30/2022 1:00:00 PM 1.08 33.944 0.245 7.33 34.22 13.16
12/30/2022 1:15:00 PM 1.08 33.944 0.248 7.33 32.24 13.16
12/30/2022 1:30:00 PM 1.04 33.872 0.248 7.33 35.22 13.17
12/30/2022 1:45:00 PM 1.03 33.854 0.247 7.34 39.34 13.17
12/30/2022 2:00:00 PM 0.98 33.764 0.245 7.35 41.59 13.18
12/30/2022 2:15:00 PM 0.92 33.656 0.245 7.35 46.11 13.19
12/30/2022 2:30:00 PM 0.81 33.458 0.245 7.36 56.66 13.2
12/30/2022 2:45:00 PM 0.72 33.296 0.243 7.37 90.55 13.21
12/30/2022 3:00:00 PM 0.68 33.224 0.239 7.36 119.67 13.22
12/30/2022 3:15:00 PM 0.61 33.098 0.239 7.37 77.85 13.24
12/30/2022 3:30:00 PM 0.57 33.026 0.231 7.36 67.67 13.23
12/30/2022 3:45:00 PM 0.55 32.99 0.225 7.36 73.39 13.23
12/30/2022 4:00:00 PM 0.5 32.9 0.221 7.36 66.72 13.23
12/30/2022 4:15:00 PM 0.47 32.846 0.216 7.36 66.76 13.23
12/30/2022 4:30:00 PM 0.44 32.792 0.21 7.35 65.63 13.22
12/30/2022 4:45:00 PM 0.42 32.756 0.208 7.34 59.82 13.21
12/30/2022 5:00:00 PM 0.39 32.702 0.204 7.34 60.97 13.21
12/30/2022 5:15:00 PM 0.37 32.666 0.204 7.34 100.95 13.2
12/30/2022 5:30:00 PM 0.35 32.63 0.203 7.33 49.6 13.19
12/30/2022 5:45:00 PM 0.34 32.612 0.201 7.33 46.59 13.19
12/30/2022 6:00:00 PM 0.33 32.594 0.2 7.32 54.35 13.17
12/30/2022 6:15:00 PM 0.31 32.558 0.201 7.32 122.56 13.17
12/30/2022 6:30:00 PM 0.3 32.54 0.201 7.32 71.56 13.17
12/30/2022 6:45:00 PM 0.29 32.522 0.2 7.31 50.79 13.16
12/30/2022 7:00:00 PM 0.28 32.504 0.199 7.31 68.61 13.14
12/30/2022 7:15:00 PM 0.28 32.504 0.201 7.31 79.81 13.14
12/30/2022 7:30:00 PM 0.27 32.486 0.202 7.31 60.08 13.13
12/30/2022 7:45:00 PM 0.26 32.468 0.196 7.3 72.31 13.12
12/30/2022 8:00:00 PM 0.26 32.468 0.2 7.3 67.58 13.11
12/30/2022 8:15:00 PM 0.26 32.468 0.196 7.3 65.38 13.11
12/30/2022 8:30:00 PM 0.25 32.45 0.197 7.29 95.37 13.09
12/30/2022 8:45:00 PM 0.24 32.432 0.196 7.29 107.46 13.09
12/30/2022 9:00:00 PM 0.23 32.414 0.193 7.28 106.26 13.08
12/30/2022 9:15:00 PM 0.23 32.414 0.182 7.28 90.15 13.07
12/30/2022 9:30:00 PM 0.23 32.414 0.177 7.28 94.71 13.07
12/30/2022 9:45:00 PM 0.23 32.414 0.18 7.28 85.97 13.07
12/30/2022 10:00:00 PM 0.23 32.414 0.172 7.28 87.76 13.07
12/30/2022 10:15:00 PM 0.22 32.396 0.172 7.28 84.61 13.07
12/30/2022 10:30:00 PM 0.22 32.396 0.175 7.28 93.76 13.07
12/30/2022 10:45:00 PM 0.22 32.396 0.169 7.28 94.4 13.06
12/30/2022 11:00:00 PM 0.21 32.378 0.175 7.28 80.26 13.06
12/30/2022 11:15:00 PM 0.21 32.378 0.175 7.28 74.55 13.06
12/30/2022 11:30:00 PM 0.21 32.378 0.189 7.28 74.21 13.06
12/30/2022 11:45:00 PM 0.21 32.378 0.174 7.28 293.66 13.05
12/31/2022 12:00:00 AM 0.21 32.378 0.174 7.28 88.73 13.06
12/31/2022 12:15:00 AM 0.21 32.378 0.174 7.28 106.14 13.05
12/31/2022 12:30:00 AM 0.21 32.378 0.176 7.28 38.19 13.05
12/31/2022 12:45:00 AM 0.21 32.378 0.181 7.28 80.64 13.05
12/31/2022 1:00:00 AM 0.21 32.378 0.18 7.28 83.21 13.05
12/31/2022 1:15:00 AM 0.21 32.378 0.172 7.28 568.26 13.05
12/31/2022 1:30:00 AM 0.21 32.378 0.173 7.28 202.23 13.05
12/31/2022 1:45:00 AM 0.21 32.378 0.168 7.27 117.85 13.05
12/31/2022 2:00:00 AM 0.21 32.378 0.167 7.28 166.93 13.05
12/31/2022 2:15:00 AM 0.21 32.378 0.168 7.28 1568.54 13.04
12/31/2022 2:30:00 AM 0.2 32.36 0.167 7.28 86.5 13.04
12/31/2022 2:45:00 AM 0.2 32.36 0.166 7.28 192.32 13.05
12/31/2022 3:00:00 AM 0.2 32.36 0.165 7.28 206.96 13.05
12/31/2022 3:15:00 AM 0.19 32.342 0.166 7.28 126.29 13.04
12/31/2022 3:30:00 AM 0.19 32.342 0.165 7.28 169.39 13.04
12/31/2022 3:45:00 AM 0.2 32.36 0.165 7.28 356.42 13.05
12/31/2022 4:00:00 AM 0.2 32.36 0.166 7.28 580.58 13.04
12/31/2022 4:15:00 AM 0.21 32.378 0.165 7.28 49.26 13.04
12/31/2022 4:30:00 AM 0.21 32.378 0.168 7.29 79.69 13.03
12/31/2022 4:45:00 AM 0.22 32.396 0.168 7.29 112.53 13.03
12/31/2022 5:00:00 AM 0.24 32.432 0.163 7.29 97.31 13.02
12/31/2022 5:15:00 AM 0.23 32.414 0.163 7.29 575.54 13.02
12/31/2022 5:30:00 AM 0.24 32.432 0.144 7.29 240.84 13.01
12/31/2022 5:45:00 AM 0.25 32.45 0.145 7.29 968.07 13
12/31/2022 6:00:00 AM 0.26 32.468 0.131 7.29 375.89 13
12/31/2022 6:15:00 AM 0.28 32.504 0.127 7.27 434.63 12.99
12/31/2022 6:30:00 AM 0.29 32.522 0.112 7.27 443.23 12.99
12/31/2022 6:45:00 AM 0.3 32.54 0.104 7.26 243.02 12.97
12/31/2022 7:00:00 AM 0.3 32.54 0.107 7.26 290.97 12.97
12/31/2022 7:15:00 AM 0.31 32.558 0.093 7.25 2013.02 12.96
12/31/2022 7:30:00 AM 0.32 32.576 0.086 7.27 396.43 12.95
12/31/2022 7:45:00 AM 0.32 32.576 0.087 7.3 1079.27 12.94
12/31/2022 8:00:00 AM 0.33 32.594 0.088 7.28 477.32 12.94
12/31/2022 8:15:00 AM 0.34 32.612 0.088 7.28 1350.78 12.93
12/31/2022 8:30:00 AM 0.36 32.648 0.085 7.26 983.76 12.92
12/31/2022 8:45:00 AM 0.37 32.666 0.099 7.26 490.89 12.91
12/31/2022 9:00:00 AM 0.39 32.702 0.093 7.26 180.08 12.91
12/31/2022 9:15:00 AM 0.41 32.738 0.093 7.26 301.23 12.89
12/31/2022 9:30:00 AM 0.42 32.756 0.106 6.99 714.08 12.89
12/31/2022 9:45:00 AM 0.43 32.774 0.109 7.29 4326.43 12.89
12/31/2022 10:00:00 AM 0.46 32.828 0.099 6.95 1594.75 12.88
12/31/2022 10:15:00 AM 0.47 32.846 0.095 7.29 88.58 12.86
12/31/2022 10:30:00 AM 0.49 32.882 0.087 7.24 164.86 12.86
12/31/2022 10:45:00 AM 0.51 32.918 0.089 7.25 819.17 12.85
12/31/2022 11:00:00 AM 0.53 32.954 0.09 7.26 3613.57 12.84
12/31/2022 11:15:00 AM 0.55 32.99 0.091 7.26 1795.52 12.84
12/31/2022 11:30:00 AM 0.58 33.044 0.091 7.31 884.42 12.82
12/31/2022 11:45:00 AM 0.59 33.062 0.091 6.94 908.64 12.83
12/31/2022 12:00:00 PM 0.6 33.08 0.089 7.24 808.08 12.82
12/31/2022 12:15:00 PM 0.63 33.134 0.089 7.26 815.3 12.81
12/31/2022 12:30:00 PM 0.65 33.17 0.088 7.24 560.78 12.79
12/31/2022 12:45:00 PM 0.65 33.17 0.088 7.23 722.04 12.78
12/31/2022 1:00:00 PM 0.66 33.188 0.088 7.23 722.99 12.77
12/31/2022 1:15:00 PM 0.67 33.206 0.087 7.22 770.34 12.76
12/31/2022 1:30:00 PM 0.68 33.224 0.087 7.22 743.39 12.75
12/31/2022 1:45:00 PM 0.71 33.278 0.086 7.23 796.61 12.75
12/31/2022 2:00:00 PM 0.73 33.314 0.086 7.23 511.84 12.75
12/31/2022 2:15:00 PM 0.77 33.386 0.086 7.26 513.47 12.74
12/31/2022 2:30:00 PM 0.8 33.44 0.086 7.29 493.47 12.73
12/31/2022 2:45:00 PM 0.82 33.476 0.086 7.31 418.94 12.71
12/31/2022 3:00:00 PM 0.82 33.476 0.086 7.32 432.19 12.7
12/31/2022 3:15:00 PM 0.83 33.494 0.087 7.32 263.32 12.68
12/31/2022 3:30:00 PM 0.83 33.494 0.087 7.31 179.34 12.67
12/31/2022 3:45:00 PM 0.83 33.494 0.087 7.3 149.45 12.66
12/31/2022 4:00:00 PM 0.84 33.512 0.087 7.32 161.34 12.65
12/31/2022 4:15:00 PM 0.84 33.512 0.087 7.32 164.66 12.64
12/31/2022 4:30:00 PM 0.85 33.53 0.089 7.31 153.17 12.64
12/31/2022 4:45:00 PM 0.86 33.548 0.089 7.31 123.95 12.62
12/31/2022 5:00:00 PM 0.88 33.584 0.09 7.31 102.06 12.61
12/31/2022 5:15:00 PM 0.88 33.584 0.09 7.31 99.96 12.6
12/31/2022 5:30:00 PM 0.88 33.584 0.089 7.32 107.73 12.59
12/31/2022 5:45:00 PM 0.88 33.584 0.089 7.31 106.94 12.58
12/31/2022 6:00:00 PM 0.89 33.602 0.088 7.32 100.31 12.57
12/31/2022 6:15:00 PM 0.91 33.638 0.088 7.32 96.71 12.57
12/31/2022 6:30:00 PM 0.93 33.674 0.088 7.32 100.1 12.56
12/31/2022 6:45:00 PM 0.95 33.71 0.088 7.32 105.37 12.56
12/31/2022 7:00:00 PM 0.98 33.764 0.088 7.33 104.06 12.56
12/31/2022 7:15:00 PM 1.01 33.818 0.088 7.33 110.48 12.54
12/31/2022 7:30:00 PM 1.03 33.854 0.088 7.33 110.53 12.54
12/31/2022 7:45:00 PM 1.07 33.926 0.088 7.33 132.17 12.53
12/31/2022 8:00:00 PM 1.08 33.944 0.088 7.34 145.29 12.53
12/31/2022 8:15:00 PM 1.11 33.998 0.088 7.33 132.88 12.51
12/31/2022 8:30:00 PM 1.14 34.052 0.088 7.33 124.47 12.5
12/31/2022 8:45:00 PM 1.15 34.07 0.087 7.33 122.46 12.5
12/31/2022 9:00:00 PM 1.18 34.124 0.087 7.33 120.72 12.49
12/31/2022 9:15:00 PM 1.2 34.16 0.087 7.33 119.05 12.47
12/31/2022 9:30:00 PM 1.22 34.196 0.087 7.34 119.41 12.47
12/31/2022 9:45:00 PM 1.25 34.25 0.087 7.33 126.55 12.47
12/31/2022 10:00:00 PM 1.28 34.304 0.087 7.33 127.25 12.46
12/31/2022 10:15:00 PM 1.31 34.358 0.087 7.34 130.16 12.45
12/31/2022 10:30:00 PM 1.35 34.43 0.087 7.34 127.16 12.45
12/31/2022 10:45:00 PM 1.38 34.484 0.087 7.33 126.55 12.44
12/31/2022 11:00:00 PM 1.39 34.502 0.087 7.33 125.37 12.44
12/31/2022 11:15:00 PM 1.41 34.538 0.087 7.33 122.2 12.43
12/31/2022 11:30:00 PM 1.41 34.538 0.086 7.34 121.11 12.43
12/31/2022 11:45:00 PM 1.43 34.574 0.086 7.33 121.24 12.43
1/1/2023 12:00:00 AM 1.47 34.646 0.086 7.34 121.08 12.43
1/1/2023 12:15:00 AM 1.5 34.7 0.087 7.32 122.07 12.43
1/1/2023 12:30:00 AM 1.53 34.754 0.087 7.32 122.91 12.42
1/1/2023 12:45:00 AM 1.55 34.79 0.087 7.32 120.98 12.42
1/1/2023 1:00:00 AM 1.57 34.826 0.087 7.33 123.53 12.43
1/1/2023 1:15:00 AM 1.59 34.862 0.087 7.33 124.23 12.43
1/1/2023 1:30:00 AM 1.61 34.898 0.087 7.34 122.74 12.41
1/1/2023 1:45:00 AM 1.63 34.934 0.087 7.34 122.58 12.41
1/1/2023 2:00:00 AM 1.65 34.97 0.087 7.34 122.97 12.42
1/1/2023 2:15:00 AM 1.66 34.988 0.087 7.34 124.28 12.37
1/1/2023 2:30:00 AM 1.66 34.988 0.086 7.33 121.62 12.36
1/1/2023 2:45:00 AM 1.67 35.006 0.085 7.33 123.19 12.37
1/1/2023 3:00:00 AM 1.68 35.024 0.085 7.34 122.91 12.37
1/1/2023 3:15:00 AM 1.68 35.024 0.087 7.34 123.34 12.35
1/1/2023 3:30:00 AM 1.69 35.042 0.086 7.34 122.61 12.34
1/1/2023 3:45:00 AM 1.7 35.06 0.086 7.34 123.56 12.35
1/1/2023 4:00:00 AM 1.7 35.06 0.084 7.34 124.27 12.31
1/1/2023 4:15:00 AM 1.71 35.078 0.085 7.33 123.75 12.31
1/1/2023 4:30:00 AM 1.73 35.114 0.086 7.33 124.27 12.32
1/1/2023 4:45:00 AM 1.74 35.132 0.086 7.32 124.24 12.28
1/1/2023 5:00:00 AM 1.76 35.168 0.087 7.31 123.85 12.26
1/1/2023 5:15:00 AM 1.76 35.168 0.086 7.28 123.71 12.26
1/1/2023 5:30:00 AM 1.78 35.204 0.085 7.26 123.56 12.36
1/1/2023 5:45:00 AM 1.8 35.24 0.084 7.28 123.12 12.37
1/1/2023 6:00:00 AM 1.81 35.258 0.085 7.26 123.7 12.33
1/1/2023 6:15:00 AM 1.82 35.276 0.085 7.26 123.9 12.35
1/1/2023 6:30:00 AM 1.84 35.312 0.086 7.26 123.91 12.33
1/1/2023 6:45:00 AM 1.87 35.366 0.086 7.25 123.53 12.29
1/1/2023 7:00:00 AM 1.9 35.42 0.086 7.25 123.49 12.32
1/1/2023 7:15:00 AM 1.93 35.474 0.085 7.22 123.84 12.24
1/1/2023 7:30:00 AM 1.97 35.546 0.083 7.22 123.26 12.21
1/1/2023 7:45:00 AM 2 35.6 0.083 7.22 123.43 12.22
1/1/2023 8:00:00 AM 2.04 35.672 0.083 7.21 125.23 12.24
1/1/2023 8:15:00 AM 2.08 35.744 0.082 7.2 125.97 12.2
1/1/2023 8:30:00 AM 2.13 35.834 0.081 7.24 126.35 12.19
1/1/2023 8:45:00 AM 2.19 35.942 0.081 7.22 126.44 12.17
1/1/2023 9:00:00 AM 2.24 36.032 0.081 7.23 125.85 12.18
1/1/2023 9:15:00 AM 2.31 36.158 0.08 7.25 125.39 12.19
1/1/2023 9:30:00 AM 2.37 36.266 0.08 7.26 125.65 12.19
1/1/2023 9:45:00 AM 2.44 36.392 0.08 7.26 127 12.17
1/1/2023 10:00:00 AM 2.52 36.536 0.08 7.26 128.06 12.17
1/1/2023 10:15:00 AM 2.6 36.68 0.08 7.25 128.54 12.14
1/1/2023 10:30:00 AM 2.67 36.806 0.08 7.24 128.96 12.07
1/1/2023 10:45:00 AM 2.78 37.004 0.08 7.23 129.22 12.12
1/1/2023 11:00:00 AM 2.86 37.148 0.08 7.24 129.76 12.11
1/1/2023 11:15:00 AM 2.94 37.292 0.08 7.24 130.27 12.09
1/1/2023 11:30:00 AM 3.02 37.436 0.08 7.24 130.47 12.06
1/1/2023 11:45:00 AM 3.09 37.562 0.08 7.24 130.15 12.01
1/1/2023 12:00:00 PM 3.16 37.688 0.08 7.23 130.62 11.94
1/1/2023 12:15:00 PM 3.23 37.814 0.08 7.23 130.89 11.94
1/1/2023 12:30:00 PM 3.3 37.94 0.08 7.22 130.64 11.93
1/1/2023 12:45:00 PM 3.35 38.03 0.08 7.22 130.85 11.9
1/1/2023 1:00:00 PM 3.4 38.12 0.079 7.21 131.04 11.88
1/1/2023 1:15:00 PM 3.44 38.192 0.079 7.21 130.72 11.89
1/1/2023 1:30:00 PM 3.51 38.318 0.079 7.2 130.98 11.87
1/1/2023 1:45:00 PM 3.59 38.462 0.079 7.2 131.57 11.86
1/1/2023 2:00:00 PM 3.65 38.57 0.08 7.19 131.57 11.83
1/1/2023 2:15:00 PM 3.69 38.642 0.08 7.18 131.37 11.78
1/1/2023 2:30:00 PM 3.71 38.678 0.08 7.17 130.71 11.68
1/1/2023 2:45:00 PM 3.74 38.732 0.08 7.17 130.57 11.61
1/1/2023 3:00:00 PM 3.76 38.768 0.08 7.16 131.04 11.6
1/1/2023 3:15:00 PM 3.79 38.822 0.08 7.16 131.48 11.55
1/1/2023 3:30:00 PM 3.81 38.858 0.08 7.16 131.88 11.55
1/1/2023 3:45:00 PM 3.83 38.894 0.08 7.16 132.35 11.54
1/1/2023 4:00:00 PM 3.84 38.912 0.081 7.15 131.72 11.52
1/1/2023 4:15:00 PM 3.86 38.948 0.081 7.15 131.22 11.52
1/1/2023 4:30:00 PM 3.89 39.002 0.081 7.14 130.96 11.47
1/1/2023 4:45:00 PM 3.91 39.038 0.081 7.14 131.18 11.44
1/1/2023 5:00:00 PM 3.93 39.074 0.081 7.14 131.41 11.42
1/1/2023 5:15:00 PM 3.96 39.128 0.081 7.14 131.6 11.39
1/1/2023 5:30:00 PM 3.98 39.164 0.081 7.14 131.49 11.43
1/1/2023 5:45:00 PM 4 39.2 0.081 7.14 131.24 11.41
1/1/2023 6:00:00 PM 4.01 39.218 0.081 7.14 131.14 11.39
1/1/2023 6:15:00 PM 4.02 39.236 0.082 7.13 131.64 11.22
1/1/2023 6:30:00 PM 4.04 39.272 0.082 7.13 132.25 11.14
1/1/2023 6:45:00 PM 4.06 39.308 0.082 7.12 132.72 11.11
1/1/2023 7:00:00 PM 4.08 39.344 0.082 7.11 133.21 11.07
1/1/2023 7:15:00 PM 4.09 39.362 0.082 7.11 133.5 11
1/1/2023 7:30:00 PM 4.12 39.416 0.082 7.11 134.22 10.95
1/1/2023 7:45:00 PM 4.14 39.452 0.083 7.1 134.92 10.96
1/1/2023 8:00:00 PM 4.16 39.488 0.083 7.1 134.98 10.96
1/1/2023 8:15:00 PM 4.18 39.524 0.083 7.09 134.88 10.96
1/1/2023 8:30:00 PM 4.19 39.542 0.083 7.09 134.36 10.86
1/1/2023 8:45:00 PM 4.19 39.542 0.083 7.08 133.71 10.69
1/1/2023 9:00:00 PM 4.2 39.56 0.083 7.08 133.81 10.58
1/1/2023 9:15:00 PM 4.21 39.578 0.083 7.08 133.71 10.53
1/1/2023 9:30:00 PM 4.23 39.614 0.083 7.08 133.7 10.5
1/1/2023 9:45:00 PM 4.26 39.668 0.083 7.08 133.77 10.46
1/1/2023 10:00:00 PM 4.29 39.722 0.083 7.08 133.94 10.52
1/1/2023 10:15:00 PM 4.32 39.776 0.083 7.08 134.49 10.57
1/1/2023 10:30:00 PM 4.35 39.83 0.083 7.08 134.19 10.61
1/1/2023 10:45:00 PM 4.38 39.884 0.083 7.09 134.21 10.63
1/1/2023 11:00:00 PM 4.4 39.92 0.083 7.09 134.3 10.69
1/1/2023 11:15:00 PM 4.43 39.974 0.083 7.08 134.47 10.75
1/1/2023 11:30:00 PM 4.45 40.01 0.083 7.09 134.7 10.83
1/1/2023 11:45:00 PM 4.48 40.064 0.083 7.09 134.42 10.86
1/2/2023 12:00:00 AM 4.5 40.1 0.084 7.09 134.11 10.88
1/2/2023 12:15:00 AM 4.52 40.136 0.084 7.09 134.51 10.9
1/2/2023 12:30:00 AM 4.53 40.154 0.084 7.08 133.96 10.89
1/2/2023 12:45:00 AM 4.55 40.19 0.084 7.08 133.73 10.91
1/2/2023 1:00:00 AM 4.56 40.208 0.084 7.07 134.13 10.96
1/2/2023 1:15:00 AM 4.58 40.244 0.084 7.07 134.17 10.94
1/2/2023 1:30:00 AM 4.59 40.262 0.084 7.07 134.25 10.96
1/2/2023 1:45:00 AM 4.61 40.298 0.084 7.07 134.47 10.92
1/2/2023 2:00:00 AM 4.62 40.316 0.084 7.07 134.44 10.92
1/2/2023 2:15:00 AM 4.63 40.334 0.084 7.06 134.52 10.92
1/2/2023 2:30:00 AM 4.64 40.352 0.084 7.05 134.44 10.93
1/2/2023 2:45:00 AM 4.65 40.37 0.084 7.06 134.44 10.9
1/2/2023 3:00:00 AM 4.66 40.388 0.084 7.05 134.19 10.87
1/2/2023 3:15:00 AM 4.67 40.406 0.084 7.05 134.07 10.85
1/2/2023 3:30:00 AM 4.68 40.424 0.084 7.05 134.5 10.8
1/2/2023 3:45:00 AM 4.69 40.442 0.084 7.05 133.96 10.81
1/2/2023 4:00:00 AM 4.69 40.442 0.084 7.05 133.58 10.84
1/2/2023 4:15:00 AM 4.7 40.46 0.084 7.04 133.55 10.84
1/2/2023 4:30:00 AM 4.71 40.478 0.084 7.04 133.54 10.79
1/2/2023 4:45:00 AM 4.71 40.478 0.084 7.04 132.94 10.74
1/2/2023 5:00:00 AM 4.71 40.478 0.084 7.04 133.14 10.71
1/2/2023 5:15:00 AM 4.72 40.496 0.084 7.04 133.28 10.71
1/2/2023 5:30:00 AM 4.72 40.496 0.084 7.04 133.05 10.77
1/2/2023 5:45:00 AM 4.73 40.514 0.084 7.03 133.08 10.8
1/2/2023 6:00:00 AM 4.74 40.532 0.084 7.03 133.2 10.84
1/2/2023 6:15:00 AM 4.75 40.55 0.084 7.03 133.28 10.87
1/2/2023 6:30:00 AM 4.75 40.55 0.084 7.03 133.61 10.9
1/2/2023 6:45:00 AM 4.76 40.568 0.084 7.03 134.14 10.88
1/2/2023 7:00:00 AM 4.76 40.568 0.084 7.03 134.11 10.89
1/2/2023 7:15:00 AM 4.77 40.586 0.084 7.02 134.12 10.91
1/2/2023 7:30:00 AM 4.77 40.586 0.084 7.03 134.04 10.93
1/2/2023 7:45:00 AM 4.77 40.586 0.084 7.03 134.17 10.9
1/2/2023 8:00:00 AM 4.78 40.604 0.084 7.02 134.13 10.91
1/2/2023 8:15:00 AM 4.78 40.604 0.084 7.03 134.07 10.89
1/2/2023 8:30:00 AM 4.78 40.604 0.084 7.03 133.74 10.91
1/2/2023 8:45:00 AM 4.78 40.604 0.085 7.03 133.86 10.89
1/2/2023 9:00:00 AM 4.78 40.604 0.084 7.03 133.89 10.88
1/2/2023 9:15:00 AM 4.79 40.622 0.084 7.03 134.17 10.89
1/2/2023 9:30:00 AM 4.8 40.64 0.084 7.03 134.2 10.88
1/2/2023 9:45:00 AM 4.8 40.64 0.084 7.03 134.63 10.88
1/2/2023 10:00:00 AM 4.81 40.658 0.084 7.02 134.48 10.87
1/2/2023 10:15:00 AM 4.82 40.676 0.084 7.03 134.74 10.86
1/2/2023 10:30:00 AM 4.83 40.694 0.084 7.03 134.72 10.83
1/2/2023 10:45:00 AM 4.84 40.712 0.084 7.02 135.01 10.83
1/2/2023 11:00:00 AM 4.84 40.712 0.084 7.02 135.5 10.86
1/2/2023 11:15:00 AM 4.85 40.73 0.084 7.02 135.78 10.89
1/2/2023 11:30:00 AM 4.86 40.748 0.084 6.63 134.76 10.86
1/2/2023 11:45:00 AM 4.87 40.766 0.084 7.01 134.84 10.85
1/2/2023 12:00:00 PM 4.88 40.784 0.084 7.02 134.24 10.85
1/2/2023 12:15:00 PM 4.89 40.802 0.084 7.01 134.93 10.85
1/2/2023 12:30:00 PM 4.9 40.82 0.084 7.01 135.17 10.81
1/2/2023 12:45:00 PM 4.91 40.838 0.084 7.01 136.08 10.81
1/2/2023 1:00:00 PM 4.92 40.856 0.084 7.01 136.19 10.83
1/2/2023 1:15:00 PM 4.93 40.874 0.084 7.01 137.42 10.77
1/2/2023 1:30:00 PM 4.93 40.874 0.084 7.02 137.35 10.77
1/2/2023 1:45:00 PM 4.94 40.892 0.084 7.01 137.41 10.75
1/2/2023 2:00:00 PM 4.95 40.91 0.084 7.02 138.1 10.77
1/2/2023 2:15:00 PM 4.95 40.91 0.084 7.02 138.05 10.79
1/2/2023 2:30:00 PM 4.96 40.928 0.084 7.02 137.94 10.8
1/2/2023 2:45:00 PM 4.97 40.946 0.084 7.02 137.64 10.78
1/2/2023 3:00:00 PM 4.98 40.964 0.084 7.02 137.08 10.73
1/2/2023 3:15:00 PM 4.98 40.964 0.084 7.01 137.16 10.57
1/2/2023 3:30:00 PM 4.98 40.964 0.085 7.02 137.58 10.5
1/2/2023 3:45:00 PM 4.98 40.964 0.085 7.01 138.24 10.42
1/2/2023 4:00:00 PM 4.99 40.982 0.085 7.01 138.17 10.47
1/2/2023 4:15:00 PM 4.99 40.982 0.084 7.01 138.68 10.54
1/2/2023 4:30:00 PM 5 41 0.084 7.01 139.41 10.58
1/2/2023 4:45:00 PM 5 41 0.084 7.01 140.22 10.56
1/2/2023 5:00:00 PM 5.01 41.018 0.084 7.01 139.32 10.59
1/2/2023 5:15:00 PM 5.01 41.018 0.084 7.01 140.8 10.6
1/2/2023 5:30:00 PM 5.01 41.018 0.084 7.01 141.9 10.62
1/2/2023 5:45:00 PM 5.02 41.036 0.084 7.01 142.4 10.55
1/2/2023 6:00:00 PM 5.02 41.036 0.084 7.01 140.87 10.54
1/2/2023 6:15:00 PM 5.02 41.036 0.085 7.01 141.74 10.51
1/2/2023 6:30:00 PM 5.03 41.054 0.085 7.01 143.22 10.51
1/2/2023 6:45:00 PM 5.03 41.054 0.085 7.01 144.61 10.54
1/2/2023 7:00:00 PM 5.03 41.054 0.085 7.01 145.06 10.52
1/2/2023 7:15:00 PM 5.04 41.072 0.085 7.01 144.99 10.54
1/2/2023 7:30:00 PM 5.04 41.072 0.085 7.01 145.12 10.51
1/2/2023 7:45:00 PM 5.05 41.09 0.085 7.01 144.67 10.46
1/2/2023 8:00:00 PM 5.05 41.09 0.085 7.01 144.45 10.47
1/2/2023 8:15:00 PM 5.05 41.09 0.085 7.01 143.91 10.48
1/2/2023 8:30:00 PM 5.06 41.108 0.085 7.01 143.2 10.51
1/2/2023 8:45:00 PM 5.06 41.108 0.085 7.01 143.2 10.55
1/2/2023 9:00:00 PM 5.07 41.126 0.085 7.01 143.37 10.52
1/2/2023 9:15:00 PM 5.07 41.126 0.086 7.01 143.4 10.53
1/2/2023 9:30:00 PM 5.07 41.126 0.086 7 143.37 10.5
1/2/2023 9:45:00 PM 5.08 41.144 0.086 6.72 142.7 10.5
1/2/2023 10:00:00 PM 5.08 41.144 0.086 7.04 142.68 10.43
1/2/2023 10:15:00 PM 5.09 41.162 0.086 7.01 143.06 10.39
1/2/2023 10:30:00 PM 5.09 41.162 0.086 7.01 144.42 10.34
1/2/2023 10:45:00 PM 5.1 41.18 0.086 7.01 144.74 10.38
1/2/2023 11:00:00 PM 5.1 41.18 0.086 7.01 144.54 10.4
1/2/2023 11:15:00 PM 5.11 41.198 0.086 7.01 145.59 10.43
1/2/2023 11:30:00 PM 5.11 41.198 0.086 7.01 144.86 10.41
1/2/2023 11:45:00 PM 5.12 41.216 0.087 7 144.84 10.4
1/3/2023 12:00:00 AM 5.13 41.234 0.086 7.01 146.29 10.35
1/3/2023 12:15:00 AM 5.13 41.234 0.086 7.01 146.56 10.37
1/3/2023 12:30:00 AM 5.14 41.252 0.086 7.01 147.23 10.37
1/3/2023 12:45:00 AM 5.14 41.252 0.086 7.01 147.67 10.4
1/3/2023 1:00:00 AM 5.15 41.27 0.087 7.01 147.45 10.33
1/3/2023 1:15:00 AM 5.15 41.27 0.087 7.01 147.27 10.32
1/3/2023 1:30:00 AM 5.15 41.27 0.087 7 147.03 10.24
1/3/2023 1:45:00 AM 5.15 41.27 0.087 7 146.75 10.17
1/3/2023 2:00:00 AM 5.15 41.27 0.087 7.01 146.84 10.2
1/3/2023 2:15:00 AM 5.16 41.288 0.087 7.01 146.75 10.16
1/3/2023 2:30:00 AM 5.16 41.288 0.087 7.01 147.17 10.08
1/3/2023 2:45:00 AM 5.16 41.288 0.087 7 146.88 9.98
1/3/2023 3:00:00 AM 5.17 41.306 0.088 7.01 146.66 10.03
1/3/2023 3:15:00 AM 5.17 41.306 0.088 7.01 146.18 9.92
1/3/2023 3:30:00 AM 5.18 41.324 0.088 7.01 146.06 9.87
1/3/2023 3:45:00 AM 5.18 41.324 0.088 7.01 145.27 9.82
1/3/2023 4:00:00 AM 5.19 41.342 0.088 7.01 145.26 9.71
1/3/2023 4:15:00 AM 5.19 41.342 0.088 7 145.58 9.54
1/3/2023 4:30:00 AM 5.2 41.36 0.089 7 144.59 9.28
1/3/2023 4:45:00 AM 5.2 41.36 0.089 7 144.93 9.09
1/3/2023 5:00:00 AM 5.21 41.378 0.089 7 143.96 9.09
1/3/2023 5:15:00 AM 5.21 41.378 0.089 7 144.06 9.06
1/3/2023 5:30:00 AM 5.22 41.396 0.088 7 143.77 9.18
1/3/2023 5:45:00 AM 5.22 41.396 0.088 7 144.03 9.17
1/3/2023 6:00:00 AM 5.23 41.414 0.088 6.99 143.73 9.17
1/3/2023 6:15:00 AM 5.23 41.414 0.088 7 143.88 9.22
1/3/2023 6:30:00 AM 5.24 41.432 0.088 7 143.92 9.41
1/3/2023 6:45:00 AM 5.24 41.432 0.088 6.99 143.17 9.35
1/3/2023 7:00:00 AM 5.25 41.45 0.088 7 142.84 9.29
1/3/2023 7:15:00 AM 5.26 41.468 0.088 7 144.41 9.27
1/3/2023 7:30:00 AM 5.28 41.504 0.088 7 143.38 9.27
1/3/2023 7:45:00 AM 5.29 41.522 0.088 7 143.46 9.23
1/3/2023 8:00:00 AM 5.31 41.558 0.088 6.99 142.92 9.32
1/3/2023 8:15:00 AM 5.33 41.594 0.088 6.99 142.72 9.45
1/3/2023 8:30:00 AM 5.35 41.63 0.088 6.99 142.66 9.56
1/3/2023 8:45:00 AM 5.37 41.666 0.088 6.99 142.54 9.62
1/3/2023 9:00:00 AM 5.39 41.702 0.088 6.99 143.08 9.74
1/3/2023 9:15:00 AM 5.41 41.738 0.088 6.65 144.43 9.81
1/3/2023 9:30:00 AM 5.43 41.774 0.087 7.07 143.6 9.8
1/3/2023 9:45:00 AM 5.44 41.792 0.088 6.7 143.37 9.74
1/3/2023 10:00:00 AM 5.45 41.81 0.088 6.98 143.11 9.47
1/3/2023 10:15:00 AM 5.45 41.81 0.088 6.98 143.52 9.23
1/3/2023 10:30:00 AM 5.45 41.81 0.088 6.99 143.95 8.75
1/3/2023 10:45:00 AM 5.45 41.81 0.089 6.98 143.42 7.78
1/3/2023 11:00:00 AM 5.49 41.882 0.089 6.99 139.87 7.87
1/3/2023 11:15:00 AM 5.58 42.044 0.088 6.99 138.33 9.03
1/3/2023 11:30:00 AM 5.68 42.224 0.087 6.98 138.82 10.18
1/3/2023 11:45:00 AM 5.8 42.44 0.084 6.98 138.58 10.89
1/3/2023 12:00:00 PM 5.9 42.62 0.08 6.98 138.55 11.13
1/3/2023 12:15:00 PM 5.95 42.71 0.079 6.99 137.77 10.88
1/3/2023 12:30:00 PM 6.05 42.89 0.068 6.98 136.07 11.26
1/3/2023 12:45:00 PM 6.07 42.926 0.068 7.08 145.8 11.29
1/3/2023 1:00:00 PM 6.09 42.962 0.069 7.12 147.34 11.29
1/3/2023 1:15:00 PM 6.09 42.962 0.065 7.14 147.5 11.27
1/3/2023 1:30:00 PM 6.1 42.98 0.071 7.18 146.27 11.27
1/3/2023 1:45:00 PM 6.13 43.034 0.134 7.11 150.69 11.26
1/3/2023 2:00:00 PM 6.14 43.052 0.132 7.14 149.24 11.25
1/3/2023 2:15:00 PM 6.15 43.07 0.133 7.19 214.79 11.24
1/3/2023 2:30:00 PM 6.15 43.07 0.129 7.16 204.88 11.24
1/3/2023 2:45:00 PM 6.17 43.106 0.128 7.14 206.01 11.23
1/3/2023 3:00:00 PM 6.19 43.142 0.125 7.14 166.13 11.23
1/3/2023 3:15:00 PM 6.21 43.178 0.123 7.15 189.38 11.23
1/3/2023 3:30:00 PM 6.22 43.196 0.124 7.15 171.53 11.22
1/3/2023 3:45:00 PM 6.23 43.214 0.122 7.15 177.74 11.21
1/3/2023 4:00:00 PM 6.23 43.214 0.122 7.16 146.09 11.2
1/3/2023 4:15:00 PM 6.22 43.196 0.122 7.14 160.64 11.19
1/3/2023 4:30:00 PM 6.23 43.214 0.121 7.14 160.32 11.18
1/3/2023 4:45:00 PM 6.22 43.196 0.12 7.13 265.38 11.17
1/3/2023 5:00:00 PM 6.21 43.178 0.119 7.14 163.24 11.16
1/3/2023 5:15:00 PM 6.2 43.16 0.118 7.14 137.44 11.16
1/3/2023 5:30:00 PM 6.2 43.16 0.118 7.13 130.75 11.15
1/3/2023 5:45:00 PM 6.2 43.16 0.117 7.14 129.4 11.14
1/3/2023 6:00:00 PM 6.22 43.196 0.117 7.12 123.53 11.13
1/3/2023 6:15:00 PM 6.23 43.214 0.118 7.13 125.64 11.12
1/3/2023 6:30:00 PM 6.24 43.232 0.117 7.12 116.35 11.11
1/3/2023 6:45:00 PM 6.23 43.214 0.117 7.11 112.58 11.09
1/3/2023 7:00:00 PM 6.23 43.214 0.116 7.11 118.55 11.08
1/3/2023 7:15:00 PM 6.23 43.214 0.116 7.11 119 11.06
1/3/2023 7:30:00 PM 6.23 43.214 0.116 7.09 144.6 11.05
1/3/2023 7:45:00 PM 6.22 43.196 0.111 7.1 110.39 11.04
1/3/2023 8:00:00 PM 6.21 43.178 0.115 7.1 121.05 11.03
1/3/2023 8:15:00 PM 6.2 43.16 0.114 7.08 118.58 11.02
1/3/2023 8:30:00 PM 6.19 43.142 0.112 7.07 116.69 11.02
1/3/2023 8:45:00 PM 6.19 43.142 0.112 7.08 123.14 11.01
1/3/2023 9:00:00 PM 6.18 43.124 0.109 7.08 121.64 11
1/3/2023 9:15:00 PM 6.18 43.124 0.11 7.06 118.4 11
1/3/2023 9:30:00 PM 6.17 43.106 0.108 7.04 112.61 10.98
1/3/2023 9:45:00 PM 6.19 43.142 0.108 7.06 125.01 10.97
1/3/2023 10:00:00 PM 6.2 43.16 0.107 7.03 121.19 10.96
1/3/2023 10:15:00 PM 6.21 43.178 0.106 7.03 113.98 10.95
1/3/2023 10:30:00 PM 6.21 43.178 0.105 7.03 119.21 10.95
1/3/2023 10:45:00 PM 6.24 43.232 0.105 7 113.65 10.94
1/3/2023 11:00:00 PM 6.25 43.25 0.104 7.02 116.98 10.94
1/3/2023 11:15:00 PM 6.28 43.304 0.103 7.01 112.57 10.93
1/3/2023 11:30:00 PM 6.3 43.34 0.103 7.02 111.89 10.93
1/3/2023 11:45:00 PM 6.33 43.394 0.103 7.03 111.89 10.93
1/4/2023 12:00:00 AM 6.37 43.466 0.102 7.01 98.51 10.92
1/4/2023 12:15:00 AM 6.4 43.52 0.102 7.02 139.67 10.92
1/4/2023 12:30:00 AM 6.44 43.592 0.096 7.02 116.4 10.9
1/4/2023 12:45:00 AM 6.48 43.664 0.101 7.02 102.73 10.9
1/4/2023 1:00:00 AM 6.51 43.718 0.102 7.03 100.24 10.89
1/4/2023 1:15:00 AM 6.55 43.79 0.102 7.03 96.9 10.88
1/4/2023 1:30:00 AM 6.59 43.862 0.101 7.03 96.14 10.87
1/4/2023 1:45:00 AM 6.62 43.916 0.101 6.99 83.35 10.86
1/4/2023 2:00:00 AM 6.66 43.988 0.101 7.04 82.65 10.85
1/4/2023 2:15:00 AM 6.69 44.042 0.101 7.01 72.81 10.84
1/4/2023 2:30:00 AM 6.72 44.096 0.101 7 81.31 10.83
1/4/2023 2:45:00 AM 6.75 44.15 0.099 7.02 88.94 10.82
1/4/2023 3:00:00 AM 6.77 44.186 0.094 7.04 682.07 10.81
1/4/2023 3:15:00 AM 6.79 44.222 0.1 7.01 81.28 10.8
1/4/2023 3:30:00 AM 6.81 44.258 0.101 7.03 74.67 10.79
1/4/2023 3:45:00 AM 6.83 44.294 0.101 7.03 70.04 10.78
1/4/2023 4:00:00 AM 6.85 44.33 0.102 7.02 62.94 10.77
1/4/2023 4:15:00 AM 6.86 44.348 0.102 7.02 85.8 10.76
1/4/2023 4:30:00 AM 6.87 44.366 0.102 7.03 69.81 10.76
1/4/2023 4:45:00 AM 6.89 44.402 0.102 7.03 64.08 10.75
1/4/2023 5:00:00 AM 6.9 44.42 0.102 7.03 61.89 10.74
1/4/2023 5:15:00 AM 6.91 44.438 0.102 7.03 61 10.74
1/4/2023 5:30:00 AM 6.92 44.456 0.103 7.03 54.61 10.73
1/4/2023 5:45:00 AM 6.94 44.492 0.103 7.03 56.91 10.72
1/4/2023 6:00:00 AM 6.95 44.51 0.104 7.04 59.03 10.72
1/4/2023 6:15:00 AM 6.95 44.51 0.104 7.03 53.5 10.71
1/4/2023 6:30:00 AM 6.96 44.528 0.104 7.03 47.94 10.71
1/4/2023 6:45:00 AM 6.96 44.528 0.104 7.04 39.25 10.71
1/4/2023 7:00:00 AM 6.96 44.528 0.104 7.04 182.37 10.7
1/4/2023 7:15:00 AM 6.97 44.546 0.105 7.04 46.91 10.7
1/4/2023 7:30:00 AM 6.98 44.564 0.106 7.04 48.03 10.69
1/4/2023 7:45:00 AM 6.99 44.582 0.106 7.04 45.26 10.69
1/4/2023 8:00:00 AM 6.99 44.582 0.106 7.04 44.66 10.69
1/4/2023 8:15:00 AM 7 44.6 0.107 7.04 41.8 10.69
1/4/2023 8:30:00 AM 7.01 44.618 0.107 7.04 39.34 10.68
1/4/2023 8:45:00 AM 7.02 44.636 0.108 7.05 43.56 10.69
1/4/2023 9:00:00 AM 7.03 44.654 0.108 7.05 45.43 10.68
1/4/2023 9:15:00 AM 7.05 44.69 0.108 7.05 42.04 10.68
1/4/2023 9:30:00 AM 7.06 44.708 0.109 7.05 42.14 10.68
1/4/2023 9:45:00 AM 7.08 44.744 0.109 7.05 50.38 10.68
1/4/2023 10:00:00 AM 7.1 44.78 0.11 7.05 47.45 10.68
1/4/2023 10:15:00 AM 7.12 44.816 0.11 7.06 40.15 10.68
1/4/2023 10:30:00 AM 7.14 44.852 0.11 7.07 43.79 10.68
1/4/2023 10:45:00 AM 7.16 44.888 0.111 7.06 40.77 10.68
1/4/2023 11:00:00 AM 7.18 44.924 0.111 7.06 38.92 10.67
1/4/2023 11:15:00 AM 7.2 44.96 0.111 7.07 37.34 10.67
1/4/2023 11:30:00 AM 7.21 44.978 0.111 7.06 43.99 10.67
1/4/2023 11:45:00 AM 7.24 45.032 0.112 7.07 30.79 10.67
1/4/2023 12:00:00 PM 7.26 45.068 0.112 7.06 39.54 10.67
1/4/2023 12:15:00 PM 7.28 45.104 0.112 7.06 39.47 10.67
1/4/2023 12:30:00 PM 7.3 45.14 0.113 7.07 37.4 10.66
1/4/2023 12:45:00 PM 7.32 45.176 0.113 7.07 36.82 10.66
1/4/2023 1:00:00 PM 7.33 45.194 0.113 7.07 32.34 10.66
1/4/2023 1:15:00 PM 7.35 45.23 0.113 7.07 36.23 10.65
1/4/2023 1:30:00 PM 7.37 45.266 0.113 7.07 35 10.65
1/4/2023 1:45:00 PM 7.39 45.302 0.113 7.07 41.26 10.65
1/4/2023 2:00:00 PM 7.41 45.338 0.114 7.07 34.28 10.64
1/4/2023 2:15:00 PM 7.43 45.374 0.115 7.07 24.97 10.64
1/4/2023 2:30:00 PM 7.45 45.41 0.114 7.08 30.75 10.63
1/4/2023 2:45:00 PM 7.48 45.464 0.115 7.07 1497.03 10.63
1/4/2023 3:00:00 PM 7.5 45.5 0.115 7.07 30.24 10.63
1/4/2023 3:15:00 PM 7.52 45.536 0.115 7.08 35.73 10.62
1/4/2023 3:30:00 PM 7.54 45.572 0.116 7.07 29.87 10.62
1/4/2023 3:45:00 PM 7.56 45.608 0.116 7.08 38.16 10.61
1/4/2023 4:00:00 PM 7.58 45.644 0.116 7.07 31.69 10.61
1/4/2023 4:15:00 PM 7.59 45.662 0.116 7.08 31.56 10.6
1/4/2023 4:30:00 PM 7.6 45.68 0.116 7.08 37.83 10.6
1/4/2023 4:45:00 PM 7.61 45.698 0.116 7.07 24.9 10.6
1/4/2023 5:00:00 PM 7.63 45.734 0.117 7.09 36.99 10.59
1/4/2023 5:15:00 PM 7.63 45.734 0.117 7.09 28.55 10.59
1/4/2023 5:30:00 PM 7.64 45.752 0.118 7.09 30.9 10.58
1/4/2023 5:45:00 PM 7.65 45.77 0.118 7.08 29.41 10.58
1/4/2023 6:00:00 PM 7.66 45.788 0.118 7.09 29.42 10.57
1/4/2023 6:15:00 PM 7.67 45.806 0.119 7.08 25.89 10.57
1/4/2023 6:30:00 PM 7.68 45.824 0.119 7.08 28.27 10.57
1/4/2023 6:45:00 PM 7.69 45.842 0.12 7.08 22.42 10.56
1/4/2023 7:00:00 PM 7.7 45.86 0.12 7.08 27.82 10.56
1/4/2023 7:15:00 PM 7.72 45.896 0.12 7.09 27.25 10.56
1/4/2023 7:30:00 PM 7.74 45.932 0.121 7.09 28.89 10.56
1/4/2023 7:45:00 PM 7.74 45.932 0.122 7.09 27.69 10.55
1/4/2023 8:00:00 PM 7.74 45.932 0.121 7.1 31.44 10.55
1/4/2023 8:15:00 PM 7.75 45.95 0.121 7.09 27.98 10.55
1/4/2023 8:30:00 PM 7.75 45.95 0.121 7.1 34.03 10.55
1/4/2023 8:45:00 PM 7.76 45.968 0.122 7.09 65.19 10.55
1/4/2023 9:00:00 PM 7.76 45.968 0.122 7.1 24.9 10.55
1/4/2023 9:15:00 PM 7.76 45.968 0.123 7.09 25.26 10.55
1/4/2023 9:30:00 PM 7.75 45.95 0.123 7.1 26.91 10.55
1/4/2023 9:45:00 PM 7.76 45.968 0.124 7.11 28.61 10.55
1/4/2023 10:00:00 PM 7.76 45.968 0.124 7.1 28.64 10.56
1/4/2023 10:15:00 PM 7.75 45.95 0.125 7.11 26.81 10.56
1/4/2023 10:30:00 PM 7.75 45.95 0.125 7.11 40.31 10.56
1/4/2023 10:45:00 PM 7.75 45.95 0.125 7.12 26.17 10.56
1/4/2023 11:00:00 PM 7.75 45.95 0.126 7.12 26.3 10.56
1/4/2023 11:15:00 PM 7.75 45.95 0.126 7.12 24.06 10.56
1/4/2023 11:30:00 PM 7.75 45.95 0.126 7.12 26.27 10.56
1/4/2023 11:45:00 PM 7.75 45.95 0.126 7.12 25.11 10.56
1/5/2023 12:00:00 AM 7.75 45.95 0.126 7.13 25.88 10.56
1/5/2023 12:15:00 AM 7.74 45.932 0.126 7.13 25.52 10.57
1/5/2023 12:30:00 AM 7.73 45.914 0.126 7.13 26.35 10.57
1/5/2023 12:45:00 AM 7.72 45.896 0.126 7.13 22.63 10.57
1/5/2023 1:00:00 AM 7.71 45.878 0.127 7.13 25.13 10.57
1/5/2023 1:15:00 AM 7.7 45.86 0.126 7.13 23.89 10.57
1/5/2023 1:30:00 AM 7.69 45.842 0.126 7.13 23.35 10.58
1/5/2023 1:45:00 AM 7.68 45.824 0.126 7.13 23.69 10.58
1/5/2023 2:00:00 AM 7.66 45.788 0.126 7.13 22.59 10.58
1/5/2023 2:15:00 AM 7.65 45.77 0.126 7.13 23.6 10.59
1/5/2023 2:30:00 AM 7.64 45.752 0.126 7.13 24.06 10.59
1/5/2023 2:45:00 AM 7.63 45.734 0.126 7.13 23.41 10.6
1/5/2023 3:00:00 AM 7.62 45.716 0.127 7.13 23.19 10.6
1/5/2023 3:15:00 AM 7.61 45.698 0.127 7.13 23.77 10.6
1/5/2023 3:30:00 AM 7.59 45.662 0.126 7.13 23.45 10.61
1/5/2023 3:45:00 AM 7.58 45.644 0.128 7.14 23.72 10.61
1/5/2023 4:00:00 AM 7.58 45.644 0.127 7.13 19.55 10.61
1/5/2023 4:15:00 AM 7.57 45.626 0.127 7.14 29.84 10.61
1/5/2023 4:30:00 AM 7.57 45.626 0.127 7.13 30.62 10.62
1/5/2023 4:45:00 AM 7.57 45.626 0.127 7.14 22.11 10.63
1/5/2023 5:00:00 AM 7.56 45.608 0.127 7.14 24.27 10.63
1/5/2023 5:15:00 AM 7.56 45.608 0.128 7.14 24.51 10.63
1/5/2023 5:30:00 AM 7.54 45.572 0.128 7.14 23.54 10.64
1/5/2023 5:45:00 AM 7.53 45.554 0.128 7.14 22.63 10.64
1/5/2023 6:00:00 AM 7.52 45.536 0.128 7.15 22.52 10.64
1/5/2023 6:15:00 AM 7.51 45.518 0.128 7.14 27.53 10.65
1/5/2023 6:30:00 AM 7.51 45.518 0.128 7.14 22.49 10.65
1/5/2023 6:45:00 AM 7.5 45.5 0.128 7.13 23.78 10.66
1/5/2023 7:00:00 AM 7.49 45.482 0.128 7.15 22.42 10.66
1/5/2023 7:15:00 AM 7.48 45.464 0.128 7.15 20.39 10.67
1/5/2023 7:30:00 AM 7.47 45.446 0.128 7.16 22.41 10.67
1/5/2023 7:45:00 AM 7.45 45.41 0.129 7.16 20.65 10.68
1/5/2023 8:00:00 AM 7.44 45.392 0.128 7.16 25.84 10.69
1/5/2023 8:15:00 AM 7.43 45.374 0.129 7.15 21.04 10.69
1/5/2023 8:30:00 AM 7.42 45.356 0.13 7.16 21.34 10.7
1/5/2023 8:45:00 AM 7.4 45.32 0.129 7.16 28.04 10.71
1/5/2023 9:00:00 AM 7.39 45.302 0.114 7.16 67.34 10.71
1/5/2023 9:15:00 AM 7.38 45.284 0.129 7.17 22.63 10.72
1/5/2023 9:30:00 AM 7.38 45.284 0.129 7.16 21.81 10.73
1/5/2023 9:45:00 AM 7.37 45.266 0.13 7.17 21.69 10.73
1/5/2023 10:00:00 AM 7.37 45.266 0.13 7.16 21.52 10.74
1/5/2023 10:15:00 AM 7.36 45.248 0.13 7.15 21.59 10.75
1/5/2023 10:30:00 AM 7.36 45.248 0.129 7.15 21.19 10.76
1/5/2023 10:45:00 AM 7.36 45.248 0.129 7.15 21.31 10.77
1/5/2023 11:00:00 AM 7.4 45.32 0.13 7.14 21.33 10.77
1/5/2023 11:15:00 AM 7.41 45.338 0.13 7.15 21.29 10.78
1/5/2023 11:30:00 AM 7.4 45.32 0.13 7.15 19.47 10.79
1/5/2023 11:45:00 AM 7.38 45.284 0.13 7.15 19.69 10.8
1/5/2023 12:00:00 PM 7.4 45.32 0.131 7.16 19.96 10.8
1/5/2023 12:15:00 PM 7.45 45.41 0.14 7.16 19.32 10.81
1/5/2023 12:30:00 PM 7.48 45.464 0.131 7.18 19.15 10.82
1/5/2023 12:45:00 PM 7.49 45.482 0.131 7.17 33.43 10.82
1/5/2023 1:00:00 PM 7.5 45.5 0.131 7.18 24.82 10.83
1/5/2023 1:15:00 PM 7.52 45.536 0.131 7.18 18.78 10.84
1/5/2023 1:30:00 PM 7.52 45.536 0.132 7.17 19.52 10.84
1/5/2023 1:45:00 PM 7.52 45.536 0.132 7.17 19.04 10.85
1/5/2023 2:00:00 PM 7.51 45.518 0.132 7.18 37.87 10.85
1/5/2023 2:15:00 PM 7.5 45.5 0.132 7.19 19.97 10.86
1/5/2023 2:30:00 PM 7.49 45.482 0.134 7.19 18.21 10.86
1/5/2023 2:45:00 PM 7.47 45.446 0.133 7.19 19.63 10.87
1/5/2023 3:00:00 PM 7.45 45.41 0.133 7.19 36.05 10.87
1/5/2023 3:15:00 PM 7.44 45.392 0.133 7.19 22.4 10.88
1/5/2023 3:30:00 PM 7.42 45.356 0.133 7.19 19.72 10.88
1/5/2023 3:45:00 PM 7.39 45.302 0.143 7.19 22.03 10.88
1/5/2023 4:00:00 PM 7.37 45.266 0.133 7.19 20.51 10.88
1/5/2023 4:15:00 PM 7.34 45.212 0.133 7.19 20.75 10.88
1/5/2023 4:30:00 PM 7.31 45.158 0.143 7.18 22.3 10.88
1/5/2023 4:45:00 PM 7.28 45.104 0.134 7.19 20.1 10.88
1/5/2023 5:00:00 PM 7.26 45.068 0.134 7.19 18.2 10.87
1/5/2023 5:15:00 PM 7.24 45.032 0.134 7.18 20.48 10.87
1/5/2023 5:30:00 PM 7.22 44.996 0.134 7.19 38.18 10.87
1/5/2023 5:45:00 PM 7.19 44.942 0.137 7.2 26.03 10.89
1/5/2023 6:00:00 PM 7.16 44.888 0.148 7.19 22.35 10.89
1/5/2023 6:15:00 PM 7.13 44.834 0.148 7.18 26.32 10.9
1/5/2023 6:30:00 PM 7.11 44.798 0.147 7.21 17.07 10.9
1/5/2023 6:45:00 PM 7.08 44.744 0.147 7.2 19.45 10.9
1/5/2023 7:00:00 PM 7.06 44.708 0.137 7.19 19.62 10.89
1/5/2023 7:15:00 PM 7.03 44.654 0.136 7.19 19.82 10.9
1/5/2023 7:30:00 PM 7 44.6 0.137 7.19 18.68 10.9
1/5/2023 7:45:00 PM 6.97 44.546 0.136 7.19 41.18 10.91
1/5/2023 8:00:00 PM 6.94 44.492 0.137 7.19 20.5 10.91
1/5/2023 8:15:00 PM 6.9 44.42 0.136 7.2 19.87 10.92
1/5/2023 8:30:00 PM 6.87 44.366 0.137 7.19 22.33 10.93
1/5/2023 8:45:00 PM 6.84 44.312 0.146 7.2 21.79 10.93
1/5/2023 9:00:00 PM 6.81 44.258 0.137 7.19 17.74 10.95
1/5/2023 9:15:00 PM 6.79 44.222 0.137 7.2 16.64 10.95
1/5/2023 9:30:00 PM 6.76 44.168 0.137 7.2 17.58 10.96
1/5/2023 9:45:00 PM 6.73 44.114 0.137 7.2 18.5 10.96
1/5/2023 10:00:00 PM 6.71 44.078 0.137 7.2 19.08 10.96
1/5/2023 10:15:00 PM 6.69 44.042 0.147 7.19 14.98 10.97
1/5/2023 10:30:00 PM 6.67 44.006 0.137 7.19 16.47 10.97
1/5/2023 10:45:00 PM 6.64 43.952 0.137 7.2 18.5 10.98
1/5/2023 11:00:00 PM 6.61 43.898 0.137 7.2 18.13 10.99
1/5/2023 11:15:00 PM 6.59 43.862 0.137 7.2 18.3 11
1/5/2023 11:30:00 PM 6.56 43.808 0.137 7.19 15.96 11
1/5/2023 11:45:00 PM 6.54 43.772 0.137 7.2 18.37 11
1/6/2023 12:00:00 AM 6.52 43.736 0.138 7.2 16.91 11.01
1/6/2023 12:15:00 AM 6.49 43.682 0.138 7.19 16.04 11.02
1/6/2023 12:30:00 AM 6.47 43.646 0.138 7.2 13.61 11.03
1/6/2023 12:45:00 AM 6.44 43.592 0.139 7.2 15.63 11.04
1/6/2023 1:00:00 AM 6.42 43.556 0.138 7.2 20.7 11.04
1/6/2023 1:15:00 AM 6.4 43.52 0.138 7.2 17.16 11.05
1/6/2023 1:30:00 AM 6.39 43.502 0.139 7.2 15.8 11.05
1/6/2023 1:45:00 AM 6.37 43.466 0.139 7.2 18.9 11.06
1/6/2023 2:00:00 AM 6.35 43.43 0.139 7.2 30.27 11.06
1/6/2023 2:15:00 AM 6.33 43.394 0.139 7.2 11.92 11.07
1/6/2023 2:30:00 AM 6.31 43.358 0.139 7.21 14.77 11.08
1/6/2023 2:45:00 AM 6.3 43.34 0.139 7.2 17.21 11.08
1/6/2023 3:00:00 AM 6.28 43.304 0.139 7.2 14.78 11.09
1/6/2023 3:15:00 AM 6.27 43.286 0.139 7.2 15.32 11.09
1/6/2023 3:30:00 AM 6.26 43.268 0.139 7.2 13.43 11.1
1/6/2023 3:45:00 AM 6.24 43.232 0.139 7.21 33.94 11.1
1/6/2023 4:00:00 AM 6.23 43.214 0.14 7.21 15.86 11.11
1/6/2023 4:15:00 AM 6.22 43.196 0.14 7.2 15.32 11.11
1/6/2023 4:30:00 AM 6.2 43.16 0.14 7.21 13.19 11.12
1/6/2023 4:45:00 AM 6.17 43.106 0.14 7.21 18.84 11.12
1/6/2023 5:00:00 AM 6.15 43.07 0.14 7.21 16 11.13
1/6/2023 5:15:00 AM 6.12 43.016 0.141 7.21 17.43 11.14
1/6/2023 5:30:00 AM 6.09 42.962 0.15 7.22 16.09 11.15
1/6/2023 5:45:00 AM 6.06 42.908 0.14 7.22 14.72 11.16
1/6/2023 6:00:00 AM 6.03 42.854 0.151 7.21 15.89 11.16
1/6/2023 6:15:00 AM 5.99 42.782 0.15 7.21 12.13 11.17
1/6/2023 6:30:00 AM 5.96 42.728 0.151 7.22 13.33 11.18
1/6/2023 6:45:00 AM 5.93 42.674 0.151 7.22 13.11 11.19
1/6/2023 7:00:00 AM 5.9 42.62 0.141 7.22 14.29 11.2
1/6/2023 7:15:00 AM 5.87 42.566 0.151 7.22 13.17 11.21
1/6/2023 7:30:00 AM 5.84 42.512 0.151 7.22 15.96 11.22
1/6/2023 7:45:00 AM 5.81 42.458 0.152 7.22 12.75 11.23
1/6/2023 8:00:00 AM 5.78 42.404 0.141 7.23 14.43 11.25
1/6/2023 8:15:00 AM 5.76 42.368 0.151 7.23 15.68 11.25
1/6/2023 8:30:00 AM 5.74 42.332 0.142 7.22 12.83 11.27
1/6/2023 8:45:00 AM 5.72 42.296 0.152 7.23 11.6 11.28
1/6/2023 9:00:00 AM 5.7 42.26 0.152 7.23 14.75 11.29
1/6/2023 9:15:00 AM 5.68 42.224 0.142 7.23 14.09 11.31
1/6/2023 9:30:00 AM 5.66 42.188 0.142 7.23 15.58 11.32
1/6/2023 9:45:00 AM 5.63 42.134 0.142 7.23 16.05 11.32
1/6/2023 10:00:00 AM 5.61 42.098 0.152 7.23 13.28 11.34
1/6/2023 10:15:00 AM 5.6 42.08 0.152 7.23 11.45 11.35
1/6/2023 10:30:00 AM 5.58 42.044 0.152 7.23 14.05 11.36
1/6/2023 10:45:00 AM 5.55 41.99 0.143 7.23 13.47 11.38
1/6/2023 11:00:00 AM 5.54 41.972 0.153 7.23 12.91 11.39
1/6/2023 11:15:00 AM 5.53 41.954 0.153 7.23 14.41 11.41
1/6/2023 11:30:00 AM 5.51 41.918 0.153 7.23 14.27 11.42
1/6/2023 11:45:00 AM 5.49 41.882 0.152 7.23 13.56 11.43
1/6/2023 12:00:00 PM 5.45 41.81 0.153 7.24 13.48 11.44
1/6/2023 12:15:00 PM 5.4 41.72 0.153 7.24 12.71 11.45
1/6/2023 12:30:00 PM 5.37 41.666 0.143 7.24 13.7 11.47
1/6/2023 12:45:00 PM 5.36 41.648 0.153 7.24 13.83 11.48
1/6/2023 1:00:00 PM 5.34 41.612 0.144 7.24 12.98 11.49
1/6/2023 1:15:00 PM 5.33 41.594 0.154 7.24 13.32 11.5
1/6/2023 1:30:00 PM 5.31 41.558 0.154 7.24 14.05 11.51
1/6/2023 1:45:00 PM 5.29 41.522 0.153 7.25 13.78 11.52
1/6/2023 2:00:00 PM 5.27 41.486 0.153 7.24 74.76 11.53
1/6/2023 2:15:00 PM 5.24 41.432 0.154 7.24 14.28 11.53
1/6/2023 2:30:00 PM 5.22 41.396 0.154 7.24 13.18 11.54
1/6/2023 2:45:00 PM 5.2 41.36 0.154 7.25 14.7 11.55
1/6/2023 3:00:00 PM 5.19 41.342 0.154 7.25 12.78 11.55
1/6/2023 3:15:00 PM 5.18 41.324 0.154 7.25 13.62 11.56
1/6/2023 3:30:00 PM 5.17 41.306 0.154 7.25 12.71 11.56
1/6/2023 3:45:00 PM 5.16 41.288 0.154 7.24 11.95 11.57
1/6/2023 4:00:00 PM 5.14 41.252 0.155 7.25 15.46 11.58
1/6/2023 4:15:00 PM 5.12 41.216 0.155 7.24 12.98 11.58
1/6/2023 4:30:00 PM 5.1 41.18 0.155 7.25 12.6 11.58
1/6/2023 4:45:00 PM 5.07 41.126 0.155 7.25 12.16 11.58
1/6/2023 5:00:00 PM 5.05 41.09 0.156 7.25 13.21 11.59
1/6/2023 5:15:00 PM 5.03 41.054 0.156 7.24 13.15 11.59
1/6/2023 5:30:00 PM 5.01 41.018 0.156 7.24 13.24 11.6
1/6/2023 5:45:00 PM 4.99 40.982 0.157 7.24 12.85 11.6
1/6/2023 6:00:00 PM 4.98 40.964 0.157 7.25 13.5 11.61
1/6/2023 6:15:00 PM 4.96 40.928 0.157 7.24 13.26 11.61
1/6/2023 6:30:00 PM 4.95 40.91 0.157 7.24 13.3 11.61
1/6/2023 6:45:00 PM 4.93 40.874 0.157 7.24 13.12 11.61
1/6/2023 7:00:00 PM 4.92 40.856 0.157 7.25 12.84 11.62
1/6/2023 7:15:00 PM 4.91 40.838 0.157 7.24 13.03 11.63
1/6/2023 7:30:00 PM 4.9 40.82 0.157 7.24 13.35 11.63
1/6/2023 7:45:00 PM 4.88 40.784 0.147 7.24 12.78 11.63
1/6/2023 8:00:00 PM 4.87 40.766 0.157 7.24 13.5 11.64
1/6/2023 8:15:00 PM 4.85 40.73 0.157 7.24 11.8 11.64
1/6/2023 8:30:00 PM 4.84 40.712 0.157 7.24 12.64 11.65
1/6/2023 8:45:00 PM 4.83 40.694 0.157 7.24 13.15 11.66
1/6/2023 9:00:00 PM 4.82 40.676 0.157 7.24 11.82 11.66
1/6/2023 9:15:00 PM 4.81 40.658 0.157 7.24 12.23 11.67
1/6/2023 9:30:00 PM 4.8 40.64 0.157 7.24 12.6 11.67
1/6/2023 9:45:00 PM 4.79 40.622 0.157 7.25 11.7 11.67
1/6/2023 10:00:00 PM 4.78 40.604 0.157 7.25 12.42 11.67
1/6/2023 10:15:00 PM 4.77 40.586 0.157 7.24 12.21 11.68
1/6/2023 10:30:00 PM 4.76 40.568 0.157 7.25 12.22 11.69
1/6/2023 10:45:00 PM 4.74 40.532 0.158 7.25 12.58 11.69
1/6/2023 11:00:00 PM 4.73 40.514 0.157 7.24 12.89 11.7
1/6/2023 11:15:00 PM 4.72 40.496 0.158 7.25 13.49 11.7
1/6/2023 11:30:00 PM 4.71 40.478 0.157 7.25 12.66 11.71
1/6/2023 11:45:00 PM 4.7 40.46 0.158 7.25 12.07 11.71
1/7/2023 12:00:00 AM 4.68 40.424 0.158 7.24 12.11 11.71
1/7/2023 12:15:00 AM 4.67 40.406 0.158 7.24 11.72 11.71
1/7/2023 12:30:00 AM 4.66 40.388 0.158 7.25 13.21 11.72
1/7/2023 12:45:00 AM 4.65 40.37 0.159 7.24 13.05 11.72
1/7/2023 1:00:00 AM 4.63 40.334 0.159 7.25 11.92 11.73
1/7/2023 1:15:00 AM 4.62 40.316 0.159 7.25 12.33 11.74
1/7/2023 1:30:00 AM 4.61 40.298 0.159 7.25 11.33 11.74
1/7/2023 1:45:00 AM 4.6 40.28 0.159 7.25 12.67 11.74
1/7/2023 2:00:00 AM 4.58 40.244 0.159 7.25 12.34 11.75
1/7/2023 2:15:00 AM 4.57 40.226 0.16 7.25 12.1 11.75
1/7/2023 2:30:00 AM 4.55 40.19 0.16 7.25 10.45 11.76
1/7/2023 2:45:00 AM 4.53 40.154 0.161 7.25 12.66 11.76
1/7/2023 3:00:00 AM 4.52 40.136 0.161 7.25 12.39 11.77
1/7/2023 3:15:00 AM 4.51 40.118 0.16 7.25 11.19 11.77
1/7/2023 3:30:00 AM 4.5 40.1 0.16 7.25 12.96 11.78
1/7/2023 3:45:00 AM 4.49 40.082 0.16 7.25 13.06 11.78
1/7/2023 4:00:00 AM 4.47 40.046 0.16 7.25 12.05 11.78
1/7/2023 4:15:00 AM 4.44 39.992 0.161 7.25 12.87 11.79
1/7/2023 4:30:00 AM 4.41 39.938 0.16 7.25 13.81 11.79
1/7/2023 4:45:00 AM 4.4 39.92 0.161 7.25 13 11.79
1/7/2023 5:00:00 AM 4.38 39.884 0.161 7.25 13.19 11.8
1/7/2023 5:15:00 AM 4.39 39.902 0.159 7.25 12 11.8
1/7/2023 5:30:00 AM 4.38 39.884 0.161 7.25 12.62 11.81
1/7/2023 5:45:00 AM 4.38 39.884 0.162 7.25 12.96 11.81
1/7/2023 6:00:00 AM 4.37 39.866 0.16 7.25 12.87 11.81
1/7/2023 6:15:00 AM 4.35 39.83 0.161 7.26 13.12 11.82
1/7/2023 6:30:00 AM 4.34 39.812 0.16 7.25 12.27 11.83
1/7/2023 6:45:00 AM 4.33 39.794 0.161 7.25 11.5 11.83
1/7/2023 7:00:00 AM 4.32 39.776 0.162 7.26 11.86 11.83
1/7/2023 7:15:00 AM 4.31 39.758 0.161 7.25 12.29 11.83
1/7/2023 7:30:00 AM 4.3 39.74 0.16 7.26 12.37 11.84
1/7/2023 7:45:00 AM 4.28 39.704 0.162 7.26 12.79 11.84
1/7/2023 8:00:00 AM 4.27 39.686 0.161 7.26 11.81 11.85
1/7/2023 8:15:00 AM 4.27 39.686 0.161 7.26 11.5 11.86
1/7/2023 8:30:00 AM 4.26 39.668 0.162 7.26 12.45 11.86
1/7/2023 8:45:00 AM 4.24 39.632 0.161 7.26 11.44 11.87
1/7/2023 9:00:00 AM 4.21 39.578 0.161 7.26 11.61 11.87
1/7/2023 9:15:00 AM 4.19 39.542 0.162 7.26 11.34 11.89
1/7/2023 9:30:00 AM 4.19 39.542 0.162 7.26 11.25 11.9
1/7/2023 9:45:00 AM 4.19 39.542 0.163 7.26 11.41 11.91
1/7/2023 10:00:00 AM 4.2 39.56 0.162 7.27 11.82 11.93
1/7/2023 10:15:00 AM 4.22 39.596 0.163 7.26 11.39 11.94
1/7/2023 10:30:00 AM 4.25 39.65 0.163 7.26 11.02 11.96
1/7/2023 10:45:00 AM 4.28 39.704 0.163 7.27 11.12 11.97
1/7/2023 11:00:00 AM 4.29 39.722 0.162 7.27 11.22 11.98
1/7/2023 11:15:00 AM 4.28 39.704 0.162 7.27 11.34 11.98
1/7/2023 11:30:00 AM 4.29 39.722 0.162 7.27 11.53 11.99
1/7/2023 11:45:00 AM 4.31 39.758 0.162 7.27 11.07 11.99
1/7/2023 12:00:00 PM 4.3 39.74 0.163 7.27 11.07 11.99
1/7/2023 12:15:00 PM 4.29 39.722 0.163 7.27 10.76 12
1/7/2023 12:30:00 PM 4.27 39.686 0.164 7.27 11.33 12.01
1/7/2023 12:45:00 PM 4.27 39.686 0.162 7.27 11.14 12.01
1/7/2023 1:00:00 PM 4.26 39.668 0.163 7.27 10.79 12.02
1/7/2023 1:15:00 PM 4.28 39.704 0.163 7.28 10.96 12.03
1/7/2023 1:30:00 PM 4.28 39.704 0.163 7.27 10.42 12.03
1/7/2023 1:45:00 PM 4.27 39.686 0.164 7.27 10.57 12.03
1/7/2023 2:00:00 PM 4.25 39.65 0.162 7.27 10.35 12.03
1/7/2023 2:15:00 PM 4.25 39.65 0.163 7.28 10.13 12.04
1/7/2023 2:30:00 PM 4.25 39.65 0.164 7.27 10.44 12.03
1/7/2023 2:45:00 PM 4.24 39.632 0.164 7.27 9.92 12.03
1/7/2023 3:00:00 PM 4.24 39.632 0.163 7.28 10.4 12.04
1/7/2023 3:15:00 PM 4.23 39.614 0.163 7.28 9.92 12.03
1/7/2023 3:30:00 PM 4.23 39.614 0.163 7.28 10.19 12.04
1/7/2023 3:45:00 PM 4.23 39.614 0.163 7.27 10.25 12.04
1/7/2023 4:00:00 PM 4.22 39.596 0.163 7.28 10.06 12.04
1/7/2023 4:15:00 PM 4.22 39.596 0.163 7.28 9.8 12.04
1/7/2023 4:30:00 PM 4.21 39.578 0.163 7.28 10.08 12.03
1/7/2023 4:45:00 PM 4.2 39.56 0.164 7.28 10.12 12.02
1/7/2023 5:00:00 PM 4.19 39.542 0.163 7.28 9.91 12.02
1/7/2023 5:15:00 PM 4.18 39.524 0.164 7.27 9.99 12.01
1/7/2023 5:30:00 PM 4.17 39.506 0.164 7.27 9.98 12
1/7/2023 5:45:00 PM 4.17 39.506 0.166 7.27 10.8 12
1/7/2023 6:00:00 PM 4.16 39.488 0.164 7.27 10.06 12
1/7/2023 6:15:00 PM 4.15 39.47 0.164 7.27 11.03 11.99
1/7/2023 6:30:00 PM 4.15 39.47 0.164 7.27 10.89 11.99
1/7/2023 6:45:00 PM 4.14 39.452 0.167 7.27 10.75 11.99
1/7/2023 7:00:00 PM 4.13 39.434 0.167 7.27 9.92 11.99
1/7/2023 7:15:00 PM 4.12 39.416 0.164 7.27 10.61 11.99
1/7/2023 7:30:00 PM 4.12 39.416 0.164 7.27 12.26 11.99
1/7/2023 7:45:00 PM 4.11 39.398 0.164 7.27 10.44 11.99
1/7/2023 8:00:00 PM 4.11 39.398 0.164 7.27 10.1 12
1/7/2023 8:15:00 PM 4.1 39.38 0.165 7.27 10.2 11.99
1/7/2023 8:30:00 PM 4.1 39.38 0.166 7.27 10.67 12
1/7/2023 8:45:00 PM 4.09 39.362 0.166 7.27 10.21 12
1/7/2023 9:00:00 PM 4.08 39.344 0.167 7.27 10.56 12
1/7/2023 9:15:00 PM 4.07 39.326 0.165 7.27 10.8 12
1/7/2023 9:30:00 PM 4.06 39.308 0.166 7.28 10.82 12
1/7/2023 9:45:00 PM 4.05 39.29 0.166 7.27 10.52 12
1/7/2023 10:00:00 PM 4.05 39.29 0.165 7.27 10.33 12
1/7/2023 10:15:00 PM 4.04 39.272 0.167 7.27 9.79 12.01
1/7/2023 10:30:00 PM 4.02 39.236 0.166 7.27 10.49 12.01
1/7/2023 10:45:00 PM 4.02 39.236 0.167 7.27 10.34 12.01
1/7/2023 11:00:00 PM 4.01 39.218 0.169 7.27 10.32 12.01
1/7/2023 11:15:00 PM 4.01 39.218 0.171 7.27 12.02 12.01
1/7/2023 11:30:00 PM 4 39.2 0.172 7.27 9.15 12.01
1/7/2023 11:45:00 PM 3.99 39.182 0.175 7.27 11.44 12.02
1/8/2023 12:00:00 AM 3.99 39.182 0.176 7.27 8.17 12.01
1/8/2023 12:15:00 AM 3.98 39.164 0.179 7.27 12.04 12.02
1/8/2023 12:30:00 AM 3.97 39.146 0.181 7.26 12.61 12.02
1/8/2023 12:45:00 AM 3.96 39.128 0.182 7.27 12.26 12.03
1/8/2023 1:00:00 AM 3.95 39.11 0.184 7.27 10.31 12.03
1/8/2023 1:15:00 AM 3.94 39.092 0.184 7.27 10.78 12.03
1/8/2023 1:30:00 AM 3.93 39.074 0.184 7.27 10.01 12.03
1/8/2023 1:45:00 AM 3.92 39.056 0.182 7.27 10.5 12.03
1/8/2023 2:00:00 AM 3.91 39.038 0.181 7.26 9.9 12.03
1/8/2023 2:15:00 AM 3.9 39.02 0.18 7.27 9.82 12.04
1/8/2023 2:30:00 AM 3.89 39.002 0.179 7.27 9.61 12.04
1/8/2023 2:45:00 AM 3.87 38.966 0.177 7.27 9.57 12.05
1/8/2023 3:00:00 AM 3.86 38.948 0.177 7.27 9.93 12.05
1/8/2023 3:15:00 AM 3.84 38.912 0.176 7.27 10.34 12.06
1/8/2023 3:30:00 AM 3.82 38.876 0.176 7.27 10.77 12.06
1/8/2023 3:45:00 AM 3.81 38.858 0.173 7.27 9.32 12.06
1/8/2023 4:00:00 AM 3.79 38.822 0.173 7.27 9.81 12.07
1/8/2023 4:15:00 AM 3.78 38.804 0.175 7.27 9.89 12.07
1/8/2023 4:30:00 AM 3.77 38.786 0.172 7.27 10.15 12.08
1/8/2023 4:45:00 AM 3.76 38.768 0.172 7.27 9.92 12.08
1/8/2023 5:00:00 AM 3.74 38.732 0.172 7.27 9.77 12.08
1/8/2023 5:15:00 AM 3.72 38.696 0.173 7.27 9.82 12.09
1/8/2023 5:30:00 AM 3.71 38.678 0.173 7.27 9.7 12.09
1/8/2023 5:45:00 AM 3.71 38.678 0.171 7.27 9.55 12.1
1/8/2023 6:00:00 AM 3.7 38.66 0.171 7.27 9.85 12.1
1/8/2023 6:15:00 AM 3.68 38.624 0.17 7.27 9.63 12.1
1/8/2023 6:30:00 AM 3.67 38.606 0.17 7.27 10.17 12.11
1/8/2023 6:45:00 AM 3.65 38.57 0.173 7.27 9.7 12.11
1/8/2023 7:00:00 AM 3.64 38.552 0.171 7.27 10.09 12.11
1/8/2023 7:15:00 AM 3.63 38.534 0.17 7.27 10.03 12.12
1/8/2023 7:30:00 AM 3.61 38.498 0.17 7.28 9.74 12.12
1/8/2023 7:45:00 AM 3.6 38.48 0.171 7.28 9.52 12.13
1/8/2023 8:00:00 AM 3.59 38.462 0.17 7.27 9.61 12.13
1/8/2023 8:15:00 AM 3.58 38.444 0.171 7.28 9.48 12.14
1/8/2023 8:30:00 AM 3.58 38.444 0.172 7.28 10.43 12.15
1/8/2023 8:45:00 AM 3.58 38.444 0.173 7.28 9.29 12.15
1/8/2023 9:00:00 AM 3.59 38.462 0.173 7.28 9.18 12.16
1/8/2023 9:15:00 AM 3.59 38.462 0.172 7.28 10.02 12.17
1/8/2023 9:30:00 AM 3.6 38.48 0.171 7.28 10.37 12.19
1/8/2023 9:45:00 AM 3.61 38.498 0.171 7.28 9.99 12.2
1/8/2023 10:00:00 AM 3.62 38.516 0.171 7.28 9.03 12.21
1/8/2023 10:15:00 AM 3.64 38.552 0.17 7.29 9.08 12.22
1/8/2023 10:30:00 AM 3.66 38.588 0.172 7.29 9.22 12.24
1/8/2023 10:45:00 AM 3.68 38.624 0.171 7.29 8.91 12.24
1/8/2023 11:00:00 AM 3.71 38.678 0.171 7.29 8.85 12.25
1/8/2023 11:15:00 AM 3.74 38.732 0.17 7.29 9.83 12.25
1/8/2023 11:30:00 AM 3.75 38.75 0.173 7.29 8.91 12.26
1/8/2023 11:45:00 AM 3.77 38.786 0.171 7.3 8.96 12.27
1/8/2023 12:00:00 PM 3.8 38.84 0.172 7.3 8.55 12.28
1/8/2023 12:15:00 PM 3.82 38.876 0.171 7.3 8.86 12.28
1/8/2023 12:30:00 PM 3.85 38.93 0.171 7.3 8.86 12.28
1/8/2023 12:45:00 PM 3.89 39.002 0.17 7.3 9.28 12.29
1/8/2023 1:00:00 PM 3.92 39.056 0.172 7.3 9.31 12.29
1/8/2023 1:15:00 PM 3.94 39.092 0.172 7.31 8.76 12.29
1/8/2023 1:30:00 PM 3.99 39.182 0.171 7.31 8.75 12.29
1/8/2023 1:45:00 PM 4.03 39.254 0.171 7.31 8.99 12.29
1/8/2023 2:00:00 PM 4.04 39.272 0.171 7.31 8.31 12.29
1/8/2023 2:15:00 PM 4.04 39.272 0.171 7.31 8.52 12.29
1/8/2023 2:30:00 PM 4.06 39.308 0.172 7.31 8.7 12.29
1/8/2023 2:45:00 PM 4.05 39.29 0.171 7.31 8.6 12.29
1/8/2023 3:00:00 PM 4.02 39.236 0.171 7.31 8.68 12.29
1/8/2023 3:15:00 PM 4 39.2 0.172 7.31 8.67 12.29
1/8/2023 3:30:00 PM 3.99 39.182 0.173 7.31 8.44 12.28
1/8/2023 3:45:00 PM 3.96 39.128 0.171 7.31 8.67 12.28
1/8/2023 4:00:00 PM 3.91 39.038 0.173 7.31 8.98 12.27
1/8/2023 4:15:00 PM 3.87 38.966 0.172 7.31 8.23 12.26
1/8/2023 4:30:00 PM 3.83 38.894 0.172 7.3 8.27 12.24
1/8/2023 4:45:00 PM 3.8 38.84 0.173 7.31 8.22 12.24
1/8/2023 5:00:00 PM 3.77 38.786 0.173 7.3 8.34 12.23
1/8/2023 5:15:00 PM 3.75 38.75 0.172 7.31 8.62 12.22
1/8/2023 5:30:00 PM 3.73 38.714 0.173 7.3 8.33 12.21
1/8/2023 5:45:00 PM 3.73 38.714 0.172 7.3 8.28 12.2
1/8/2023 6:00:00 PM 3.72 38.696 0.172 7.31 8.67 12.19
1/8/2023 6:15:00 PM 3.71 38.678 0.173 7.3 8.94 12.18
1/8/2023 6:30:00 PM 3.7 38.66 0.173 7.3 9.08 12.18
1/8/2023 6:45:00 PM 3.69 38.642 0.173 7.3 8.7 12.17
1/8/2023 7:00:00 PM 3.69 38.642 0.173 7.3 8.88 12.16
1/8/2023 7:15:00 PM 3.68 38.624 0.174 7.29 8.93 12.14
1/8/2023 7:30:00 PM 3.67 38.606 0.173 7.29 9.01 12.14
1/8/2023 7:45:00 PM 3.66 38.588 0.173 7.29 9.49 12.13
1/8/2023 8:00:00 PM 3.64 38.552 0.174 7.29 9.49 12.13
1/8/2023 8:15:00 PM 3.6 38.48 0.174 7.29 8.97 12.13
1/8/2023 8:30:00 PM 3.58 38.444 0.174 7.29 9.2 12.13
1/8/2023 8:45:00 PM 3.55 38.39 0.174 7.29 9.48 12.13
1/8/2023 9:00:00 PM 3.54 38.372 0.174 7.29 9.11 12.13
1/8/2023 9:15:00 PM 3.55 38.39 0.174 7.3 9 12.13
1/8/2023 9:30:00 PM 3.54 38.372 0.174 7.3 8.59 12.13
1/8/2023 9:45:00 PM 3.53 38.354 0.174 7.3 9.27 12.13
1/8/2023 10:00:00 PM 3.52 38.336 0.174 7.3 8.61 12.12
1/8/2023 10:15:00 PM 3.53 38.354 0.174 7.3 8.99 12.12
1/8/2023 10:30:00 PM 3.53 38.354 0.174 7.29 9.3 12.13
1/8/2023 10:45:00 PM 3.53 38.354 0.174 7.29 9.17 12.12
1/8/2023 11:00:00 PM 3.53 38.354 0.174 7.3 9.15 12.11
1/8/2023 11:15:00 PM 3.52 38.336 0.174 7.29 8.99 12.11
1/8/2023 11:30:00 PM 3.52 38.336 0.174 7.3 9.5 12.12
1/8/2023 11:45:00 PM 3.52 38.336 0.175 7.29 8.84 12.11
1/9/2023 12:00:00 AM 3.51 38.318 0.174 7.3 9.16 12.11
1/9/2023 12:15:00 AM 3.51 38.318 0.174 7.29 8.62 12.11
1/9/2023 12:30:00 AM 3.49 38.282 0.174 7.29 9.28 12.11
1/9/2023 12:45:00 AM 3.49 38.282 0.175 7.29 8.99 12.11
1/9/2023 1:00:00 AM 3.48 38.264 0.175 7.29 8.68 12.11
1/9/2023 1:15:00 AM 3.45 38.21 0.175 7.29 8.5 12.11
1/9/2023 1:30:00 AM 3.44 38.192 0.175 7.29 8.73 12.11
1/9/2023 1:45:00 AM 3.43 38.174 0.175 7.29 9.25 12.11
1/9/2023 2:00:00 AM 3.42 38.156 0.175 7.29 9.11 12.12
1/9/2023 2:15:00 AM 3.41 38.138 0.175 7.29 9.15 12.11
1/9/2023 2:30:00 AM 3.4 38.12 0.175 7.29 8.44 12.12
1/9/2023 2:45:00 AM 3.37 38.066 0.175 7.29 8.84 12.11
1/9/2023 3:00:00 AM 3.35 38.03 0.175 7.3 8.66 12.13
1/9/2023 3:15:00 AM 3.33 37.994 0.175 7.29 8.94 12.12
1/9/2023 3:30:00 AM 3.31 37.958 0.176 7.3 9.18 12.13
1/9/2023 3:45:00 AM 3.28 37.904 0.176 7.3 9.34 12.13
1/9/2023 4:00:00 AM 3.26 37.868 0.176 7.3 8.89 12.13
1/9/2023 4:15:00 AM 3.24 37.832 0.176 7.3 8.9 12.14
1/9/2023 4:30:00 AM 3.22 37.796 0.176 7.3 8.53 12.14
1/9/2023 4:45:00 AM 3.22 37.796 0.176 7.3 9.19 12.14
1/9/2023 5:00:00 AM 3.21 37.778 0.176 7.3 8.52 12.14
1/9/2023 5:15:00 AM 3.21 37.778 0.176 7.3 8.82 12.15
1/9/2023 5:30:00 AM 3.2 37.76 0.176 7.3 9.03 12.16
1/9/2023 5:45:00 AM 3.19 37.742 0.176 7.3 8.82 12.15
1/9/2023 6:00:00 AM 3.18 37.724 0.176 7.3 8.73 12.16
1/9/2023 6:15:00 AM 3.17 37.706 0.175 7.3 8.5 12.16
1/9/2023 6:30:00 AM 3.16 37.688 0.176 7.3 8.4 12.17
1/9/2023 6:45:00 AM 3.16 37.688 0.176 7.31 9.44 12.17
1/9/2023 7:00:00 AM 3.15 37.67 0.176 7.3 10.38 12.17
1/9/2023 7:15:00 AM 3.13 37.634 0.176 7.31 9.77 12.18
1/9/2023 7:30:00 AM 3.12 37.616 0.175 7.31 9.43 12.18
1/9/2023 7:45:00 AM 3.11 37.598 0.176 7.31 9.71 12.19
1/9/2023 8:00:00 AM 3.11 37.598 0.176 7.3 9.5 12.18
1/9/2023 8:15:00 AM 3.09 37.562 0.176 7.3 9.22 12.2
1/9/2023 8:30:00 AM 3.06 37.508 0.177 7.31 8.51 12.2
1/9/2023 8:45:00 AM 3.04 37.472 0.176 7.3 9.15 12.21
1/9/2023 9:00:00 AM 3.03 37.454 0.177 7.3 7.94 12.23
1/9/2023 9:15:00 AM 3.02 37.436 0.176 7.31 8.09 12.24
1/9/2023 9:30:00 AM 3.03 37.454 0.177 7.31 8.77 12.25
1/9/2023 9:45:00 AM 3.02 37.436 0.176 7.31 8.53 12.26
1/9/2023 10:00:00 AM 3.04 37.472 0.176 7.31 8 12.28
1/9/2023 10:15:00 AM 3.06 37.508 0.177 7.31 8.32 12.3
1/9/2023 10:30:00 AM 3.07 37.526 0.177 7.31 7.91 12.32
1/9/2023 10:45:00 AM 3.09 37.562 0.177 7.32 8.4 12.32
1/9/2023 11:00:00 AM 3.11 37.598 0.177 7.32 7.92 12.33
1/9/2023 11:15:00 AM 3.12 37.616 0.176 7.31 7.85 12.35
1/9/2023 11:30:00 AM 3.15 37.67 0.177 7.32 8.45 12.36
1/9/2023 11:45:00 AM 3.24 37.832 0.176 7.3 8.26 12.36
1/9/2023 12:00:00 PM 3.33 37.994 0.177 7.32 8.27 12.37
1/9/2023 12:15:00 PM 3.39 38.102 0.177 7.32 8.08 12.37
1/9/2023 12:30:00 PM 3.35 38.03 0.176 7.33 7.87 12.37
1/9/2023 12:45:00 PM 3.42 38.156 0.177 7.33 7.86 12.37
1/9/2023 1:00:00 PM 3.55 38.39 0.176 7.33 8.31 12.37
1/9/2023 1:15:00 PM 3.58 38.444 0.177 7.32 7.94 12.36
1/9/2023 1:30:00 PM 3.45 38.21 0.177 7.32 7.87 12.37
1/9/2023 1:45:00 PM 3.4 38.12 0.176 7.33 7.7 12.38
1/9/2023 2:00:00 PM 3.44 38.192 0.177 7.33 8.11 12.38
1/9/2023 2:15:00 PM 3.49 38.282 0.177 7.33 7.93 12.39
1/9/2023 2:30:00 PM 3.61 38.498 0.178 7.32 8 12.38
1/9/2023 2:45:00 PM 3.63 38.534 0.177 7.33 8.43 12.39
1/9/2023 3:00:00 PM 3.61 38.498 0.176 7.33 7.77 12.38
1/9/2023 3:15:00 PM 3.58 38.444 0.176 7.33 8.17 12.39
1/9/2023 3:30:00 PM 3.53 38.354 0.177 7.33 7.78 12.39
1/9/2023 3:45:00 PM 3.46 38.228 0.178 7.33 7.68 12.39
1/9/2023 4:00:00 PM 3.41 38.138 0.178 7.33 7.7 12.38
1/9/2023 4:15:00 PM 3.35 38.03 0.177 7.33 8.23 12.38
1/9/2023 4:30:00 PM 3.31 37.958 0.177 7.33 8.04 12.38
1/9/2023 4:45:00 PM 3.27 37.886 0.178 7.33 7.96 12.38
1/9/2023 5:00:00 PM 3.23 37.814 0.177 7.33 7.8 12.38
1/9/2023 5:15:00 PM 3.18 37.724 0.178 7.33 7.51 12.36
1/9/2023 5:30:00 PM 3.13 37.634 0.178 7.33 7.81 12.36
1/9/2023 5:45:00 PM 3.08 37.544 0.179 7.33 7.92 12.34
1/9/2023 6:00:00 PM 3.04 37.472 0.178 7.33 7.95 12.35
1/9/2023 6:15:00 PM 3 37.4 0.178 7.32 7.87 12.35
1/9/2023 6:30:00 PM 2.97 37.346 0.178 7.32 8.37 12.34
1/9/2023 6:45:00 PM 2.94 37.292 0.179 7.32 8.03 12.34
1/9/2023 7:00:00 PM 2.91 37.238 0.178 7.32 8.6 12.34
1/9/2023 7:15:00 PM 2.89 37.202 0.179 7.32 8.23 12.34
1/9/2023 7:30:00 PM 2.87 37.166 0.179 7.32 8.48 12.34
1/9/2023 7:45:00 PM 2.85 37.13 0.179 7.32 8.07 12.34
1/9/2023 8:00:00 PM 2.84 37.112 0.18 7.32 8.34 12.34
1/9/2023 8:15:00 PM 2.82 37.076 0.179 7.32 8.23 12.34
1/9/2023 8:30:00 PM 2.82 37.076 0.18 7.32 8.18 12.33
1/9/2023 8:45:00 PM 2.81 37.058 0.179 7.32 8.65 12.32
1/9/2023 9:00:00 PM 2.79 37.022 0.179 7.31 9.32 12.32
1/9/2023 9:15:00 PM 2.77 36.986 0.18 7.31 8.04 12.33
1/9/2023 9:30:00 PM 2.74 36.932 0.179 7.31 8.64 12.33
1/9/2023 9:45:00 PM 2.73 36.914 0.18 7.32 8.42 12.33
1/9/2023 10:00:00 PM 2.72 36.896 0.179 7.32 8.43 12.34
1/9/2023 10:15:00 PM 2.71 36.878 0.18 7.32 8.41 12.34
1/9/2023 10:30:00 PM 2.72 36.896 0.18 7.33 8.47 12.34
1/9/2023 10:45:00 PM 2.71 36.878 0.18 7.32 8.84 12.34
1/9/2023 11:00:00 PM 2.7 36.86 0.181 7.32 8.38 12.35
1/9/2023 11:15:00 PM 2.69 36.842 0.181 7.32 8.17 12.35
1/9/2023 11:30:00 PM 2.68 36.824 0.181 7.32 8.17 12.36
1/9/2023 11:45:00 PM 2.67 36.806 0.18 7.32 8.14 12.36
1/10/2023 12:00:00 AM 2.65 36.77 0.18 7.32 8.61 12.37
1/10/2023 12:15:00 AM 2.64 36.752 0.18 7.32 8.34 12.37
1/10/2023 12:30:00 AM 2.64 36.752 0.18 7.32 8.27 12.37
1/10/2023 12:45:00 AM 2.63 36.734 0.179 7.32 7.99 12.37
1/10/2023 1:00:00 AM 2.62 36.716 0.181 7.32 8.31 12.38
1/10/2023 1:15:00 AM 2.61 36.698 0.18 7.32 8.03 12.38
1/10/2023 1:30:00 AM 2.59 36.662 0.18 7.32 8.24 12.39
1/10/2023 1:45:00 AM 2.58 36.644 0.181 7.31 8.44 12.39
1/10/2023 2:00:00 AM 2.56 36.608 0.182 7.32 8.12 12.39
1/10/2023 2:15:00 AM 2.55 36.59 0.181 7.32 7.88 12.4
1/10/2023 2:30:00 AM 2.55 36.59 0.181 7.31 8.1 12.4
1/10/2023 2:45:00 AM 2.54 36.572 0.182 7.32 8.01 12.4
1/10/2023 3:00:00 AM 2.54 36.572 0.182 7.32 8.04 12.41
1/10/2023 3:15:00 AM 2.53 36.554 0.183 7.31 7.91 12.41
1/10/2023 3:30:00 AM 2.52 36.536 0.18 7.31 8.18 12.41
1/10/2023 3:45:00 AM 2.51 36.518 0.181 7.31 8.39 12.41
1/10/2023 4:00:00 AM 2.5 36.5 0.181 7.32 8.07 12.41
1/10/2023 4:15:00 AM 2.49 36.482 0.183 7.31 8.12 12.41
1/10/2023 4:30:00 AM 2.48 36.464 0.182 7.31 8.5 12.41
1/10/2023 4:45:00 AM 2.48 36.464 0.183 7.32 8.59 12.41
1/10/2023 5:00:00 AM 2.47 36.446 0.181 7.31 8.08 12.42
1/10/2023 5:15:00 AM 2.46 36.428 0.183 7.31 8.08 12.42
1/10/2023 5:30:00 AM 2.45 36.41 0.183 7.31 8.34 12.42
1/10/2023 5:45:00 AM 2.44 36.392 0.183 7.31 7.97 12.42
1/10/2023 6:00:00 AM 2.43 36.374 0.181 7.31 8.46 12.42
1/10/2023 6:15:00 AM 2.41 36.338 0.184 7.31 8.71 12.43
1/10/2023 6:30:00 AM 2.4 36.32 0.182 7.31 8.11 12.43
1/10/2023 6:45:00 AM 2.39 36.302 0.182 7.31 8.26 12.44
1/10/2023 7:00:00 AM 2.38 36.284 0.182 7.31 8.06 12.44
1/10/2023 7:15:00 AM 2.38 36.284 0.184 7.31 8.01 12.44
1/10/2023 7:30:00 AM 2.37 36.266 0.183 7.31 8.16 12.45
1/10/2023 7:45:00 AM 2.37 36.266 0.18 7.31 8.05 12.45
1/10/2023 8:00:00 AM 2.37 36.266 0.185 7.31 8.17 12.45
1/10/2023 8:15:00 AM 2.38 36.284 0.182 7.31 7.99 12.46
1/10/2023 8:30:00 AM 2.39 36.302 0.183 7.31 7.99 12.47
1/10/2023 8:45:00 AM 2.4 36.32 0.184 7.31 8.04 12.47
1/10/2023 9:00:00 AM 2.42 36.356 0.183 7.31 8.47 12.49
1/10/2023 9:15:00 AM 2.45 36.41 0.19 7.54 11.46 12.47
1/10/2023 9:30:00 AM 2.47 36.446 0.19 7.38 8.44 12.52
1/10/2023 9:45:00 AM 2.5 36.5 0.19 7.2 7.02 12.53
1/10/2023 10:00:00 AM 2.52 36.536 0.19 7.16 6.98 12.54
1/10/2023 10:15:00 AM 2.55 36.59 0.19 7.18 7.43 12.55
1/10/2023 10:30:00 AM 2.57 36.626 0.19 7.2 6.92 12.56
1/10/2023 10:45:00 AM 2.59 36.662 0.19 7.24 7.48 12.56
1/10/2023 11:00:00 AM 2.62 36.716 0.19 7.26 6.42 12.57
1/10/2023 11:15:00 AM 2.65 36.77 0.19 7.28 7.21 12.57
1/10/2023 11:30:00 AM 2.68 36.824 0.19 7.28 6.8 12.57
1/10/2023 11:45:00 AM 2.72 36.896 0.19 7.29 6.58 12.58
1/10/2023 12:00:00 PM 2.77 36.986 0.19 7.3 6.4 12.59
1/10/2023 12:15:00 PM 2.83 37.094 0.19 7.3 6.57 12.59
1/10/2023 12:30:00 PM 2.88 37.184 0.19 7.29 6.59 12.59
1/10/2023 12:45:00 PM 2.93 37.274 0.19 7.31 6.39 12.59
1/10/2023 1:00:00 PM 2.97 37.346 0.19 7.3 6.54 12.59
1/10/2023 1:15:00 PM 3.05 37.49 0.191 7.3 6.53 12.59
1/10/2023 1:30:00 PM 3.13 37.634 0.19 7.31 6.35 12.59
1/10/2023 1:45:00 PM 3.23 37.814 0.19 7.31 6.27 12.58
1/10/2023 2:00:00 PM 3.33 37.994 0.191 7.31 6.51 12.58
1/10/2023 2:15:00 PM 3.39 38.102 0.19 7.31 6.6 12.57
1/10/2023 2:30:00 PM 3.45 38.21 0.19 7.31 6.52 12.57
1/10/2023 2:45:00 PM 3.48 38.264 0.19 7.31 6.17 12.56
1/10/2023 3:00:00 PM 3.49 38.282 0.19 7.32 6.13 12.56
1/10/2023 3:15:00 PM 3.49 38.282 0.191 7.32 6.01 12.56
1/10/2023 3:30:00 PM 3.49 38.282 0.191 7.31 6.39 12.55
1/10/2023 3:45:00 PM 3.43 38.174 0.19 7.31 6.26 12.54
1/10/2023 4:00:00 PM 3.38 38.084 0.191 7.31 6.32 12.54
1/10/2023 4:15:00 PM 3.35 38.03 0.191 7.31 6.17 12.53
1/10/2023 4:30:00 PM 3.33 37.994 0.191 7.31 6.09 12.51
1/10/2023 4:45:00 PM 3.31 37.958 0.191 7.3 6.07 12.5
1/10/2023 5:00:00 PM 3.28 37.904 0.191 7.31 6.25 12.48
1/10/2023 5:15:00 PM 3.23 37.814 0.191 7.31 5.98 12.47
1/10/2023 5:30:00 PM 3.19 37.742 0.191 7.31 5.91 12.46
1/10/2023 5:45:00 PM 3.16 37.688 0.191 7.3 6.01 12.44
1/10/2023 6:00:00 PM 3.15 37.67 0.191 7.3 6.12 12.42
1/10/2023 6:15:00 PM 3.14 37.652 0.192 7.3 6.26 12.41
1/10/2023 6:30:00 PM 3.11 37.598 0.192 7.3 6.54 12.4
1/10/2023 6:45:00 PM 3.08 37.544 0.192 7.31 7.16 12.4
1/10/2023 7:00:00 PM 3.04 37.472 0.192 7.3 6.62 12.4
1/10/2023 7:15:00 PM 3.01 37.418 0.192 7.3 6.76 12.39
1/10/2023 7:30:00 PM 2.99 37.382 0.192 7.3 6.59 12.39
1/10/2023 7:45:00 PM 2.96 37.328 0.192 7.31 6.39 12.39
1/10/2023 8:00:00 PM 2.94 37.292 0.192 7.31 6.49 12.39
1/10/2023 8:15:00 PM 2.92 37.256 0.192 7.31 6.56 12.39
1/10/2023 8:30:00 PM 2.9 37.22 0.193 7.31 6.78 12.39
1/10/2023 8:45:00 PM 2.88 37.184 0.192 7.31 6.79 12.38
1/10/2023 9:00:00 PM 2.86 37.148 0.192 7.31 6.34 12.38
1/10/2023 9:15:00 PM 2.84 37.112 0.192 7.3 6.99 12.38
1/10/2023 9:30:00 PM 2.81 37.058 0.193 7.31 6.79 12.38
1/10/2023 9:45:00 PM 2.79 37.022 0.193 7.31 6.37 12.38
1/10/2023 10:00:00 PM 2.76 36.968 0.193 7.3 7.11 12.38
1/10/2023 10:15:00 PM 2.74 36.932 0.193 7.31 6.42 12.38
1/10/2023 10:30:00 PM 2.71 36.878 0.193 7.31 6.53 12.38
1/10/2023 10:45:00 PM 2.69 36.842 0.193 7.31 6.46 12.39
1/10/2023 11:00:00 PM 2.67 36.806 0.193 7.3 6.9 12.39
1/10/2023 11:15:00 PM 2.65 36.77 0.193 7.3 6.74 12.39
1/10/2023 11:30:00 PM 2.63 36.734 0.193 7.31 6.7 12.39
1/10/2023 11:45:00 PM 2.61 36.698 0.193 7.3 6.61 12.4
1/11/2023 12:00:00 AM 2.59 36.662 0.193 7.3 6.64 12.4
1/11/2023 12:15:00 AM 2.56 36.608 0.193 7.31 6.74 12.4
1/11/2023 12:30:00 AM 2.54 36.572 0.193 7.31 6.63 12.4
1/11/2023 12:45:00 AM 2.51 36.518 0.193 7.3 6.9 12.41
1/11/2023 1:00:00 AM 2.49 36.482 0.193 7.3 6.89 12.42
1/11/2023 1:15:00 AM 2.46 36.428 0.193 7.31 6.68 12.42
1/11/2023 1:30:00 AM 2.44 36.392 0.193 7.31 6.87 12.43
1/11/2023 1:45:00 AM 2.41 36.338 0.193 7.3 6.45 12.43
1/11/2023 2:00:00 AM 2.39 36.302 0.194 7.3 6.23 12.44
1/11/2023 2:15:00 AM 2.37 36.266 0.194 7.3 6.57 12.45
1/11/2023 2:30:00 AM 2.34 36.212 0.194 7.31 6.58 12.45
1/11/2023 2:45:00 AM 2.31 36.158 0.194 7.3 6.49 12.45
1/11/2023 3:00:00 AM 2.29 36.122 0.194 7.31 6.41 12.46
1/11/2023 3:15:00 AM 2.26 36.068 0.194 7.31 6.43 12.47
1/11/2023 3:30:00 AM 2.24 36.032 0.194 7.29 6.47 12.47
1/11/2023 3:45:00 AM 2.21 35.978 0.194 7.3 6.65 12.48
1/11/2023 4:00:00 AM 2.19 35.942 0.194 7.3 6.69 12.48
1/11/2023 4:15:00 AM 2.16 35.888 0.194 7.29 6.69 12.49
1/11/2023 4:30:00 AM 2.13 35.834 0.194 7.3 6.63 12.49
1/11/2023 4:45:00 AM 2.11 35.798 0.195 7.3 6.54 12.5
1/11/2023 5:00:00 AM 2.08 35.744 0.194 7.3 6.55 12.5
1/11/2023 5:15:00 AM 2.06 35.708 0.195 7.31 6.3 12.51
1/11/2023 5:30:00 AM 2.03 35.654 0.195 7.29 6.46 12.52
1/11/2023 5:45:00 AM 2.01 35.618 0.195 7.3 6.4 12.53
1/11/2023 6:00:00 AM 1.99 35.582 0.195 7.28 6.57 12.54
1/11/2023 6:15:00 AM 1.96 35.528 0.195 7.29 6.36 12.54
1/11/2023 6:30:00 AM 1.94 35.492 0.195 7.29 6.52 12.55
1/11/2023 6:45:00 AM 1.92 35.456 0.195 7.3 6.24 12.56
1/11/2023 7:00:00 AM 1.89 35.402 0.195 7.3 6.4 12.57
1/11/2023 7:15:00 AM 1.87 35.366 0.195 7.3 6.57 12.58
1/11/2023 7:30:00 AM 1.85 35.33 0.195 7.3 6.29 12.58
1/11/2023 7:45:00 AM 1.84 35.312 0.195 7.29 6.11 12.59
1/11/2023 8:00:00 AM 1.83 35.294 0.196 7.3 6.5 12.6
1/11/2023 8:15:00 AM 1.82 35.276 0.195 7.3 6.69 12.61
1/11/2023 8:30:00 AM 1.82 35.276 0.196 7.3 6.68 12.63
1/11/2023 8:45:00 AM 1.83 35.294 0.195 7.31 6.81 12.64
1/11/2023 9:00:00 AM 1.86 35.348 0.196 7.3 7.42 12.65
1/11/2023 9:15:00 AM 1.89 35.402 0.196 7.31 8.14 12.67
1/11/2023 9:30:00 AM 1.92 35.456 0.196 7.31 8.38 12.7
1/11/2023 9:45:00 AM 1.97 35.546 0.196 7.31 7.97 12.71
1/11/2023 10:00:00 AM 2.03 35.654 0.196 7.31 6.66 12.72
1/11/2023 10:15:00 AM 2.11 35.798 0.196 7.32 6.45 12.73
1/11/2023 10:30:00 AM 2.16 35.888 0.196 7.31 6.26 12.74
1/11/2023 10:45:00 AM 2.23 36.014 0.196 7.31 6.44 12.74
1/11/2023 11:00:00 AM 2.3 36.14 0.196 7.32 6.29 12.74
1/11/2023 11:15:00 AM 2.38 36.284 0.196 7.34 6.21 12.74
1/11/2023 11:30:00 AM 2.45 36.41 0.196 7.31 6.35 12.74
1/11/2023 11:45:00 AM 2.5 36.5 0.196 7.32 6.69 12.73
1/11/2023 12:00:00 PM 2.53 36.554 0.196 7.33 6.68 12.73
1/11/2023 12:15:00 PM 2.56 36.608 0.196 7.33 6.54 12.73
1/11/2023 12:30:00 PM 2.57 36.626 0.196 7.32 6.28 12.72
1/11/2023 12:45:00 PM 2.59 36.662 0.197 7.32 6.58 12.72
1/11/2023 1:00:00 PM 2.62 36.716 0.197 7.33 6.44 12.73
1/11/2023 1:15:00 PM 2.63 36.734 0.196 7.33 6.42 12.73
1/11/2023 1:30:00 PM 2.64 36.752 0.197 7.33 6.42 12.73
1/11/2023 1:45:00 PM 2.66 36.788 0.197 7.32 6.44 12.73
1/11/2023 2:00:00 PM 2.8 37.04 0.197 7.31 6.11 12.73
1/11/2023 2:15:00 PM 2.89 37.202 0.197 7.33 5.97 12.72
1/11/2023 2:30:00 PM 2.94 37.292 0.197 7.33 5.98 12.71
1/11/2023 2:45:00 PM 2.92 37.256 0.197 7.34 6.01 12.71
1/11/2023 3:00:00 PM 2.9 37.22 0.197 7.34 6.27 12.71
1/11/2023 3:15:00 PM 2.89 37.202 0.198 7.34 6.22 12.71
1/11/2023 3:30:00 PM 2.87 37.166 0.198 7.34 5.98 12.7
1/11/2023 3:45:00 PM 2.86 37.148 0.198 7.33 6.15 12.7
1/11/2023 4:00:00 PM 2.85 37.13 0.198 7.32 6.06 12.69
1/11/2023 4:15:00 PM 2.84 37.112 0.198 7.34 6.11 12.68
1/11/2023 4:30:00 PM 2.83 37.094 0.198 7.33 6.12 12.67
1/11/2023 4:45:00 PM 2.81 37.058 0.198 7.34 6.21 12.65
1/11/2023 5:00:00 PM 2.79 37.022 0.198 7.33 5.96 12.63
1/11/2023 5:15:00 PM 2.77 36.986 0.198 7.32 6.12 12.61
1/11/2023 5:30:00 PM 2.76 36.968 0.199 7.31 6.02 12.58
1/11/2023 5:45:00 PM 2.75 36.95 0.199 7.33 5.71 12.57
1/11/2023 6:00:00 PM 2.72 36.896 0.198 7.32 6.33 12.56
1/11/2023 6:15:00 PM 2.7 36.86 0.198 7.32 6.08 12.55
1/11/2023 6:30:00 PM 2.7 36.86 0.199 7.31 5.95 12.53
1/11/2023 6:45:00 PM 2.7 36.86 0.199 7.3 6.08 12.53
1/11/2023 7:00:00 PM 2.69 36.842 0.199 7.32 6.65 12.52
1/11/2023 7:15:00 PM 2.68 36.824 0.199 7.32 6.61 12.52
1/11/2023 7:30:00 PM 2.68 36.824 0.199 7.32 6.27 12.52
1/11/2023 7:45:00 PM 2.68 36.824 0.199 7.32 6.62 12.52
1/11/2023 8:00:00 PM 2.68 36.824 0.199 7.32 6.52 12.51
1/11/2023 8:15:00 PM 2.68 36.824 0.199 7.33 6.09 12.5
1/11/2023 8:30:00 PM 2.67 36.806 0.199 7.31 6.42 12.49
1/11/2023 8:45:00 PM 2.66 36.788 0.199 7.3 6.3 12.49
1/11/2023 9:00:00 PM 2.66 36.788 0.199 7.3 6.1 12.48
1/11/2023 9:15:00 PM 2.65 36.77 0.199 7.32 6.09 12.47
1/11/2023 9:30:00 PM 2.67 36.806 0.199 7.31 6.46 12.46
1/11/2023 9:45:00 PM 2.67 36.806 0.199 7.32 6.36 12.46
1/11/2023 10:00:00 PM 2.68 36.824 0.199 7.3 6.8 12.45
1/11/2023 10:15:00 PM 2.68 36.824 0.199 7.32 6.09 12.44
1/11/2023 10:30:00 PM 2.68 36.824 0.199 7.31 6.16 12.44
1/11/2023 10:45:00 PM 2.68 36.824 0.199 7.31 6.04 12.43
1/11/2023 11:00:00 PM 2.68 36.824 0.199 7.3 6.13 12.43
1/11/2023 11:15:00 PM 2.69 36.842 0.199 7.32 6.44 12.42
1/11/2023 11:30:00 PM 2.69 36.842 0.199 7.31 6.35 12.41
1/11/2023 11:45:00 PM 2.7 36.86 0.199 7.31 6.15 12.4
1/12/2023 12:00:00 AM 2.71 36.878 0.199 7.3 6.13 12.39
1/12/2023 12:15:00 AM 2.72 36.896 0.199 7.29 6.44 12.4
1/12/2023 12:30:00 AM 2.73 36.914 0.199 7.3 6.49 12.39
1/12/2023 12:45:00 AM 2.74 36.932 0.2 7.3 6.14 12.4
1/12/2023 1:00:00 AM 2.75 36.95 0.215 7.29 6.75 12.39
1/12/2023 1:15:00 AM 2.75 36.95 0.217 7.29 6.6 12.39
1/12/2023 1:30:00 AM 2.76 36.968 0.225 7.3 7.02 12.38
1/12/2023 1:45:00 AM 2.76 36.968 0.223 7.3 6.63 12.37
1/12/2023 2:00:00 AM 2.77 36.986 0.217 7.29 6.75 12.36
1/12/2023 2:15:00 AM 2.77 36.986 0.211 7.3 7.02 12.36
1/12/2023 2:30:00 AM 2.77 36.986 0.206 7.29 6.31 12.36
1/12/2023 2:45:00 AM 2.78 37.004 0.204 7.3 6.25 12.36
1/12/2023 3:00:00 AM 2.78 37.004 0.203 7.29 6.54 12.36
1/12/2023 3:15:00 AM 2.79 37.022 0.202 7.29 6.65 12.36
1/12/2023 3:30:00 AM 2.79 37.022 0.201 7.3 6.19 12.36
1/12/2023 3:45:00 AM 2.79 37.022 0.201 7.3 6.21 12.35
1/12/2023 4:00:00 AM 2.8 37.04 0.2 7.29 5.85 12.35
1/12/2023 4:15:00 AM 2.81 37.058 0.201 7.3 6.14 12.35
1/12/2023 4:30:00 AM 2.81 37.058 0.201 7.29 6 12.35
1/12/2023 4:45:00 AM 2.82 37.076 0.2 7.3 6.14 12.34
1/12/2023 5:00:00 AM 2.82 37.076 0.202 7.3 6.39 12.34
1/12/2023 5:15:00 AM 2.83 37.094 0.204 7.28 6.54 12.33
1/12/2023 5:30:00 AM 2.84 37.112 0.205 7.29 6.58 12.33
1/12/2023 5:45:00 AM 2.85 37.13 0.204 7.29 6.24 12.32
1/12/2023 6:00:00 AM 2.85 37.13 0.203 7.29 6.36 12.32
1/12/2023 6:15:00 AM 2.85 37.13 0.202 7.29 6.37 12.32
1/12/2023 6:30:00 AM 2.86 37.148 0.202 7.29 6.68 12.31
1/12/2023 6:45:00 AM 2.87 37.166 0.201 7.28 6.57 12.31
1/12/2023 7:00:00 AM 2.87 37.166 0.2 7.28 6.36 12.31
1/12/2023 7:15:00 AM 2.89 37.202 0.201 7.28 6.16 12.31
1/12/2023 7:30:00 AM 2.89 37.202 0.2 7.29 6.2 12.31
1/12/2023 7:45:00 AM 2.91 37.238 0.2 7.28 6.02 12.3
1/12/2023 8:00:00 AM 2.92 37.256 0.2 7.29 6.05 12.3
1/12/2023 8:15:00 AM 2.93 37.274 0.2 7.28 6.07 12.3
1/12/2023 8:30:00 AM 2.95 37.31 0.2 7.29 6.01 12.3
1/12/2023 8:45:00 AM 2.97 37.346 0.2 7.29 6.3 12.3
1/12/2023 9:00:00 AM 2.98 37.364 0.201 7.3 5.98 12.3
1/12/2023 9:15:00 AM 3 37.4 0.201 7.3 6.07 12.31
1/12/2023 9:30:00 AM 3.02 37.436 0.2 7.3 6.02 12.31
1/12/2023 9:45:00 AM 3.04 37.472 0.2 7.29 6.3 12.31
1/12/2023 10:00:00 AM 3.08 37.544 0.2 7.28 6.15 12.32
1/12/2023 10:15:00 AM 3.13 37.634 0.2 7.3 6.3 12.33
1/12/2023 10:30:00 AM 3.17 37.706 0.2 7.3 5.98 12.35
1/12/2023 10:45:00 AM 3.22 37.796 0.2 7.3 5.82 12.35
1/12/2023 11:00:00 AM 3.28 37.904 0.2 7.3 5.96 12.36
1/12/2023 11:15:00 AM 3.31 37.958 0.2 7.3 5.67 12.36
1/12/2023 11:30:00 AM 3.35 38.03 0.199 7.3 5.64 12.36
1/12/2023 11:45:00 AM 3.39 38.102 0.199 7.31 5.7 12.36
1/12/2023 12:00:00 PM 3.4 38.12 0.199 7.31 5.6 12.35
1/12/2023 12:15:00 PM 3.41 38.138 0.199 7.3 5.73 12.34
1/12/2023 12:30:00 PM 3.41 38.138 0.199 7.31 5.94 12.33
1/12/2023 12:45:00 PM 3.41 38.138 0.199 7.32 5.94 12.31
1/12/2023 1:00:00 PM 3.4 38.12 0.198 7.31 5.82 12.29
1/12/2023 1:15:00 PM 3.41 38.138 0.226 7.39 47.05 12.27
1/12/2023 1:30:00 PM 3.46 38.228 0.209 7.4 32.23 12.25
1/12/2023 1:45:00 PM 3.54 38.372 0.22 7.41 37.68 12.2
1/12/2023 2:00:00 PM 3.55 38.39 0.21 7.44 40.78 12.19
1/12/2023 2:15:00 PM 3.53 38.354 0.201 7.42 36.21 12.19
1/12/2023 2:30:00 PM 3.52 38.336 0.196 7.39 33.32 12.19
1/12/2023 2:45:00 PM 3.54 38.372 0.196 7.37 28.68 12.18
1/12/2023 3:00:00 PM 3.56 38.408 0.195 7.35 25.67 12.19
1/12/2023 3:15:00 PM 3.57 38.426 0.196 7.34 22.1 12.17
1/12/2023 3:30:00 PM 3.57 38.426 0.196 7.33 21.76 12.17
1/12/2023 3:45:00 PM 3.62 38.516 0.2 7.32 23.55 12.16
1/12/2023 4:00:00 PM 3.67 38.606 0.205 7.34 24.18 12.14
1/12/2023 4:15:00 PM 3.68 38.624 0.207 7.34 22.76 12.14
1/12/2023 4:30:00 PM 3.72 38.696 0.21 7.34 22.27 12.13
1/12/2023 4:45:00 PM 3.7 38.66 0.211 7.35 20.98 12.14
1/12/2023 5:00:00 PM 3.69 38.642 0.213 7.35 26.63 12.14
1/12/2023 5:15:00 PM 3.65 38.57 0.219 7.36 37.72 12.15
1/12/2023 5:30:00 PM 3.62 38.516 0.218 7.38 62.25 12.14
1/12/2023 5:45:00 PM 3.61 38.498 0.213 7.39 63.24 12.13
1/12/2023 6:00:00 PM 3.6 38.48 0.207 7.37 45 12.12
1/12/2023 6:15:00 PM 3.58 38.444 0.202 7.37 47.05 12.12
1/12/2023 6:30:00 PM 3.57 38.426 0.198 7.37 39.96 12.12
1/12/2023 6:45:00 PM 3.55 38.39 0.195 7.34 39.29 12.12
1/12/2023 7:00:00 PM 3.55 38.39 0.193 7.35 37.74 12.12
1/12/2023 7:15:00 PM 3.54 38.372 0.192 7.34 36 12.13
1/12/2023 7:30:00 PM 3.55 38.39 0.191 7.35 31.61 12.12
1/12/2023 7:45:00 PM 3.56 38.408 0.191 7.36 31.9 12.12
1/12/2023 8:00:00 PM 3.57 38.426 0.19 7.35 30.04 12.11
1/12/2023 8:15:00 PM 3.58 38.444 0.187 7.35 29.25 12.1
1/12/2023 8:30:00 PM 3.59 38.462 0.184 7.35 33.15 12.09
1/12/2023 8:45:00 PM 3.61 38.498 0.181 7.33 32.59 12.09
1/12/2023 9:00:00 PM 3.63 38.534 0.179 7.34 37.47 12.08
1/12/2023 9:15:00 PM 3.64 38.552 0.178 7.35 35.05 12.06
1/12/2023 9:30:00 PM 3.66 38.588 0.177 7.34 36.74 12.05
1/12/2023 9:45:00 PM 3.68 38.624 0.175 7.33 37.23 12.04
1/12/2023 10:00:00 PM 3.69 38.642 0.174 7.32 40 12.03
1/12/2023 10:15:00 PM 3.7 38.66 0.172 7.31 45.31 12.02
1/12/2023 10:30:00 PM 3.71 38.678 0.172 7.31 47.12 12.01
1/12/2023 10:45:00 PM 3.7 38.66 0.171 7.31 48.11 12
1/12/2023 11:00:00 PM 3.7 38.66 0.17 7.32 50.57 12
1/12/2023 11:15:00 PM 3.7 38.66 0.168 7.31 52.8 12
1/12/2023 11:30:00 PM 3.7 38.66 0.167 7.32 56.1 11.99
1/12/2023 11:45:00 PM 3.7 38.66 0.166 7.31 55.06 11.98
1/13/2023 12:00:00 AM 3.7 38.66 0.165 7.31 56.51 11.98
1/13/2023 12:15:00 AM 3.71 38.678 0.164 7.33 59.65 11.97
1/13/2023 12:30:00 AM 3.72 38.696 0.163 7.33 60.73 11.96
1/13/2023 12:45:00 AM 3.73 38.714 0.163 7.33 62.22 11.95
1/13/2023 1:00:00 AM 3.74 38.732 0.164 7.36 68.03 11.94
1/13/2023 1:15:00 AM 3.74 38.732 0.163 7.35 79.15 11.94
1/13/2023 1:30:00 AM 3.73 38.714 0.162 7.28 93.58 11.94
1/13/2023 1:45:00 AM 3.73 38.714 0.162 7.3 1121.69 11.93
1/13/2023 2:00:00 AM 3.74 38.732 0.159 7.35 282.38 11.92
1/13/2023 2:15:00 AM 3.75 38.75 0.16 7.35 112.99 11.92
1/13/2023 2:30:00 AM 3.75 38.75 0.16 7.35 112.65 11.92
1/13/2023 2:45:00 AM 3.75 38.75 0.159 7.3 105.35 11.91
1/13/2023 3:00:00 AM 3.76 38.768 0.159 7.31 100.33 11.91
1/13/2023 3:15:00 AM 3.77 38.786 0.158 7.31 82.32 11.9
1/13/2023 3:30:00 AM 3.78 38.804 0.158 7.31 72.13 11.89
1/13/2023 3:45:00 AM 3.78 38.804 0.158 7.33 74.45 11.89
1/13/2023 4:00:00 AM 3.79 38.822 0.158 7.33 74.39 11.89
1/13/2023 4:15:00 AM 3.79 38.822 0.159 7.34 77.34 11.89
1/13/2023 4:30:00 AM 3.79 38.822 0.159 7.35 155.21 11.88
1/13/2023 4:45:00 AM 3.77 38.786 0.159 7.34 74.04 11.88
1/13/2023 5:00:00 AM 3.76 38.768 0.154 7.35 113 11.88
1/13/2023 5:15:00 AM 3.75 38.75 0.157 7.36 101.64 11.88
1/13/2023 5:30:00 AM 3.74 38.732 0.134 7.35 102.5 11.87
1/13/2023 5:45:00 AM 3.74 38.732 0.127 7.35 86.92 11.87
1/13/2023 6:00:00 AM 3.72 38.696 0.121 7.36 99.6 11.88
1/13/2023 6:15:00 AM 3.72 38.696 0.114 7.35 86.45 11.88
1/13/2023 6:30:00 AM 3.71 38.678 0.116 7.37 75.38 11.87
1/13/2023 6:45:00 AM 3.7 38.66 0.113 7.36 85.28 11.88
1/13/2023 7:00:00 AM 3.69 38.642 0.128 7.36 97.61 11.88
1/13/2023 7:15:00 AM 3.68 38.624 0.13 7.36 79.81 11.88
1/13/2023 7:30:00 AM 3.67 38.606 0.131 7.36 78.47 11.87
1/13/2023 7:45:00 AM 3.66 38.588 0.137 7.36 93.1 11.87
1/13/2023 8:00:00 AM 3.65 38.57 0.14 7.35 127.77 11.87
1/13/2023 8:15:00 AM 3.65 38.57 0.13 7.36 113.16 11.87
1/13/2023 8:30:00 AM 3.64 38.552 0.132 7.35 68.86 11.87
1/13/2023 8:45:00 AM 3.64 38.552 0.118 7.35 88.79 11.88
1/13/2023 9:00:00 AM 3.63 38.534 0.123 7.34 70.39 11.87
1/13/2023 9:15:00 AM 3.63 38.534 0.128 7.33 95.61 11.87
1/13/2023 9:30:00 AM 3.63 38.534 0.129 7.35 65.69 11.87
1/13/2023 9:45:00 AM 3.63 38.534 0.129 7.33 77.27 11.88
1/13/2023 10:00:00 AM 3.63 38.534 0.13 7.32 66.13 11.88
1/13/2023 10:15:00 AM 3.65 38.57 0.131 7.33 74.58 11.88
1/13/2023 10:30:00 AM 3.63 38.534 0.131 7.33 64.17 11.9
1/13/2023 10:45:00 AM 3.63 38.534 0.131 7.33 78.72 11.9
1/13/2023 11:00:00 AM 3.63 38.534 0.132 7.32 88.8 11.9
1/13/2023 11:15:00 AM 3.62 38.516 0.132 7.32 54.26 11.9
1/13/2023 11:30:00 AM 3.6 38.48 0.133 7.32 116.43 11.9
1/13/2023 11:45:00 AM 3.6 38.48 0.133 7.31 56.68 11.89
1/13/2023 12:00:00 PM 3.6 38.48 0.132 7.31 60.46 11.87
1/13/2023 12:15:00 PM 3.6 38.48 0.132 7.29 51.38 11.87
1/13/2023 12:30:00 PM 3.58 38.444 0.132 7.31 68.09 11.9
1/13/2023 12:45:00 PM 3.57 38.426 0.132 7.3 117.27 11.91
1/13/2023 1:00:00 PM 3.58 38.444 0.126 7.3 87.75 11.9
1/13/2023 1:15:00 PM 3.58 38.444 0.125 7.3 85.34 11.91
1/13/2023 1:30:00 PM 3.57 38.426 0.129 7.29 87.93 11.91
1/13/2023 1:45:00 PM 3.56 38.408 0.126 7.3 50.57 11.92
1/13/2023 2:00:00 PM 3.56 38.408 0.123 7.29 194.91 11.92
1/13/2023 2:15:00 PM 3.56 38.408 0.125 7.3 50.92 11.93
1/13/2023 2:30:00 PM 3.55 38.39 0.127 7.3 59.72 11.91
1/13/2023 2:45:00 PM 3.55 38.39 0.133 7.3 47.32 11.94
1/13/2023 3:00:00 PM 3.53 38.354 0.123 7.29 50.51 11.93
1/13/2023 3:15:00 PM 3.52 38.336 0.119 7.28 37.45 11.96
1/13/2023 3:30:00 PM 3.51 38.318 0.123 7.3 49.32 11.93
1/13/2023 3:45:00 PM 3.51 38.318 0.12 7.29 51.07 11.97
1/13/2023 4:00:00 PM 3.5 38.3 0.121 7.29 41.1 11.97
1/13/2023 4:15:00 PM 3.49 38.282 0.119 7.29 36.27 11.97
1/13/2023 4:30:00 PM 3.49 38.282 0.113 7.29 38.26 11.96
1/13/2023 4:45:00 PM 3.48 38.264 0.112 7.29 38.36 11.97
1/13/2023 5:00:00 PM 3.47 38.246 0.106 7.3 33.66 11.97
1/13/2023 5:15:00 PM 3.45 38.21 0.107 7.28 106.75 11.98
1/13/2023 5:30:00 PM 3.44 38.192 0.106 7.29 56.16 11.97
1/13/2023 5:45:00 PM 3.43 38.174 0.105 7.28 88.58 11.99
1/13/2023 6:00:00 PM 3.41 38.138 0.111 7.29 83.59 11.98
1/13/2023 6:15:00 PM 3.4 38.12 0.104 7.27 34.94 11.99
1/13/2023 6:30:00 PM 3.37 38.066 0.113 7.29 55.89 11.98
1/13/2023 6:45:00 PM 3.36 38.048 0.107 7.28 44.33 11.99
1/13/2023 7:00:00 PM 3.34 38.012 0.105 7.28 53.94 12.01
1/13/2023 7:15:00 PM 3.32 37.976 0.104 7.28 55.49 12
1/13/2023 7:30:00 PM 3.3 37.94 0.106 7.29 109.59 12.02
1/13/2023 7:45:00 PM 3.28 37.904 0.104 7.28 36.98 12.03
1/13/2023 8:00:00 PM 3.26 37.868 0.101 7.28 82.13 12.03
1/13/2023 8:15:00 PM 3.24 37.832 0.094 7.28 46.82 12.04
1/13/2023 8:30:00 PM 3.23 37.814 0.106 7.28 94.25 12.04
1/13/2023 8:45:00 PM 3.21 37.778 0.107 7.28 51.88 12.05
1/13/2023 9:00:00 PM 3.19 37.742 0.122 7.28 71.95 12.06
1/13/2023 9:15:00 PM 3.18 37.724 0.104 7.29 33 12.07
1/13/2023 9:30:00 PM 3.16 37.688 0.117 7.29 32.76 12.07
1/13/2023 9:45:00 PM 3.15 37.67 0.11 7.29 35.12 12.08
1/13/2023 10:00:00 PM 3.14 37.652 0.129 7.28 63.18 12.07
1/13/2023 10:15:00 PM 3.12 37.616 0.138 7.28 33.15 12.08
1/13/2023 10:30:00 PM 3.09 37.562 0.135 7.28 33.59 12.04
1/13/2023 10:45:00 PM 3.07 37.526 0.139 7.28 54.08 12.1
1/13/2023 11:00:00 PM 3.06 37.508 0.131 7.28 52.43 12.11
1/13/2023 11:15:00 PM 3.04 37.472 0.139 7.28 92.95 12.12
1/13/2023 11:30:00 PM 3.02 37.436 0.133 7.28 49.21 12.12
1/13/2023 11:45:00 PM 3.01 37.418 0.144 7.27 54.03 12.13
1/14/2023 12:00:00 AM 2.99 37.382 0.154 7.27 116.04 12.13
1/14/2023 12:15:00 AM 2.97 37.346 0.138 7.27 32.41 12.14
1/14/2023 12:30:00 AM 2.96 37.328 0.138 7.27 63.13 12.14
1/14/2023 12:45:00 AM 2.94 37.292 0.137 7.26 52.72 12.15
1/14/2023 1:00:00 AM 2.91 37.238 0.154 7.26 56.78 12.16
1/14/2023 1:15:00 AM 2.89 37.202 0.15 7.26 57.62 12.16
1/14/2023 1:30:00 AM 2.86 37.148 0.159 7.25 65.28 12.18
1/14/2023 1:45:00 AM 2.83 37.094 0.172 7.27 47.05 12.19
1/14/2023 2:00:00 AM 2.82 37.076 0.171 7.28 31.96 12.17
1/14/2023 2:15:00 AM 2.79 37.022 0.159 7.28 73.69 12.21
1/14/2023 2:30:00 AM 2.77 36.986 0.169 7.28 66.67 12.21
1/14/2023 2:45:00 AM 2.74 36.932 0.171 7.28 34.54 12.22
1/14/2023 3:00:00 AM 2.72 36.896 0.167 7.27 37.74 12.23
1/14/2023 3:15:00 AM 2.69 36.842 0.155 7.25 29.25 12.24
1/14/2023 3:30:00 AM 2.68 36.824 0.152 7.28 41.83 12.24
1/14/2023 3:45:00 AM 2.65 36.77 0.161 7.29 50.03 12.25
1/14/2023 4:00:00 AM 2.63 36.734 0.168 7.29 55.09 12.27
1/14/2023 4:15:00 AM 2.61 36.698 0.171 7.27 30.52 12.27
1/14/2023 4:30:00 AM 2.59 36.662 0.173 7.28 26.29 12.28
1/14/2023 4:45:00 AM 2.57 36.626 0.172 7.28 30.73 12.29
1/14/2023 5:00:00 AM 2.55 36.59 0.17 7.29 42.58 12.3
1/14/2023 5:15:00 AM 2.54 36.572 0.171 7.3 78.79 12.31
1/14/2023 5:30:00 AM 2.52 36.536 0.173 7.3 66.28 12.32
1/14/2023 5:45:00 AM 2.5 36.5 0.174 7.29 74.14 12.31
1/14/2023 6:00:00 AM 2.5 36.5 0.17 7.28 29.77 12.3
1/14/2023 6:15:00 AM 2.47 36.446 0.184 7.29 28.75 12.31
1/14/2023 6:30:00 AM 2.44 36.392 0.182 7.29 26.16 12.33
1/14/2023 6:45:00 AM 2.42 36.356 0.175 7.3 31.25 12.35
1/14/2023 7:00:00 AM 2.4 36.32 0.176 7.28 35.04 12.35
1/14/2023 7:15:00 AM 2.38 36.284 0.177 7.29 66.51 12.37
1/14/2023 7:30:00 AM 2.35 36.23 0.177 7.27 36.5 12.37
1/14/2023 7:45:00 AM 2.33 36.194 0.175 7.29 103.47 12.37
1/14/2023 8:00:00 AM 2.3 36.14 0.176 7.28 61.88 12.39
1/14/2023 8:15:00 AM 2.28 36.104 0.173 7.29 134.7 12.4
1/14/2023 8:30:00 AM 2.26 36.068 0.176 7.29 45.1 12.41
1/14/2023 8:45:00 AM 2.23 36.014 0.176 7.28 72.15 12.42
1/14/2023 9:00:00 AM 2.2 35.96 0.177 7.3 40.11 12.43
1/14/2023 9:15:00 AM 2.2 35.96 0.179 7.29 70.66 12.46
1/14/2023 9:30:00 AM 2.19 35.942 0.179 7.3 28.3 12.47
1/14/2023 9:45:00 AM 2.18 35.924 0.18 7.3 32.45 12.49
1/14/2023 10:00:00 AM 2.19 35.942 0.178 7.3 22.97 12.49
1/14/2023 10:15:00 AM 2.18 35.924 0.168 7.29 32.19 12.53
1/14/2023 10:30:00 AM 2.16 35.888 0.178 7.31 32.22 12.55
1/14/2023 10:45:00 AM 2.16 35.888 0.175 7.28 33.89 12.56
1/14/2023 11:00:00 AM 2.15 35.87 0.174 7.28 28.56 12.57
1/14/2023 11:15:00 AM 2.15 35.87 0.178 7.29 25.85 12.59
1/14/2023 11:30:00 AM 2.15 35.87 0.17 7.3 30.45 12.6
1/14/2023 11:45:00 AM 2.16 35.888 0.17 7.29 21.17 12.61
1/14/2023 12:00:00 PM 2.16 35.888 0.179 7.3 23.21 12.63
1/14/2023 12:15:00 PM 2.16 35.888 0.178 7.26 19.94 12.65
1/14/2023 12:30:00 PM 2.18 35.924 0.179 7.25 69.15 12.66
1/14/2023 12:45:00 PM 2.2 35.96 0.177 7.31 21.2 12.67
1/14/2023 1:00:00 PM 2.21 35.978 0.178 7.29 24.67 12.69
1/14/2023 1:15:00 PM 2.21 35.978 0.179 7.29 30.63 12.7
1/14/2023 1:30:00 PM 2.22 35.996 0.174 7.3 20.92 12.7
1/14/2023 1:45:00 PM 2.21 35.978 0.179 7.29 39.99 12.71
1/14/2023 2:00:00 PM 2.2 35.96 0.176 7.28 64.37 12.71
1/14/2023 2:15:00 PM 2.2 35.96 0.18 7.29 99.65 12.73
1/14/2023 2:30:00 PM 2.22 35.996 0.181 7.3 34.89 12.73
1/14/2023 2:45:00 PM 2.2 35.96 0.177 7.3 68.96 12.73
1/14/2023 3:00:00 PM 2.18 35.924 0.179 7.3 24.88 12.75
1/14/2023 3:15:00 PM 2.16 35.888 0.178 7.29 97.53 12.76
1/14/2023 3:30:00 PM 2.15 35.87 0.175 7.28 20.97 12.76
1/14/2023 3:45:00 PM 2.13 35.834 0.177 7.29 53.88 12.77
1/14/2023 4:00:00 PM 2.12 35.816 0.18 7.29 21.06 12.77
1/14/2023 4:15:00 PM 2.08 35.744 0.181 7.29 95.84 12.79
1/14/2023 4:30:00 PM 2.05 35.69 0.18 7.3 34.69 12.78
1/14/2023 4:45:00 PM 2.02 35.636 0.179 7.29 16.19 12.79
1/14/2023 5:00:00 PM 1.97 35.546 0.179 7.29 41.29 12.79
1/14/2023 5:15:00 PM 1.93 35.474 0.18 7.28 133.85 12.77
1/14/2023 5:30:00 PM 1.89 35.402 0.178 7.28 66.07 12.78
1/14/2023 5:45:00 PM 1.86 35.348 0.18 7.29 64.07 12.77
1/14/2023 6:00:00 PM 1.83 35.294 0.18 7.28 36.21 12.77
1/14/2023 6:15:00 PM 1.81 35.258 0.179 7.28 26.84 12.76
1/14/2023 6:30:00 PM 1.79 35.222 0.181 7.27 22.34 12.76
1/14/2023 6:45:00 PM 1.78 35.204 0.182 7.24 21.65 12.75
1/14/2023 7:00:00 PM 1.75 35.15 0.182 7.24 23.43 12.75
1/14/2023 7:15:00 PM 1.74 35.132 0.182 7.24 34.78 12.76
1/14/2023 7:30:00 PM 1.72 35.096 0.181 7.24 25.98 12.75
1/14/2023 7:45:00 PM 1.7 35.06 0.181 7.25 127.9 12.77
1/14/2023 8:00:00 PM 1.68 35.024 0.174 7.26 34.02 12.77
1/14/2023 8:15:00 PM 1.66 34.988 0.169 7.29 101 12.76
1/14/2023 8:30:00 PM 1.65 34.97 0.173 7.25 18.56 12.77
1/14/2023 8:45:00 PM 1.65 34.97 0.174 7.38 23.86 12.78
1/14/2023 9:00:00 PM 1.62 34.916 0.181 7.25 21.44 12.78
1/14/2023 9:15:00 PM 1.6 34.88 0.181 7.23 17.43 12.77
1/14/2023 9:30:00 PM 1.57 34.826 0.18 7.25 21.05 12.78
1/14/2023 9:45:00 PM 1.56 34.808 0.182 7.3 19.24 12.78
1/14/2023 10:00:00 PM 1.54 34.772 0.182 7.26 36.04 12.8
1/14/2023 10:15:00 PM 1.53 34.754 0.176 7.23 47.6 12.79
1/14/2023 10:30:00 PM 1.52 34.736 0.182 7.23 22.99 12.79
1/14/2023 10:45:00 PM 1.49 34.682 0.182 7.22 64.99 12.8
1/14/2023 11:00:00 PM 1.47 34.646 0.179 7.22 34.3 12.78
1/14/2023 11:15:00 PM 1.44 34.592 0.181 7.24 36.06 12.81
1/14/2023 11:30:00 PM 1.42 34.556 0.182 7.22 21.43 12.83
1/14/2023 11:45:00 PM 1.4 34.52 0.183 7.24 30.82 12.84
1/15/2023 12:00:00 AM 1.37 34.466 0.183 7.31 18.86 12.84
1/15/2023 12:15:00 AM 1.36 34.448 0.183 7.29 246.57 12.85
1/15/2023 12:30:00 AM 1.33 34.394 0.183 7.21 53.8 12.85
1/15/2023 12:45:00 AM 1.32 34.376 0.182 7.25 17.89 12.85
1/15/2023 1:00:00 AM 1.31 34.358 0.184 7.24 41.8 12.86
1/15/2023 1:15:00 AM 1.3 34.34 0.179 7.23 26.09 12.87
1/15/2023 1:30:00 AM 1.29 34.322 0.183 7.26 19.06 12.87
1/15/2023 1:45:00 AM 1.28 34.304 0.184 7.26 17.83 12.89
1/15/2023 2:00:00 AM 1.27 34.286 0.18 7.26 28.95 12.89
1/15/2023 2:15:00 AM 1.26 34.268 0.184 7.26 16.68 12.9
1/15/2023 2:30:00 AM 1.25 34.25 0.184 7.26 27.13 12.9
1/15/2023 2:45:00 AM 1.25 34.25 0.169 7.26 37.39 12.91
1/15/2023 3:00:00 AM 1.24 34.232 0.184 7.25 28.41 12.91
1/15/2023 3:15:00 AM 1.24 34.232 0.181 7.22 19.06 12.91
1/15/2023 3:30:00 AM 1.22 34.196 0.176 7.23 37.97 12.92
1/15/2023 3:45:00 AM 1.21 34.178 0.16 7.26 42.41 12.92
1/15/2023 4:00:00 AM 1.2 34.16 0.136 7.25 14.48 12.93
1/15/2023 4:15:00 AM 1.19 34.142 0.159 7.26 18.22 12.92
1/15/2023 4:30:00 AM 1.17 34.106 0.183 7.23 37.57 12.94
1/15/2023 4:45:00 AM 1.16 34.088 0.185 7.26 17.14 12.93
1/15/2023 5:00:00 AM 1.15 34.07 0.182 7.26 163.69 12.93
1/15/2023 5:15:00 AM 1.14 34.052 0.171 7.25 17.15 12.95
1/15/2023 5:30:00 AM 1.13 34.034 0.181 7.22 42.91 12.95
1/15/2023 5:45:00 AM 1.12 34.016 0.185 7.24 25.16 12.96
1/15/2023 6:00:00 AM 1.1 33.98 0.185 7.24 23.43 12.97
1/15/2023 6:15:00 AM 1.08 33.944 0.185 7.26 18.4 12.98
1/15/2023 6:30:00 AM 1.06 33.908 0.185 7.27 17.07 12.99
1/15/2023 6:45:00 AM 1.04 33.872 0.186 7.27 49.82 13
1/15/2023 7:00:00 AM 1.01 33.818 0.185 7.28 18.26 13
1/15/2023 7:15:00 AM 0.98 33.764 0.185 7.25 18.31 12.99
1/15/2023 7:30:00 AM 0.97 33.746 0.185 7.26 17.28 13.01
1/15/2023 7:45:00 AM 0.95 33.71 0.186 7.27 23.94 13.01
1/15/2023 8:00:00 AM 0.92 33.656 0.186 7.27 26.32 13.04
1/15/2023 8:15:00 AM 0.9 33.62 0.186 7.27 22.9 13.06
1/15/2023 8:30:00 AM 0.89 33.602 0.185 7.26 22.82 13.06
1/15/2023 8:45:00 AM 0.88 33.584 0.179 7.28 20.98 13.09
1/15/2023 9:00:00 AM 0.89 33.602 0.184 7.27 22.97 13.1
1/15/2023 9:15:00 AM 0.9 33.62 0.185 7.29 32.25 13.1
1/15/2023 9:30:00 AM 0.96 33.728 0.185 7.28 15.29 13.12
1/15/2023 9:45:00 AM 0.95 33.71 0.183 7.27 19.41 13.14
1/15/2023 10:00:00 AM 0.99 33.782 0.186 7.26 15.06 13.16
1/15/2023 10:15:00 AM 1.05 33.89 0.185 7.27 12.82 13.15
1/15/2023 10:30:00 AM 1.1 33.98 0.185 7.27 19.93 13.17
1/15/2023 10:45:00 AM 1.18 34.124 0.186 7.28 13.79 13.17
1/15/2023 11:00:00 AM 1.21 34.178 0.182 7.27 22.71 13.18
1/15/2023 11:15:00 AM 1.23 34.214 0.18 7.27 15.89 13.16
1/15/2023 11:30:00 AM 1.28 34.304 0.179 7.27 17.92 13.16
1/15/2023 11:45:00 AM 1.33 34.394 0.18 7.28 41.32 13.19
1/15/2023 12:00:00 PM 1.41 34.538 0.181 7.28 16.84 13.19
1/15/2023 12:15:00 PM 1.53 34.754 0.18 7.28 16.43 13.18
1/15/2023 12:30:00 PM 1.6 34.88 0.181 7.28 19.21 13.18
1/15/2023 12:45:00 PM 1.59 34.862 0.183 7.28 25.67 13.18
1/15/2023 1:00:00 PM 1.64 34.952 0.183 7.28 22.33 13.19
1/15/2023 1:15:00 PM 1.67 35.006 0.185 7.29 39.92 13.2
1/15/2023 1:30:00 PM 1.7 35.06 0.187 7.31 13.76 13.18
1/15/2023 1:45:00 PM 1.73 35.114 0.187 7.28 12.58 13.2
1/15/2023 2:00:00 PM 1.77 35.186 0.186 7.28 18.99 13.18
1/15/2023 2:15:00 PM 1.79 35.222 0.187 7.28 115.85 13.18
1/15/2023 2:30:00 PM 1.81 35.258 0.186 7.29 13.91 13.2
1/15/2023 2:45:00 PM 1.79 35.222 0.186 7.29 24.67 13.17
1/15/2023 3:00:00 PM 1.78 35.204 0.186 7.3 20.81 13.17
1/15/2023 3:15:00 PM 1.74 35.132 0.187 7.29 18.38 13.17
1/15/2023 3:30:00 PM 1.69 35.042 0.186 7.29 14.08 13.15
1/15/2023 3:45:00 PM 1.62 34.916 0.184 7.28 18.24 13.16
1/15/2023 4:00:00 PM 1.57 34.826 0.188 7.28 13.82 13.13
1/15/2023 4:15:00 PM 1.51 34.718 0.187 7.26 17.7 13.15
1/15/2023 4:30:00 PM 1.47 34.646 0.187 7.24 12.33 13.15
1/15/2023 4:45:00 PM 1.42 34.556 0.187 7.28 17.54 13.13
1/15/2023 5:00:00 PM 1.39 34.502 0.187 7.27 15.04 13.14
1/15/2023 5:15:00 PM 1.36 34.448 0.187 7.28 25.45 13.12
1/15/2023 5:30:00 PM 1.33 34.394 0.188 7.26 28.18 13.07
1/15/2023 5:45:00 PM 1.31 34.358 0.187 7.27 14.09 13.08
1/15/2023 6:00:00 PM 1.29 34.322 0.188 7.27 16.39 13.07
1/15/2023 6:15:00 PM 1.27 34.286 0.188 7.26 18.99 13.07
1/15/2023 6:30:00 PM 1.26 34.268 0.187 7.26 18.96 13.05
1/15/2023 6:45:00 PM 1.23 34.214 0.182 7.28 22.1 13.07
1/15/2023 7:00:00 PM 1.22 34.196 0.188 7.26 20.37 13.07
1/15/2023 7:15:00 PM 1.2 34.16 0.174 7.28 17.49 13.06
1/15/2023 7:30:00 PM 1.19 34.142 0.187 7.25 14.08 13.07
1/15/2023 7:45:00 PM 1.18 34.124 0.178 7.27 16.24 13.06
1/15/2023 8:00:00 PM 1.16 34.088 0.188 7.22 12.86 13.06
1/15/2023 8:15:00 PM 1.17 34.106 0.187 7.23 14.61 13.05
1/15/2023 8:30:00 PM 1.15 34.07 0.188 7.24 12.95 13.05
1/15/2023 8:45:00 PM 1.12 34.016 0.189 7.23 20.79 13.07
1/15/2023 9:00:00 PM 1.11 33.998 0.188 7.25 12.28 13.06
1/15/2023 9:15:00 PM 1.09 33.962 0.188 7.22 16.74 13.04
1/15/2023 9:30:00 PM 1.07 33.926 0.189 7.27 14.78 13.06
1/15/2023 9:45:00 PM 1.06 33.908 0.189 7.28 21.3 13.05
1/15/2023 10:00:00 PM 1.04 33.872 0.188 7.27 14.15 13.06
1/15/2023 10:15:00 PM 1.01 33.818 0.185 7.26 31.04 13.07
1/15/2023 10:30:00 PM 1.01 33.818 0.189 7.28 14.01 13.06
1/15/2023 10:45:00 PM 0.98 33.764 0.187 7.27 18.2 13.06
1/15/2023 11:00:00 PM 0.95 33.71 0.182 7.27 46.55 13.09
1/15/2023 11:15:00 PM 0.93 33.674 0.187 7.27 19.36 13.08
1/15/2023 11:30:00 PM 0.89 33.602 0.189 7.25 28.29 13.09
1/15/2023 11:45:00 PM 0.87 33.566 0.189 7.26 17.95 13.09
1/16/2023 12:00:00 AM 0.83 33.494 0.189 7.27 42.41 13.11
1/16/2023 12:15:00 AM 0.81 33.458 0.185 7.24 17.72 13.07
1/16/2023 12:30:00 AM 0.79 33.422 0.185 7.26 17.88 13.11
1/16/2023 12:45:00 AM 0.78 33.404 0.188 7.26 23.42 13.11
1/16/2023 1:00:00 AM 0.75 33.35 0.188 7.27 22.25 13.09
1/16/2023 1:15:00 AM 0.72 33.296 0.188 7.27 25.04 13.12
1/16/2023 1:30:00 AM 0.71 33.278 0.188 7.26 12.08 13.11
1/16/2023 1:45:00 AM 0.68 33.224 0.182 7.27 34.57 13.13
1/16/2023 2:00:00 AM 0.66 33.188 0.186 7.27 13.82 13.12
1/16/2023 2:15:00 AM 0.65 33.17 0.188 7.27 25.99 13.13
1/16/2023 2:30:00 AM 0.63 33.134 0.186 7.27 13.86 13.11
1/16/2023 2:45:00 AM 0.61 33.098 0.184 7.25 13.24 13.14
1/16/2023 3:00:00 AM 0.58 33.044 0.183 7.26 13.63 13.15
1/16/2023 3:15:00 AM 0.56 33.008 0.177 7.27 21.45 13.16
1/16/2023 3:30:00 AM 0.54 32.972 0.174 7.27 15.38 13.16
1/16/2023 3:45:00 AM 0.52 32.936 0.18 7.25 15.87 13.16
1/16/2023 4:00:00 AM 0.5 32.9 0.18 7.26 13.75 13.17
1/16/2023 4:15:00 AM 0.49 32.882 0.187 7.26 18.56 13.18
1/16/2023 4:30:00 AM 0.46 32.828 0.189 7.26 18.71 13.2
1/16/2023 4:45:00 AM 0.44 32.792 0.189 7.25 18.74 13.19
1/16/2023 5:00:00 AM 0.42 32.756 0.19 7.25 14.69 13.2
1/16/2023 5:15:00 AM 0.4 32.72 0.191 7.25 14.62 13.2
1/16/2023 5:30:00 AM 0.38 32.684 0.188 7.24 15.27 13.22
1/16/2023 5:45:00 AM 0.36 32.648 0.191 7.23 12.62 13.23
1/16/2023 6:00:00 AM 0.35 32.63 0.191 7.24 15.3 13.23
1/16/2023 6:15:00 AM 0.31 32.558 0.192 7.22 14.82 13.18
1/16/2023 6:30:00 AM 0.29 32.522 0.188 7.23 19.39 13.24
1/16/2023 6:45:00 AM 0.28 32.504 0.191 7.24 15.04 13.23
1/16/2023 7:00:00 AM 0.28 32.504 0.192 7.27 13.3 13.25
1/16/2023 7:15:00 AM 0.26 32.468 0.192 7.27 31.58 13.27
1/16/2023 7:30:00 AM 0.25 32.45 0.193 7.28 13.31 13.27
1/16/2023 7:45:00 AM 0.28 32.504 0.202 7.23 16.13